<?xml version="1.0" encoding="UTF-8" standalone="no" ?>
<gpx xmlns="http://www.topografix.com/GPX/1/1" xmlns:xsi="http://www.w3.org/2001/XMLSchema-instance" xsi:schemaLocation="http://www.topografix.com/GPX/1/1 http://www.topografix.com/GPX/1/1/gpx.xsd" version="1.1" creator="VisuGPX - https://www.visugpx.com">
  <metadata>
    <name>VTT entre le bergons et le val d\'azun</name>
    <desc><![CDATA[vue panoramique des Pyrénées]]></desc>
  </metadata>
  <wpt lat="43.00398" lon="-0.13441">
    <ele>950.1</ele>
    <name><![CDATA[Start]]></name>
    <desc><![CDATA[2009-08-22 07:58:16]]></desc>
  </wpt>
  <trk>
    <name><![CDATA[2009-08-22-07-58-16]]></name>
    <desc><![CDATA[150:07 - 17.2km]]></desc>
    <trkseg>
      <trkpt lat="43.00398" lon="-0.13441">
        <ele>950.1</ele>
        <time>2009-08-22T07:58:16Z</time>
      </trkpt>
      <trkpt lat="43.00406" lon="-0.13441">
        <ele>950.2</ele>
        <time>2009-08-22T07:58:22Z</time>
      </trkpt>
      <trkpt lat="43.00417" lon="-0.13443">
        <ele>950.8</ele>
        <time>2009-08-22T07:58:28Z</time>
      </trkpt>
      <trkpt lat="43.00428" lon="-0.13442">
        <ele>951</ele>
        <time>2009-08-22T07:58:33Z</time>
      </trkpt>
      <trkpt lat="43.0044" lon="-0.13443">
        <ele>951.7</ele>
        <time>2009-08-22T07:58:38Z</time>
      </trkpt>
      <trkpt lat="43.00453" lon="-0.13444">
        <ele>952.4</ele>
        <time>2009-08-22T07:58:43Z</time>
      </trkpt>
      <trkpt lat="43.00465" lon="-0.13446">
        <ele>953.4</ele>
        <time>2009-08-22T07:58:48Z</time>
      </trkpt>
      <trkpt lat="43.00479" lon="-0.13453">
        <ele>955.4</ele>
        <time>2009-08-22T07:58:53Z</time>
      </trkpt>
      <trkpt lat="43.00492" lon="-0.13462">
        <ele>957.7</ele>
        <time>2009-08-22T07:58:57Z</time>
      </trkpt>
      <trkpt lat="43.00506" lon="-0.13472">
        <ele>959.4</ele>
        <time>2009-08-22T07:59:01Z</time>
      </trkpt>
      <trkpt lat="43.00516" lon="-0.13482">
        <ele>959.8</ele>
        <time>2009-08-22T07:59:05Z</time>
      </trkpt>
      <trkpt lat="43.00526" lon="-0.13493">
        <ele>959.3</ele>
        <time>2009-08-22T07:59:09Z</time>
      </trkpt>
      <trkpt lat="43.00536" lon="-0.13504">
        <ele>958.9</ele>
        <time>2009-08-22T07:59:13Z</time>
      </trkpt>
      <trkpt lat="43.00545" lon="-0.13519">
        <ele>960.6</ele>
        <time>2009-08-22T07:59:18Z</time>
      </trkpt>
      <trkpt lat="43.00552" lon="-0.13531">
        <ele>962.1</ele>
        <time>2009-08-22T07:59:23Z</time>
      </trkpt>
      <trkpt lat="43.00559" lon="-0.13542">
        <ele>962.7</ele>
        <time>2009-08-22T07:59:28Z</time>
      </trkpt>
      <trkpt lat="43.00567" lon="-0.1355">
        <ele>962.2</ele>
        <time>2009-08-22T07:59:33Z</time>
      </trkpt>
      <trkpt lat="43.00576" lon="-0.13559">
        <ele>961.2</ele>
        <time>2009-08-22T07:59:39Z</time>
      </trkpt>
      <trkpt lat="43.00585" lon="-0.13567">
        <ele>960.5</ele>
        <time>2009-08-22T07:59:44Z</time>
      </trkpt>
      <trkpt lat="43.00592" lon="-0.13576">
        <ele>960.8</ele>
        <time>2009-08-22T07:59:50Z</time>
      </trkpt>
      <trkpt lat="43.00599" lon="-0.13583">
        <ele>960.4</ele>
        <time>2009-08-22T07:59:57Z</time>
      </trkpt>
      <trkpt lat="43.00606" lon="-0.13592">
        <ele>962.7</ele>
        <time>2009-08-22T08:00:03Z</time>
      </trkpt>
      <trkpt lat="43.00615" lon="-0.13602">
        <ele>964.6</ele>
        <time>2009-08-22T08:00:09Z</time>
      </trkpt>
      <trkpt lat="43.00622" lon="-0.13611">
        <ele>966.6</ele>
        <time>2009-08-22T08:00:14Z</time>
      </trkpt>
      <trkpt lat="43.0063" lon="-0.13619">
        <ele>968.2</ele>
        <time>2009-08-22T08:00:19Z</time>
      </trkpt>
      <trkpt lat="43.00639" lon="-0.13627">
        <ele>969.3</ele>
        <time>2009-08-22T08:00:24Z</time>
      </trkpt>
      <trkpt lat="43.0065" lon="-0.13632">
        <ele>968.8</ele>
        <time>2009-08-22T08:00:29Z</time>
      </trkpt>
      <trkpt lat="43.0066" lon="-0.13636">
        <ele>967.9</ele>
        <time>2009-08-22T08:00:34Z</time>
      </trkpt>
      <trkpt lat="43.0067" lon="-0.13644">
        <ele>968.7</ele>
        <time>2009-08-22T08:00:39Z</time>
      </trkpt>
      <trkpt lat="43.00681" lon="-0.13653">
        <ele>969.9</ele>
        <time>2009-08-22T08:00:44Z</time>
      </trkpt>
      <trkpt lat="43.00692" lon="-0.13658">
        <ele>969.5</ele>
        <time>2009-08-22T08:00:49Z</time>
      </trkpt>
      <trkpt lat="43.00704" lon="-0.13661">
        <ele>967.9</ele>
        <time>2009-08-22T08:00:54Z</time>
      </trkpt>
      <trkpt lat="43.00717" lon="-0.13664">
        <ele>965.8</ele>
        <time>2009-08-22T08:00:59Z</time>
      </trkpt>
      <trkpt lat="43.00729" lon="-0.1367">
        <ele>964.9</ele>
        <time>2009-08-22T08:01:04Z</time>
      </trkpt>
      <trkpt lat="43.0074" lon="-0.13679">
        <ele>965.6</ele>
        <time>2009-08-22T08:01:09Z</time>
      </trkpt>
      <trkpt lat="43.00748" lon="-0.13689">
        <ele>967.1</ele>
        <time>2009-08-22T08:01:14Z</time>
      </trkpt>
      <trkpt lat="43.00756" lon="-0.13697">
        <ele>969.2</ele>
        <time>2009-08-22T08:01:19Z</time>
      </trkpt>
      <trkpt lat="43.00762" lon="-0.13706">
        <ele>971.6</ele>
        <time>2009-08-22T08:01:24Z</time>
      </trkpt>
      <trkpt lat="43.00773" lon="-0.13715">
        <ele>973.5</ele>
        <time>2009-08-22T08:01:30Z</time>
      </trkpt>
      <trkpt lat="43.00786" lon="-0.13721">
        <ele>973.7</ele>
        <time>2009-08-22T08:01:35Z</time>
      </trkpt>
      <trkpt lat="43.00796" lon="-0.13723">
        <ele>973.3</ele>
        <time>2009-08-22T08:01:41Z</time>
      </trkpt>
      <trkpt lat="43.00809" lon="-0.13723">
        <ele>971.6</ele>
        <time>2009-08-22T08:01:47Z</time>
      </trkpt>
      <trkpt lat="43.0082" lon="-0.13719">
        <ele>969.5</ele>
        <time>2009-08-22T08:01:52Z</time>
      </trkpt>
      <trkpt lat="43.00834" lon="-0.13712">
        <ele>966.3</ele>
        <time>2009-08-22T08:01:57Z</time>
      </trkpt>
      <trkpt lat="43.00846" lon="-0.13714">
        <ele>964.7</ele>
        <time>2009-08-22T08:02:02Z</time>
      </trkpt>
      <trkpt lat="43.00858" lon="-0.13721">
        <ele>964.1</ele>
        <time>2009-08-22T08:02:07Z</time>
      </trkpt>
      <trkpt lat="43.00869" lon="-0.13726">
        <ele>963.1</ele>
        <time>2009-08-22T08:02:12Z</time>
      </trkpt>
      <trkpt lat="43.00879" lon="-0.13732">
        <ele>962.4</ele>
        <time>2009-08-22T08:02:18Z</time>
      </trkpt>
      <trkpt lat="43.00882" lon="-0.13737">
        <ele>962.5</ele>
        <time>2009-08-22T08:02:21Z</time>
      </trkpt>
      <trkpt lat="43.00879" lon="-0.13754">
        <ele>965.8</ele>
        <time>2009-08-22T08:02:28Z</time>
      </trkpt>
      <trkpt lat="43.00875" lon="-0.13767">
        <ele>969.2</ele>
        <time>2009-08-22T08:02:35Z</time>
      </trkpt>
      <trkpt lat="43.00875" lon="-0.13782">
        <ele>972.1</ele>
        <time>2009-08-22T08:02:41Z</time>
      </trkpt>
      <trkpt lat="43.0088" lon="-0.13796">
        <ele>973.7</ele>
        <time>2009-08-22T08:02:48Z</time>
      </trkpt>
      <trkpt lat="43.00883" lon="-0.13799">
        <ele>973.9</ele>
        <time>2009-08-22T08:02:50Z</time>
      </trkpt>
      <trkpt lat="43.0089" lon="-0.13809">
        <ele>974.3</ele>
        <time>2009-08-22T08:02:57Z</time>
      </trkpt>
      <trkpt lat="43.00898" lon="-0.13817">
        <ele>974.3</ele>
        <time>2009-08-22T08:03:03Z</time>
      </trkpt>
      <trkpt lat="43.00907" lon="-0.13822">
        <ele>973.5</ele>
        <time>2009-08-22T08:03:09Z</time>
      </trkpt>
      <trkpt lat="43.00914" lon="-0.13828">
        <ele>973.4</ele>
        <time>2009-08-22T08:03:15Z</time>
      </trkpt>
      <trkpt lat="43.00924" lon="-0.13834">
        <ele>973.1</ele>
        <time>2009-08-22T08:03:21Z</time>
      </trkpt>
      <trkpt lat="43.00927" lon="-0.13836">
        <ele>973.3</ele>
        <time>2009-08-22T08:03:23Z</time>
      </trkpt>
      <trkpt lat="43.00932" lon="-0.13844">
        <ele>974.4</ele>
        <time>2009-08-22T08:03:28Z</time>
      </trkpt>
      <trkpt lat="43.0094" lon="-0.13854">
        <ele>975.9</ele>
        <time>2009-08-22T08:03:35Z</time>
      </trkpt>
      <trkpt lat="43.00946" lon="-0.13865">
        <ele>977.7</ele>
        <time>2009-08-22T08:03:41Z</time>
      </trkpt>
      <trkpt lat="43.00952" lon="-0.13875">
        <ele>979.4</ele>
        <time>2009-08-22T08:03:47Z</time>
      </trkpt>
      <trkpt lat="43.00961" lon="-0.13885">
        <ele>980.6</ele>
        <time>2009-08-22T08:03:54Z</time>
      </trkpt>
      <trkpt lat="43.00969" lon="-0.13891">
        <ele>981</ele>
        <time>2009-08-22T08:04:01Z</time>
      </trkpt>
      <trkpt lat="43.00979" lon="-0.13898">
        <ele>981.5</ele>
        <time>2009-08-22T08:04:09Z</time>
      </trkpt>
      <trkpt lat="43.00988" lon="-0.13907">
        <ele>982.3</ele>
        <time>2009-08-22T08:04:15Z</time>
      </trkpt>
      <trkpt lat="43.00997" lon="-0.13915">
        <ele>982.9</ele>
        <time>2009-08-22T08:04:20Z</time>
      </trkpt>
      <trkpt lat="43.01008" lon="-0.13923">
        <ele>983.6</ele>
        <time>2009-08-22T08:04:25Z</time>
      </trkpt>
      <trkpt lat="43.01019" lon="-0.1393">
        <ele>983.6</ele>
        <time>2009-08-22T08:04:30Z</time>
      </trkpt>
      <trkpt lat="43.0103" lon="-0.13941">
        <ele>985.1</ele>
        <time>2009-08-22T08:04:36Z</time>
      </trkpt>
      <trkpt lat="43.0104" lon="-0.1395">
        <ele>985.9</ele>
        <time>2009-08-22T08:04:41Z</time>
      </trkpt>
      <trkpt lat="43.01052" lon="-0.13952">
        <ele>984</ele>
        <time>2009-08-22T08:04:46Z</time>
      </trkpt>
      <trkpt lat="43.01068" lon="-0.13956">
        <ele>981.9</ele>
        <time>2009-08-22T08:04:52Z</time>
      </trkpt>
      <trkpt lat="43.01084" lon="-0.13961">
        <ele>979.9</ele>
        <time>2009-08-22T08:04:56Z</time>
      </trkpt>
      <trkpt lat="43.01098" lon="-0.13969">
        <ele>978.2</ele>
        <time>2009-08-22T08:05:00Z</time>
      </trkpt>
      <trkpt lat="43.01117" lon="-0.13981">
        <ele>976</ele>
        <time>2009-08-22T08:05:04Z</time>
      </trkpt>
      <trkpt lat="43.01132" lon="-0.13991">
        <ele>974.4</ele>
        <time>2009-08-22T08:05:07Z</time>
      </trkpt>
      <trkpt lat="43.01136" lon="-0.13995">
        <ele>974</ele>
        <time>2009-08-22T08:05:08Z</time>
      </trkpt>
      <trkpt lat="43.01155" lon="-0.14009">
        <ele>971.9</ele>
        <time>2009-08-22T08:05:12Z</time>
      </trkpt>
      <trkpt lat="43.01168" lon="-0.14023">
        <ele>970.3</ele>
        <time>2009-08-22T08:05:15Z</time>
      </trkpt>
      <trkpt lat="43.01183" lon="-0.14045">
        <ele>969.7</ele>
        <time>2009-08-22T08:05:19Z</time>
      </trkpt>
      <trkpt lat="43.01197" lon="-0.14066">
        <ele>968.8</ele>
        <time>2009-08-22T08:05:23Z</time>
      </trkpt>
      <trkpt lat="43.01214" lon="-0.14089">
        <ele>966.7</ele>
        <time>2009-08-22T08:05:27Z</time>
      </trkpt>
      <trkpt lat="43.01233" lon="-0.14111">
        <ele>962.8</ele>
        <time>2009-08-22T08:05:31Z</time>
      </trkpt>
      <trkpt lat="43.01242" lon="-0.14124">
        <ele>960.9</ele>
        <time>2009-08-22T08:05:33Z</time>
      </trkpt>
      <trkpt lat="43.01247" lon="-0.14156">
        <ele>961.9</ele>
        <time>2009-08-22T08:05:37Z</time>
      </trkpt>
      <trkpt lat="43.01244" lon="-0.14168">
        <ele>963.9</ele>
        <time>2009-08-22T08:05:39Z</time>
      </trkpt>
      <trkpt lat="43.01238" lon="-0.1419">
        <ele>966.4</ele>
        <time>2009-08-22T08:05:44Z</time>
      </trkpt>
      <trkpt lat="43.01232" lon="-0.14207">
        <ele>968.6</ele>
        <time>2009-08-22T08:05:49Z</time>
      </trkpt>
      <trkpt lat="43.01229" lon="-0.14224">
        <ele>970.2</ele>
        <time>2009-08-22T08:05:54Z</time>
      </trkpt>
      <trkpt lat="43.01225" lon="-0.14238">
        <ele>972.4</ele>
        <time>2009-08-22T08:05:59Z</time>
      </trkpt>
      <trkpt lat="43.01222" lon="-0.1425">
        <ele>974.3</ele>
        <time>2009-08-22T08:06:04Z</time>
      </trkpt>
      <trkpt lat="43.01219" lon="-0.14265">
        <ele>975.9</ele>
        <time>2009-08-22T08:06:09Z</time>
      </trkpt>
      <trkpt lat="43.01219" lon="-0.14281">
        <ele>976.4</ele>
        <time>2009-08-22T08:06:14Z</time>
      </trkpt>
      <trkpt lat="43.01222" lon="-0.14299">
        <ele>975.5</ele>
        <time>2009-08-22T08:06:19Z</time>
      </trkpt>
      <trkpt lat="43.01227" lon="-0.14317">
        <ele>973.4</ele>
        <time>2009-08-22T08:06:24Z</time>
      </trkpt>
      <trkpt lat="43.01234" lon="-0.14334">
        <ele>970.7</ele>
        <time>2009-08-22T08:06:29Z</time>
      </trkpt>
      <trkpt lat="43.01236" lon="-0.14354">
        <ele>968.9</ele>
        <time>2009-08-22T08:06:34Z</time>
      </trkpt>
      <trkpt lat="43.01236" lon="-0.14373">
        <ele>968.4</ele>
        <time>2009-08-22T08:06:39Z</time>
      </trkpt>
      <trkpt lat="43.01233" lon="-0.14392">
        <ele>969.1</ele>
        <time>2009-08-22T08:06:44Z</time>
      </trkpt>
      <trkpt lat="43.0123" lon="-0.1441">
        <ele>969.9</ele>
        <time>2009-08-22T08:06:49Z</time>
      </trkpt>
      <trkpt lat="43.01225" lon="-0.14426">
        <ele>971.1</ele>
        <time>2009-08-22T08:06:54Z</time>
      </trkpt>
      <trkpt lat="43.0122" lon="-0.14442">
        <ele>972.4</ele>
        <time>2009-08-22T08:06:59Z</time>
      </trkpt>
      <trkpt lat="43.01217" lon="-0.14458">
        <ele>972.6</ele>
        <time>2009-08-22T08:07:04Z</time>
      </trkpt>
      <trkpt lat="43.01212" lon="-0.14477">
        <ele>973.1</ele>
        <time>2009-08-22T08:07:09Z</time>
      </trkpt>
      <trkpt lat="43.01207" lon="-0.14494">
        <ele>973.9</ele>
        <time>2009-08-22T08:07:14Z</time>
      </trkpt>
      <trkpt lat="43.01205" lon="-0.14512">
        <ele>973.4</ele>
        <time>2009-08-22T08:07:19Z</time>
      </trkpt>
      <trkpt lat="43.01203" lon="-0.1453">
        <ele>972.9</ele>
        <time>2009-08-22T08:07:24Z</time>
      </trkpt>
      <trkpt lat="43.012" lon="-0.14548">
        <ele>972.5</ele>
        <time>2009-08-22T08:07:29Z</time>
      </trkpt>
      <trkpt lat="43.01197" lon="-0.14561">
        <ele>972.7</ele>
        <time>2009-08-22T08:07:34Z</time>
      </trkpt>
      <trkpt lat="43.01191" lon="-0.14572">
        <ele>973.6</ele>
        <time>2009-08-22T08:07:39Z</time>
      </trkpt>
      <trkpt lat="43.01186" lon="-0.14586">
        <ele>974</ele>
        <time>2009-08-22T08:07:44Z</time>
      </trkpt>
      <trkpt lat="43.01183" lon="-0.146">
        <ele>974.2</ele>
        <time>2009-08-22T08:07:49Z</time>
      </trkpt>
      <trkpt lat="43.01177" lon="-0.14614">
        <ele>975.4</ele>
        <time>2009-08-22T08:07:54Z</time>
      </trkpt>
      <trkpt lat="43.01175" lon="-0.1463">
        <ele>975.2</ele>
        <time>2009-08-22T08:07:59Z</time>
      </trkpt>
      <trkpt lat="43.01172" lon="-0.14647">
        <ele>975.3</ele>
        <time>2009-08-22T08:08:04Z</time>
      </trkpt>
      <trkpt lat="43.0117" lon="-0.14665">
        <ele>975.2</ele>
        <time>2009-08-22T08:08:09Z</time>
      </trkpt>
      <trkpt lat="43.0117" lon="-0.14684">
        <ele>974.9</ele>
        <time>2009-08-22T08:08:14Z</time>
      </trkpt>
      <trkpt lat="43.01172" lon="-0.14702">
        <ele>974.5</ele>
        <time>2009-08-22T08:08:19Z</time>
      </trkpt>
      <trkpt lat="43.01171" lon="-0.14721">
        <ele>974.7</ele>
        <time>2009-08-22T08:08:24Z</time>
      </trkpt>
      <trkpt lat="43.01169" lon="-0.1474">
        <ele>975.4</ele>
        <time>2009-08-22T08:08:29Z</time>
      </trkpt>
      <trkpt lat="43.01166" lon="-0.14758">
        <ele>976</ele>
        <time>2009-08-22T08:08:33Z</time>
      </trkpt>
      <trkpt lat="43.01164" lon="-0.14775">
        <ele>976.3</ele>
        <time>2009-08-22T08:08:37Z</time>
      </trkpt>
      <trkpt lat="43.01162" lon="-0.14793">
        <ele>976.4</ele>
        <time>2009-08-22T08:08:42Z</time>
      </trkpt>
      <trkpt lat="43.01157" lon="-0.14812">
        <ele>977.2</ele>
        <time>2009-08-22T08:08:47Z</time>
      </trkpt>
      <trkpt lat="43.01153" lon="-0.14829">
        <ele>978</ele>
        <time>2009-08-22T08:08:52Z</time>
      </trkpt>
      <trkpt lat="43.01148" lon="-0.14846">
        <ele>978.5</ele>
        <time>2009-08-22T08:08:57Z</time>
      </trkpt>
      <trkpt lat="43.01142" lon="-0.14866">
        <ele>979</ele>
        <time>2009-08-22T08:09:02Z</time>
      </trkpt>
      <trkpt lat="43.01138" lon="-0.14883">
        <ele>979</ele>
        <time>2009-08-22T08:09:06Z</time>
      </trkpt>
      <trkpt lat="43.01132" lon="-0.14897">
        <ele>979.8</ele>
        <time>2009-08-22T08:09:11Z</time>
      </trkpt>
      <trkpt lat="43.01127" lon="-0.14915">
        <ele>980.2</ele>
        <time>2009-08-22T08:09:16Z</time>
      </trkpt>
      <trkpt lat="43.01122" lon="-0.14929">
        <ele>980</ele>
        <time>2009-08-22T08:09:20Z</time>
      </trkpt>
      <trkpt lat="43.01115" lon="-0.14946">
        <ele>979.7</ele>
        <time>2009-08-22T08:09:24Z</time>
      </trkpt>
      <trkpt lat="43.01109" lon="-0.14963">
        <ele>979.4</ele>
        <time>2009-08-22T08:09:27Z</time>
      </trkpt>
      <trkpt lat="43.01104" lon="-0.14989">
        <ele>977.3</ele>
        <time>2009-08-22T08:09:31Z</time>
      </trkpt>
      <trkpt lat="43.01096" lon="-0.15028">
        <ele>973.8</ele>
        <time>2009-08-22T08:09:37Z</time>
      </trkpt>
      <trkpt lat="43.01088" lon="-0.15051">
        <ele>972.1</ele>
        <time>2009-08-22T08:09:41Z</time>
      </trkpt>
      <trkpt lat="43.0108" lon="-0.15074">
        <ele>970.5</ele>
        <time>2009-08-22T08:09:45Z</time>
      </trkpt>
      <trkpt lat="43.01068" lon="-0.15103">
        <ele>970.2</ele>
        <time>2009-08-22T08:09:49Z</time>
      </trkpt>
      <trkpt lat="43.0106" lon="-0.15125">
        <ele>970.1</ele>
        <time>2009-08-22T08:09:52Z</time>
      </trkpt>
      <trkpt lat="43.01049" lon="-0.15149">
        <ele>970.2</ele>
        <time>2009-08-22T08:09:57Z</time>
      </trkpt>
      <trkpt lat="43.01047" lon="-0.15152">
        <ele>970.3</ele>
        <time>2009-08-22T08:09:58Z</time>
      </trkpt>
      <trkpt lat="43.01038" lon="-0.15166">
        <ele>971.1</ele>
        <time>2009-08-22T08:10:04Z</time>
      </trkpt>
      <trkpt lat="43.01029" lon="-0.15182">
        <ele>972.5</ele>
        <time>2009-08-22T08:10:09Z</time>
      </trkpt>
      <trkpt lat="43.01022" lon="-0.15192">
        <ele>973.8</ele>
        <time>2009-08-22T08:10:14Z</time>
      </trkpt>
      <trkpt lat="43.01016" lon="-0.15203">
        <ele>974.5</ele>
        <time>2009-08-22T08:10:20Z</time>
      </trkpt>
      <trkpt lat="43.01009" lon="-0.15216">
        <ele>975.4</ele>
        <time>2009-08-22T08:10:25Z</time>
      </trkpt>
      <trkpt lat="43.01005" lon="-0.1523">
        <ele>975.4</ele>
        <time>2009-08-22T08:10:30Z</time>
      </trkpt>
      <trkpt lat="43.01004" lon="-0.15243">
        <ele>974.7</ele>
        <time>2009-08-22T08:10:34Z</time>
      </trkpt>
      <trkpt lat="43.01002" lon="-0.15249">
        <ele>974.7</ele>
        <time>2009-08-22T08:10:36Z</time>
      </trkpt>
      <trkpt lat="43.00998" lon="-0.15267">
        <ele>974.7</ele>
        <time>2009-08-22T08:10:42Z</time>
      </trkpt>
      <trkpt lat="43.00993" lon="-0.15281">
        <ele>975.3</ele>
        <time>2009-08-22T08:10:47Z</time>
      </trkpt>
      <trkpt lat="43.00991" lon="-0.15295">
        <ele>975.3</ele>
        <time>2009-08-22T08:10:52Z</time>
      </trkpt>
      <trkpt lat="43.0099" lon="-0.15309">
        <ele>975</ele>
        <time>2009-08-22T08:10:57Z</time>
      </trkpt>
      <trkpt lat="43.00988" lon="-0.15323">
        <ele>974.9</ele>
        <time>2009-08-22T08:11:02Z</time>
      </trkpt>
      <trkpt lat="43.00987" lon="-0.15337">
        <ele>974.9</ele>
        <time>2009-08-22T08:11:07Z</time>
      </trkpt>
      <trkpt lat="43.00988" lon="-0.1535">
        <ele>975.1</ele>
        <time>2009-08-22T08:11:12Z</time>
      </trkpt>
      <trkpt lat="43.00989" lon="-0.15371">
        <ele>975.4</ele>
        <time>2009-08-22T08:11:19Z</time>
      </trkpt>
      <trkpt lat="43.00989" lon="-0.15388">
        <ele>975.9</ele>
        <time>2009-08-22T08:11:25Z</time>
      </trkpt>
      <trkpt lat="43.00988" lon="-0.15404">
        <ele>976.5</ele>
        <time>2009-08-22T08:11:30Z</time>
      </trkpt>
      <trkpt lat="43.00987" lon="-0.15419">
        <ele>977.2</ele>
        <time>2009-08-22T08:11:35Z</time>
      </trkpt>
      <trkpt lat="43.00985" lon="-0.15432">
        <ele>978.4</ele>
        <time>2009-08-22T08:11:40Z</time>
      </trkpt>
      <trkpt lat="43.00984" lon="-0.15446">
        <ele>979.4</ele>
        <time>2009-08-22T08:11:45Z</time>
      </trkpt>
      <trkpt lat="43.00985" lon="-0.15461">
        <ele>979.7</ele>
        <time>2009-08-22T08:11:50Z</time>
      </trkpt>
      <trkpt lat="43.00986" lon="-0.15475">
        <ele>980.3</ele>
        <time>2009-08-22T08:11:55Z</time>
      </trkpt>
      <trkpt lat="43.00989" lon="-0.1549">
        <ele>980.2</ele>
        <time>2009-08-22T08:12:00Z</time>
      </trkpt>
      <trkpt lat="43.00993" lon="-0.15504">
        <ele>980.1</ele>
        <time>2009-08-22T08:12:05Z</time>
      </trkpt>
      <trkpt lat="43.00991" lon="-0.15519">
        <ele>981.5</ele>
        <time>2009-08-22T08:12:10Z</time>
      </trkpt>
      <trkpt lat="43.00992" lon="-0.15534">
        <ele>982.4</ele>
        <time>2009-08-22T08:12:15Z</time>
      </trkpt>
      <trkpt lat="43.00995" lon="-0.15549">
        <ele>982.7</ele>
        <time>2009-08-22T08:12:20Z</time>
      </trkpt>
      <trkpt lat="43.00996" lon="-0.15565">
        <ele>983.6</ele>
        <time>2009-08-22T08:12:25Z</time>
      </trkpt>
      <trkpt lat="43.00997" lon="-0.15581">
        <ele>984.6</ele>
        <time>2009-08-22T08:12:31Z</time>
      </trkpt>
      <trkpt lat="43.01002" lon="-0.15598">
        <ele>984.6</ele>
        <time>2009-08-22T08:12:36Z</time>
      </trkpt>
      <trkpt lat="43.01001" lon="-0.15613">
        <ele>985.8</ele>
        <time>2009-08-22T08:12:41Z</time>
      </trkpt>
      <trkpt lat="43.00999" lon="-0.15631">
        <ele>987.5</ele>
        <time>2009-08-22T08:12:47Z</time>
      </trkpt>
      <trkpt lat="43.01002" lon="-0.15646">
        <ele>988.1</ele>
        <time>2009-08-22T08:12:53Z</time>
      </trkpt>
      <trkpt lat="43.01004" lon="-0.1566">
        <ele>988.7</ele>
        <time>2009-08-22T08:12:59Z</time>
      </trkpt>
      <trkpt lat="43.01006" lon="-0.15675">
        <ele>988.9</ele>
        <time>2009-08-22T08:13:05Z</time>
      </trkpt>
      <trkpt lat="43.01006" lon="-0.15692">
        <ele>989.2</ele>
        <time>2009-08-22T08:13:11Z</time>
      </trkpt>
      <trkpt lat="43.01005" lon="-0.15706">
        <ele>989.9</ele>
        <time>2009-08-22T08:13:18Z</time>
      </trkpt>
      <trkpt lat="43.01006" lon="-0.15717">
        <ele>989.9</ele>
        <time>2009-08-22T08:13:24Z</time>
      </trkpt>
      <trkpt lat="43.01008" lon="-0.15732">
        <ele>989.8</ele>
        <time>2009-08-22T08:13:29Z</time>
      </trkpt>
      <trkpt lat="43.01014" lon="-0.15748">
        <ele>989.2</ele>
        <time>2009-08-22T08:13:34Z</time>
      </trkpt>
      <trkpt lat="43.01015" lon="-0.15765">
        <ele>988.8</ele>
        <time>2009-08-22T08:13:39Z</time>
      </trkpt>
      <trkpt lat="43.01016" lon="-0.15783">
        <ele>988.4</ele>
        <time>2009-08-22T08:13:44Z</time>
      </trkpt>
      <trkpt lat="43.01015" lon="-0.15798">
        <ele>988.4</ele>
        <time>2009-08-22T08:13:49Z</time>
      </trkpt>
      <trkpt lat="43.01016" lon="-0.15802">
        <ele>988.2</ele>
        <time>2009-08-22T08:13:50Z</time>
      </trkpt>
      <trkpt lat="43.01018" lon="-0.15822">
        <ele>987.8</ele>
        <time>2009-08-22T08:13:57Z</time>
      </trkpt>
      <trkpt lat="43.0102" lon="-0.15839">
        <ele>987.4</ele>
        <time>2009-08-22T08:14:02Z</time>
      </trkpt>
      <trkpt lat="43.01021" lon="-0.15857">
        <ele>987.2</ele>
        <time>2009-08-22T08:14:07Z</time>
      </trkpt>
      <trkpt lat="43.01024" lon="-0.15876">
        <ele>986.9</ele>
        <time>2009-08-22T08:14:12Z</time>
      </trkpt>
      <trkpt lat="43.01025" lon="-0.15879">
        <ele>986.9</ele>
        <time>2009-08-22T08:14:13Z</time>
      </trkpt>
      <trkpt lat="43.01026" lon="-0.15903">
        <ele>986.8</ele>
        <time>2009-08-22T08:14:19Z</time>
      </trkpt>
      <trkpt lat="43.01026" lon="-0.15922">
        <ele>986.7</ele>
        <time>2009-08-22T08:14:24Z</time>
      </trkpt>
      <trkpt lat="43.01022" lon="-0.1594">
        <ele>986.7</ele>
        <time>2009-08-22T08:14:29Z</time>
      </trkpt>
      <trkpt lat="43.01021" lon="-0.15947">
        <ele>986.7</ele>
        <time>2009-08-22T08:14:31Z</time>
      </trkpt>
      <trkpt lat="43.01009" lon="-0.15943">
        <ele>987.8</ele>
        <time>2009-08-22T08:14:38Z</time>
      </trkpt>
      <trkpt lat="43.01007" lon="-0.15936">
        <ele>988.2</ele>
        <time>2009-08-22T08:14:41Z</time>
      </trkpt>
      <trkpt lat="43.01001" lon="-0.15921">
        <ele>988.9</ele>
        <time>2009-08-22T08:14:48Z</time>
      </trkpt>
      <trkpt lat="43.00998" lon="-0.1591">
        <ele>989.3</ele>
        <time>2009-08-22T08:14:54Z</time>
      </trkpt>
      <trkpt lat="43.00991" lon="-0.15899">
        <ele>990.1</ele>
        <time>2009-08-22T08:15:00Z</time>
      </trkpt>
      <trkpt lat="43.00988" lon="-0.15888">
        <ele>990.6</ele>
        <time>2009-08-22T08:15:06Z</time>
      </trkpt>
      <trkpt lat="43.00985" lon="-0.15874">
        <ele>991.1</ele>
        <time>2009-08-22T08:15:12Z</time>
      </trkpt>
      <trkpt lat="43.00981" lon="-0.15865">
        <ele>991.7</ele>
        <time>2009-08-22T08:15:16Z</time>
      </trkpt>
      <trkpt lat="43.00977" lon="-0.15849">
        <ele>992.5</ele>
        <time>2009-08-22T08:15:23Z</time>
      </trkpt>
      <trkpt lat="43.00969" lon="-0.15839">
        <ele>993.6</ele>
        <time>2009-08-22T08:15:29Z</time>
      </trkpt>
      <trkpt lat="43.00963" lon="-0.15829">
        <ele>994.6</ele>
        <time>2009-08-22T08:15:35Z</time>
      </trkpt>
      <trkpt lat="43.00958" lon="-0.15829">
        <ele>995.2</ele>
        <time>2009-08-22T08:15:56Z</time>
      </trkpt>
      <trkpt lat="43.00958" lon="-0.15823">
        <ele>995.4</ele>
        <time>2009-08-22T08:16:41Z</time>
      </trkpt>
      <trkpt lat="43.00956" lon="-0.15814">
        <ele>996</ele>
        <time>2009-08-22T08:16:49Z</time>
      </trkpt>
      <trkpt lat="43.00952" lon="-0.15804">
        <ele>996.9</ele>
        <time>2009-08-22T08:16:56Z</time>
      </trkpt>
      <trkpt lat="43.00951" lon="-0.15796">
        <ele>997.3</ele>
        <time>2009-08-22T08:17:00Z</time>
      </trkpt>
      <trkpt lat="43.00947" lon="-0.15784">
        <ele>998.3</ele>
        <time>2009-08-22T08:17:07Z</time>
      </trkpt>
      <trkpt lat="43.00942" lon="-0.15774">
        <ele>999.4</ele>
        <time>2009-08-22T08:17:13Z</time>
      </trkpt>
      <trkpt lat="43.00937" lon="-0.1576">
        <ele>1000.6</ele>
        <time>2009-08-22T08:17:20Z</time>
      </trkpt>
      <trkpt lat="43.00933" lon="-0.1575">
        <ele>1001.6</ele>
        <time>2009-08-22T08:17:27Z</time>
      </trkpt>
      <trkpt lat="43.00933" lon="-0.15738">
        <ele>1002</ele>
        <time>2009-08-22T08:17:33Z</time>
      </trkpt>
      <trkpt lat="43.00927" lon="-0.15725">
        <ele>1003.2</ele>
        <time>2009-08-22T08:17:39Z</time>
      </trkpt>
      <trkpt lat="43.00921" lon="-0.15714">
        <ele>1004.6</ele>
        <time>2009-08-22T08:17:45Z</time>
      </trkpt>
      <trkpt lat="43.00915" lon="-0.15703">
        <ele>1006</ele>
        <time>2009-08-22T08:17:51Z</time>
      </trkpt>
      <trkpt lat="43.00914" lon="-0.157">
        <ele>1006.3</ele>
        <time>2009-08-22T08:17:53Z</time>
      </trkpt>
      <trkpt lat="43.00907" lon="-0.15689">
        <ele>1008.1</ele>
        <time>2009-08-22T08:18:00Z</time>
      </trkpt>
      <trkpt lat="43.00904" lon="-0.15678">
        <ele>1009.1</ele>
        <time>2009-08-22T08:18:06Z</time>
      </trkpt>
      <trkpt lat="43.00896" lon="-0.15665">
        <ele>1010.9</ele>
        <time>2009-08-22T08:18:14Z</time>
      </trkpt>
      <trkpt lat="43.00891" lon="-0.15654">
        <ele>1011.3</ele>
        <time>2009-08-22T08:18:20Z</time>
      </trkpt>
      <trkpt lat="43.00888" lon="-0.15647">
        <ele>1011.6</ele>
        <time>2009-08-22T08:18:25Z</time>
      </trkpt>
      <trkpt lat="43.00886" lon="-0.1564">
        <ele>1011.8</ele>
        <time>2009-08-22T08:18:30Z</time>
      </trkpt>
      <trkpt lat="43.00877" lon="-0.15627">
        <ele>1012.9</ele>
        <time>2009-08-22T08:18:37Z</time>
      </trkpt>
      <trkpt lat="43.00873" lon="-0.15615">
        <ele>1013.2</ele>
        <time>2009-08-22T08:18:43Z</time>
      </trkpt>
      <trkpt lat="43.00875" lon="-0.15615">
        <ele>1012.9</ele>
        <time>2009-08-22T08:18:44Z</time>
      </trkpt>
      <trkpt lat="43.00875" lon="-0.15618">
        <ele>1013</ele>
        <time>2009-08-22T08:18:49Z</time>
      </trkpt>
      <trkpt lat="43.0087" lon="-0.15607">
        <ele>1013.5</ele>
        <time>2009-08-22T08:18:56Z</time>
      </trkpt>
      <trkpt lat="43.00869" lon="-0.15605">
        <ele>1013.6</ele>
        <time>2009-08-22T08:18:57Z</time>
      </trkpt>
      <trkpt lat="43.00862" lon="-0.15593">
        <ele>1014.5</ele>
        <time>2009-08-22T08:19:04Z</time>
      </trkpt>
      <trkpt lat="43.00862" lon="-0.15587">
        <ele>1014.4</ele>
        <time>2009-08-22T08:19:07Z</time>
      </trkpt>
      <trkpt lat="43.00853" lon="-0.15578">
        <ele>1015.9</ele>
        <time>2009-08-22T08:19:14Z</time>
      </trkpt>
      <trkpt lat="43.00849" lon="-0.15571">
        <ele>1016.5</ele>
        <time>2009-08-22T08:19:18Z</time>
      </trkpt>
      <trkpt lat="43.00842" lon="-0.15556">
        <ele>1017.9</ele>
        <time>2009-08-22T08:19:25Z</time>
      </trkpt>
      <trkpt lat="43.00835" lon="-0.15545">
        <ele>1019.1</ele>
        <time>2009-08-22T08:19:31Z</time>
      </trkpt>
      <trkpt lat="43.00828" lon="-0.15536">
        <ele>1020.6</ele>
        <time>2009-08-22T08:19:37Z</time>
      </trkpt>
      <trkpt lat="43.00823" lon="-0.15532">
        <ele>1021.7</ele>
        <time>2009-08-22T08:19:41Z</time>
      </trkpt>
      <trkpt lat="43.0082" lon="-0.15539">
        <ele>1022.5</ele>
        <time>2009-08-22T08:19:45Z</time>
      </trkpt>
      <trkpt lat="43.00816" lon="-0.15547">
        <ele>1023.3</ele>
        <time>2009-08-22T08:19:49Z</time>
      </trkpt>
      <trkpt lat="43.00819" lon="-0.1556">
        <ele>1022.9</ele>
        <time>2009-08-22T08:19:55Z</time>
      </trkpt>
      <trkpt lat="43.00815" lon="-0.15573">
        <ele>1024</ele>
        <time>2009-08-22T08:20:02Z</time>
      </trkpt>
      <trkpt lat="43.00811" lon="-0.15583">
        <ele>1025.1</ele>
        <time>2009-08-22T08:20:08Z</time>
      </trkpt>
      <trkpt lat="43.00807" lon="-0.15593">
        <ele>1026.2</ele>
        <time>2009-08-22T08:20:15Z</time>
      </trkpt>
      <trkpt lat="43.00801" lon="-0.15603">
        <ele>1027.6</ele>
        <time>2009-08-22T08:20:21Z</time>
      </trkpt>
      <trkpt lat="43.00796" lon="-0.15617">
        <ele>1028.7</ele>
        <time>2009-08-22T08:20:29Z</time>
      </trkpt>
      <trkpt lat="43.00788" lon="-0.15629">
        <ele>1030.1</ele>
        <time>2009-08-22T08:20:36Z</time>
      </trkpt>
      <trkpt lat="43.00784" lon="-0.15642">
        <ele>1030.9</ele>
        <time>2009-08-22T08:20:43Z</time>
      </trkpt>
      <trkpt lat="43.00778" lon="-0.15652">
        <ele>1031.8</ele>
        <time>2009-08-22T08:20:49Z</time>
      </trkpt>
      <trkpt lat="43.00772" lon="-0.15663">
        <ele>1032.7</ele>
        <time>2009-08-22T08:20:56Z</time>
      </trkpt>
      <trkpt lat="43.0077" lon="-0.15676">
        <ele>1032.8</ele>
        <time>2009-08-22T08:21:03Z</time>
      </trkpt>
      <trkpt lat="43.00763" lon="-0.15687">
        <ele>1033.8</ele>
        <time>2009-08-22T08:21:10Z</time>
      </trkpt>
      <trkpt lat="43.00755" lon="-0.15695">
        <ele>1034.8</ele>
        <time>2009-08-22T08:21:16Z</time>
      </trkpt>
      <trkpt lat="43.00756" lon="-0.15701">
        <ele>1034.7</ele>
        <time>2009-08-22T08:21:19Z</time>
      </trkpt>
      <trkpt lat="43.00752" lon="-0.15708">
        <ele>1035.2</ele>
        <time>2009-08-22T08:21:24Z</time>
      </trkpt>
      <trkpt lat="43.00747" lon="-0.15715">
        <ele>1036</ele>
        <time>2009-08-22T08:21:29Z</time>
      </trkpt>
      <trkpt lat="43.00739" lon="-0.15727">
        <ele>1037.3</ele>
        <time>2009-08-22T08:21:37Z</time>
      </trkpt>
      <trkpt lat="43.00728" lon="-0.15734">
        <ele>1039.2</ele>
        <time>2009-08-22T08:21:44Z</time>
      </trkpt>
      <trkpt lat="43.00723" lon="-0.15737">
        <ele>1040.2</ele>
        <time>2009-08-22T08:21:48Z</time>
      </trkpt>
      <trkpt lat="43.00714" lon="-0.15745">
        <ele>1041.5</ele>
        <time>2009-08-22T08:21:54Z</time>
      </trkpt>
      <trkpt lat="43.00712" lon="-0.15748">
        <ele>1041.9</ele>
        <time>2009-08-22T08:21:56Z</time>
      </trkpt>
      <trkpt lat="43.00705" lon="-0.15758">
        <ele>1042.6</ele>
        <time>2009-08-22T08:22:04Z</time>
      </trkpt>
      <trkpt lat="43.00705" lon="-0.1576">
        <ele>1042.6</ele>
        <time>2009-08-22T08:22:05Z</time>
      </trkpt>
      <trkpt lat="43.00698" lon="-0.15774">
        <ele>1043</ele>
        <time>2009-08-22T08:22:13Z</time>
      </trkpt>
      <trkpt lat="43.00696" lon="-0.15777">
        <ele>1043.2</ele>
        <time>2009-08-22T08:22:15Z</time>
      </trkpt>
      <trkpt lat="43.00688" lon="-0.15787">
        <ele>1043.8</ele>
        <time>2009-08-22T08:22:21Z</time>
      </trkpt>
      <trkpt lat="43.0068" lon="-0.15801">
        <ele>1044.2</ele>
        <time>2009-08-22T08:22:28Z</time>
      </trkpt>
      <trkpt lat="43.00673" lon="-0.15813">
        <ele>1044.5</ele>
        <time>2009-08-22T08:22:34Z</time>
      </trkpt>
      <trkpt lat="43.00666" lon="-0.15824">
        <ele>1044.8</ele>
        <time>2009-08-22T08:22:40Z</time>
      </trkpt>
      <trkpt lat="43.00658" lon="-0.15834">
        <ele>1046.1</ele>
        <time>2009-08-22T08:22:45Z</time>
      </trkpt>
      <trkpt lat="43.00649" lon="-0.15841">
        <ele>1048.3</ele>
        <time>2009-08-22T08:22:50Z</time>
      </trkpt>
      <trkpt lat="43.00641" lon="-0.15846">
        <ele>1050.2</ele>
        <time>2009-08-22T08:22:55Z</time>
      </trkpt>
      <trkpt lat="43.00639" lon="-0.15849">
        <ele>1050.6</ele>
        <time>2009-08-22T08:22:58Z</time>
      </trkpt>
      <trkpt lat="43.00638" lon="-0.15861">
        <ele>1050.6</ele>
        <time>2009-08-22T08:23:06Z</time>
      </trkpt>
      <trkpt lat="43.00633" lon="-0.15871">
        <ele>1051.5</ele>
        <time>2009-08-22T08:23:14Z</time>
      </trkpt>
      <trkpt lat="43.00629" lon="-0.15877">
        <ele>1052.3</ele>
        <time>2009-08-22T08:23:19Z</time>
      </trkpt>
      <trkpt lat="43.00626" lon="-0.15888">
        <ele>1052.8</ele>
        <time>2009-08-22T08:23:26Z</time>
      </trkpt>
      <trkpt lat="43.00628" lon="-0.15898">
        <ele>1051.8</ele>
        <time>2009-08-22T08:23:33Z</time>
      </trkpt>
      <trkpt lat="43.00628" lon="-0.159">
        <ele>1051.8</ele>
        <time>2009-08-22T08:23:34Z</time>
      </trkpt>
      <trkpt lat="43.00627" lon="-0.15895">
        <ele>1052.2</ele>
        <time>2009-08-22T08:23:42Z</time>
      </trkpt>
      <trkpt lat="43.00628" lon="-0.15896">
        <ele>1052</ele>
        <time>2009-08-22T08:23:43Z</time>
      </trkpt>
      <trkpt lat="43.00629" lon="-0.15902">
        <ele>1051.7</ele>
        <time>2009-08-22T08:23:47Z</time>
      </trkpt>
      <trkpt lat="43.00625" lon="-0.15909">
        <ele>1052.2</ele>
        <time>2009-08-22T08:23:51Z</time>
      </trkpt>
      <trkpt lat="43.00622" lon="-0.15922">
        <ele>1053.2</ele>
        <time>2009-08-22T08:23:58Z</time>
      </trkpt>
      <trkpt lat="43.00621" lon="-0.15934">
        <ele>1054.8</ele>
        <time>2009-08-22T08:24:04Z</time>
      </trkpt>
      <trkpt lat="43.00624" lon="-0.15947">
        <ele>1055.6</ele>
        <time>2009-08-22T08:24:10Z</time>
      </trkpt>
      <trkpt lat="43.00626" lon="-0.15959">
        <ele>1056.6</ele>
        <time>2009-08-22T08:24:16Z</time>
      </trkpt>
      <trkpt lat="43.0063" lon="-0.15973">
        <ele>1057.3</ele>
        <time>2009-08-22T08:24:22Z</time>
      </trkpt>
      <trkpt lat="43.00632" lon="-0.15985">
        <ele>1058.3</ele>
        <time>2009-08-22T08:24:28Z</time>
      </trkpt>
      <trkpt lat="43.00631" lon="-0.15986">
        <ele>1058.5</ele>
        <time>2009-08-22T08:24:29Z</time>
      </trkpt>
      <trkpt lat="43.00633" lon="-0.15997">
        <ele>1059.4</ele>
        <time>2009-08-22T08:24:36Z</time>
      </trkpt>
      <trkpt lat="43.00637" lon="-0.16009">
        <ele>1059.8</ele>
        <time>2009-08-22T08:24:42Z</time>
      </trkpt>
      <trkpt lat="43.00638" lon="-0.16021">
        <ele>1061.1</ele>
        <time>2009-08-22T08:24:48Z</time>
      </trkpt>
      <trkpt lat="43.0064" lon="-0.16033">
        <ele>1061.8</ele>
        <time>2009-08-22T08:24:55Z</time>
      </trkpt>
      <trkpt lat="43.0064" lon="-0.16045">
        <ele>1063.3</ele>
        <time>2009-08-22T08:25:02Z</time>
      </trkpt>
      <trkpt lat="43.00642" lon="-0.16054">
        <ele>1063.8</ele>
        <time>2009-08-22T08:25:07Z</time>
      </trkpt>
      <trkpt lat="43.00643" lon="-0.16062">
        <ele>1064.3</ele>
        <time>2009-08-22T08:25:11Z</time>
      </trkpt>
      <trkpt lat="43.00647" lon="-0.16077">
        <ele>1065</ele>
        <time>2009-08-22T08:25:19Z</time>
      </trkpt>
      <trkpt lat="43.00649" lon="-0.16088">
        <ele>1065.8</ele>
        <time>2009-08-22T08:25:26Z</time>
      </trkpt>
      <trkpt lat="43.00651" lon="-0.16101">
        <ele>1066.5</ele>
        <time>2009-08-22T08:25:33Z</time>
      </trkpt>
      <trkpt lat="43.00652" lon="-0.16112">
        <ele>1067.5</ele>
        <time>2009-08-22T08:25:40Z</time>
      </trkpt>
      <trkpt lat="43.00654" lon="-0.16125">
        <ele>1068.2</ele>
        <time>2009-08-22T08:25:47Z</time>
      </trkpt>
      <trkpt lat="43.00654" lon="-0.16135">
        <ele>1069.3</ele>
        <time>2009-08-22T08:25:54Z</time>
      </trkpt>
      <trkpt lat="43.00656" lon="-0.16148">
        <ele>1070</ele>
        <time>2009-08-22T08:26:01Z</time>
      </trkpt>
      <trkpt lat="43.00657" lon="-0.1615">
        <ele>1069.9</ele>
        <time>2009-08-22T08:26:02Z</time>
      </trkpt>
      <trkpt lat="43.00664" lon="-0.16163">
        <ele>1068.5</ele>
        <time>2009-08-22T08:26:09Z</time>
      </trkpt>
      <trkpt lat="43.0067" lon="-0.16175">
        <ele>1068.4</ele>
        <time>2009-08-22T08:26:14Z</time>
      </trkpt>
      <trkpt lat="43.00674" lon="-0.1619">
        <ele>1069.7</ele>
        <time>2009-08-22T08:26:21Z</time>
      </trkpt>
      <trkpt lat="43.00676" lon="-0.16204">
        <ele>1071.6</ele>
        <time>2009-08-22T08:26:28Z</time>
      </trkpt>
      <trkpt lat="43.0068" lon="-0.16216">
        <ele>1072.5</ele>
        <time>2009-08-22T08:26:35Z</time>
      </trkpt>
      <trkpt lat="43.0068" lon="-0.1623">
        <ele>1074.7</ele>
        <time>2009-08-22T08:26:43Z</time>
      </trkpt>
      <trkpt lat="43.00682" lon="-0.16241">
        <ele>1076.2</ele>
        <time>2009-08-22T08:26:50Z</time>
      </trkpt>
      <trkpt lat="43.00685" lon="-0.16254">
        <ele>1077</ele>
        <time>2009-08-22T08:26:57Z</time>
      </trkpt>
      <trkpt lat="43.00689" lon="-0.16267">
        <ele>1077.2</ele>
        <time>2009-08-22T08:27:03Z</time>
      </trkpt>
      <trkpt lat="43.00693" lon="-0.1628">
        <ele>1077.1</ele>
        <time>2009-08-22T08:27:09Z</time>
      </trkpt>
      <trkpt lat="43.00693" lon="-0.16284">
        <ele>1077.5</ele>
        <time>2009-08-22T08:27:11Z</time>
      </trkpt>
      <trkpt lat="43.00694" lon="-0.16301">
        <ele>1078.9</ele>
        <time>2009-08-22T08:27:19Z</time>
      </trkpt>
      <trkpt lat="43.00695" lon="-0.16313">
        <ele>1079.6</ele>
        <time>2009-08-22T08:27:25Z</time>
      </trkpt>
      <trkpt lat="43.00698" lon="-0.16328">
        <ele>1079.9</ele>
        <time>2009-08-22T08:27:31Z</time>
      </trkpt>
      <trkpt lat="43.00696" lon="-0.16334">
        <ele>1081</ele>
        <time>2009-08-22T08:27:34Z</time>
      </trkpt>
      <trkpt lat="43.00696" lon="-0.16352">
        <ele>1080.9</ele>
        <time>2009-08-22T08:27:42Z</time>
      </trkpt>
      <trkpt lat="43.00693" lon="-0.16364">
        <ele>1081.8</ele>
        <time>2009-08-22T08:27:48Z</time>
      </trkpt>
      <trkpt lat="43.00692" lon="-0.16371">
        <ele>1082</ele>
        <time>2009-08-22T08:27:52Z</time>
      </trkpt>
      <trkpt lat="43.0069" lon="-0.1638">
        <ele>1082.4</ele>
        <time>2009-08-22T08:27:57Z</time>
      </trkpt>
      <trkpt lat="43.00688" lon="-0.16394">
        <ele>1082.9</ele>
        <time>2009-08-22T08:28:04Z</time>
      </trkpt>
      <trkpt lat="43.00689" lon="-0.164">
        <ele>1082.6</ele>
        <time>2009-08-22T08:28:07Z</time>
      </trkpt>
      <trkpt lat="43.00686" lon="-0.16412">
        <ele>1083.4</ele>
        <time>2009-08-22T08:28:13Z</time>
      </trkpt>
      <trkpt lat="43.00684" lon="-0.16415">
        <ele>1083.8</ele>
        <time>2009-08-22T08:28:15Z</time>
      </trkpt>
      <trkpt lat="43.00681" lon="-0.16427">
        <ele>1084.2</ele>
        <time>2009-08-22T08:28:22Z</time>
      </trkpt>
      <trkpt lat="43.00674" lon="-0.16436">
        <ele>1085.6</ele>
        <time>2009-08-22T08:28:29Z</time>
      </trkpt>
      <trkpt lat="43.00667" lon="-0.16443">
        <ele>1087.2</ele>
        <time>2009-08-22T08:28:36Z</time>
      </trkpt>
      <trkpt lat="43.0066" lon="-0.16452">
        <ele>1089.9</ele>
        <time>2009-08-22T08:28:44Z</time>
      </trkpt>
      <trkpt lat="43.0065" lon="-0.16458">
        <ele>1093.9</ele>
        <time>2009-08-22T08:28:51Z</time>
      </trkpt>
      <trkpt lat="43.00646" lon="-0.16467">
        <ele>1095.5</ele>
        <time>2009-08-22T08:28:59Z</time>
      </trkpt>
      <trkpt lat="43.00645" lon="-0.1647">
        <ele>1095.9</ele>
        <time>2009-08-22T08:29:01Z</time>
      </trkpt>
      <trkpt lat="43.00637" lon="-0.16481">
        <ele>1098.9</ele>
        <time>2009-08-22T08:29:09Z</time>
      </trkpt>
      <trkpt lat="43.00636" lon="-0.16483">
        <ele>1099.4</ele>
        <time>2009-08-22T08:29:10Z</time>
      </trkpt>
      <trkpt lat="43.00638" lon="-0.16491">
        <ele>1098.3</ele>
        <time>2009-08-22T08:29:15Z</time>
      </trkpt>
      <trkpt lat="43.00641" lon="-0.16498">
        <ele>1096.4</ele>
        <time>2009-08-22T08:29:19Z</time>
      </trkpt>
      <trkpt lat="43.00643" lon="-0.16509">
        <ele>1096.4</ele>
        <time>2009-08-22T08:29:25Z</time>
      </trkpt>
      <trkpt lat="43.00646" lon="-0.1653">
        <ele>1097.5</ele>
        <time>2009-08-22T08:29:33Z</time>
      </trkpt>
      <trkpt lat="43.00642" lon="-0.16543">
        <ele>1100.3</ele>
        <time>2009-08-22T08:29:40Z</time>
      </trkpt>
      <trkpt lat="43.0064" lon="-0.16553">
        <ele>1102.7</ele>
        <time>2009-08-22T08:29:46Z</time>
      </trkpt>
      <trkpt lat="43.00638" lon="-0.16557">
        <ele>1103.7</ele>
        <time>2009-08-22T08:29:49Z</time>
      </trkpt>
      <trkpt lat="43.00641" lon="-0.1657">
        <ele>1104.1</ele>
        <time>2009-08-22T08:29:58Z</time>
      </trkpt>
      <trkpt lat="43.0064" lon="-0.16581">
        <ele>1105.4</ele>
        <time>2009-08-22T08:30:06Z</time>
      </trkpt>
      <trkpt lat="43.00645" lon="-0.16594">
        <ele>1105.8</ele>
        <time>2009-08-22T08:30:13Z</time>
      </trkpt>
      <trkpt lat="43.00647" lon="-0.16611">
        <ele>1108.7</ele>
        <time>2009-08-22T08:30:21Z</time>
      </trkpt>
      <trkpt lat="43.00654" lon="-0.16623">
        <ele>1108.2</ele>
        <time>2009-08-22T08:30:28Z</time>
      </trkpt>
      <trkpt lat="43.00658" lon="-0.16634">
        <ele>1108.6</ele>
        <time>2009-08-22T08:30:34Z</time>
      </trkpt>
      <trkpt lat="43.00665" lon="-0.16646">
        <ele>1107.6</ele>
        <time>2009-08-22T08:30:40Z</time>
      </trkpt>
      <trkpt lat="43.00673" lon="-0.16655">
        <ele>1105.7</ele>
        <time>2009-08-22T08:30:46Z</time>
      </trkpt>
      <trkpt lat="43.00686" lon="-0.16668">
        <ele>1101.9</ele>
        <time>2009-08-22T08:30:52Z</time>
      </trkpt>
      <trkpt lat="43.00696" lon="-0.1668">
        <ele>1098.9</ele>
        <time>2009-08-22T08:30:57Z</time>
      </trkpt>
      <trkpt lat="43.00701" lon="-0.16693">
        <ele>1098.6</ele>
        <time>2009-08-22T08:31:03Z</time>
      </trkpt>
      <trkpt lat="43.00704" lon="-0.1671">
        <ele>1099.3</ele>
        <time>2009-08-22T08:31:10Z</time>
      </trkpt>
      <trkpt lat="43.00699" lon="-0.16723">
        <ele>1104.2</ele>
        <time>2009-08-22T08:31:17Z</time>
      </trkpt>
      <trkpt lat="43.00703" lon="-0.16738">
        <ele>1104.2</ele>
        <time>2009-08-22T08:31:23Z</time>
      </trkpt>
      <trkpt lat="43.007" lon="-0.16753">
        <ele>1108.2</ele>
        <time>2009-08-22T08:31:30Z</time>
      </trkpt>
      <trkpt lat="43.007" lon="-0.16766">
        <ele>1108.4</ele>
        <time>2009-08-22T08:31:36Z</time>
      </trkpt>
      <trkpt lat="43.00697" lon="-0.16776">
        <ele>1110.2</ele>
        <time>2009-08-22T08:31:42Z</time>
      </trkpt>
      <trkpt lat="43.00695" lon="-0.16789">
        <ele>1111.2</ele>
        <time>2009-08-22T08:31:48Z</time>
      </trkpt>
      <trkpt lat="43.00692" lon="-0.16797">
        <ele>1113</ele>
        <time>2009-08-22T08:31:53Z</time>
      </trkpt>
      <trkpt lat="43.00689" lon="-0.1681">
        <ele>1114.6</ele>
        <time>2009-08-22T08:32:00Z</time>
      </trkpt>
      <trkpt lat="43.00688" lon="-0.16812">
        <ele>1115</ele>
        <time>2009-08-22T08:32:01Z</time>
      </trkpt>
      <trkpt lat="43.00687" lon="-0.16819">
        <ele>1115.7</ele>
        <time>2009-08-22T08:32:05Z</time>
      </trkpt>
      <trkpt lat="43.00684" lon="-0.16832">
        <ele>1117.4</ele>
        <time>2009-08-22T08:32:13Z</time>
      </trkpt>
      <trkpt lat="43.00681" lon="-0.16844">
        <ele>1117.8</ele>
        <time>2009-08-22T08:32:20Z</time>
      </trkpt>
      <trkpt lat="43.0068" lon="-0.16856">
        <ele>1117</ele>
        <time>2009-08-22T08:32:26Z</time>
      </trkpt>
      <trkpt lat="43.00678" lon="-0.16867">
        <ele>1116.5</ele>
        <time>2009-08-22T08:32:32Z</time>
      </trkpt>
      <trkpt lat="43.00677" lon="-0.16879">
        <ele>1115.6</ele>
        <time>2009-08-22T08:32:38Z</time>
      </trkpt>
      <trkpt lat="43.00672" lon="-0.16889">
        <ele>1116.4</ele>
        <time>2009-08-22T08:32:44Z</time>
      </trkpt>
      <trkpt lat="43.00663" lon="-0.16895">
        <ele>1119.7</ele>
        <time>2009-08-22T08:32:50Z</time>
      </trkpt>
      <trkpt lat="43.00654" lon="-0.16897">
        <ele>1124.3</ele>
        <time>2009-08-22T08:32:56Z</time>
      </trkpt>
      <trkpt lat="43.00647" lon="-0.16894">
        <ele>1128</ele>
        <time>2009-08-22T08:33:02Z</time>
      </trkpt>
      <trkpt lat="43.00647" lon="-0.16899">
        <ele>1126.9</ele>
        <time>2009-08-22T08:33:09Z</time>
      </trkpt>
      <trkpt lat="43.00649" lon="-0.16906">
        <ele>1125.4</ele>
        <time>2009-08-22T08:33:14Z</time>
      </trkpt>
      <trkpt lat="43.00651" lon="-0.1691">
        <ele>1123.9</ele>
        <time>2009-08-22T08:33:16Z</time>
      </trkpt>
      <trkpt lat="43.00647" lon="-0.16925">
        <ele>1124.6</ele>
        <time>2009-08-22T08:33:24Z</time>
      </trkpt>
      <trkpt lat="43.00646" lon="-0.1694">
        <ele>1124.5</ele>
        <time>2009-08-22T08:33:31Z</time>
      </trkpt>
      <trkpt lat="43.00646" lon="-0.16955">
        <ele>1123.9</ele>
        <time>2009-08-22T08:33:38Z</time>
      </trkpt>
      <trkpt lat="43.00644" lon="-0.16967">
        <ele>1124.3</ele>
        <time>2009-08-22T08:33:44Z</time>
      </trkpt>
      <trkpt lat="43.0064" lon="-0.16977">
        <ele>1126.1</ele>
        <time>2009-08-22T08:33:50Z</time>
      </trkpt>
      <trkpt lat="43.00639" lon="-0.1699">
        <ele>1126</ele>
        <time>2009-08-22T08:33:56Z</time>
      </trkpt>
      <trkpt lat="43.00637" lon="-0.17001">
        <ele>1126.9</ele>
        <time>2009-08-22T08:34:02Z</time>
      </trkpt>
      <trkpt lat="43.00631" lon="-0.17012">
        <ele>1129.8</ele>
        <time>2009-08-22T08:34:08Z</time>
      </trkpt>
      <trkpt lat="43.00625" lon="-0.17017">
        <ele>1133.2</ele>
        <time>2009-08-22T08:34:12Z</time>
      </trkpt>
      <trkpt lat="43.00614" lon="-0.17026">
        <ele>1138.6</ele>
        <time>2009-08-22T08:34:19Z</time>
      </trkpt>
      <trkpt lat="43.00615" lon="-0.17038">
        <ele>1137.9</ele>
        <time>2009-08-22T08:34:25Z</time>
      </trkpt>
      <trkpt lat="43.00619" lon="-0.17054">
        <ele>1135.3</ele>
        <time>2009-08-22T08:34:32Z</time>
      </trkpt>
      <trkpt lat="43.00621" lon="-0.17068">
        <ele>1133.6</ele>
        <time>2009-08-22T08:34:38Z</time>
      </trkpt>
      <trkpt lat="43.00623" lon="-0.17081">
        <ele>1132.3</ele>
        <time>2009-08-22T08:34:44Z</time>
      </trkpt>
      <trkpt lat="43.00628" lon="-0.17096">
        <ele>1131</ele>
        <time>2009-08-22T08:34:50Z</time>
      </trkpt>
      <trkpt lat="43.00631" lon="-0.17109">
        <ele>1130.6</ele>
        <time>2009-08-22T08:34:56Z</time>
      </trkpt>
      <trkpt lat="43.0063" lon="-0.17121">
        <ele>1131.7</ele>
        <time>2009-08-22T08:35:02Z</time>
      </trkpt>
      <trkpt lat="43.00627" lon="-0.17133">
        <ele>1133.8</ele>
        <time>2009-08-22T08:35:09Z</time>
      </trkpt>
      <trkpt lat="43.00625" lon="-0.17146">
        <ele>1135.1</ele>
        <time>2009-08-22T08:35:15Z</time>
      </trkpt>
      <trkpt lat="43.00623" lon="-0.17148">
        <ele>1136.4</ele>
        <time>2009-08-22T08:35:17Z</time>
      </trkpt>
      <trkpt lat="43.00616" lon="-0.17158">
        <ele>1139.9</ele>
        <time>2009-08-22T08:35:24Z</time>
      </trkpt>
      <trkpt lat="43.00613" lon="-0.17158">
        <ele>1141.2</ele>
        <time>2009-08-22T08:35:25Z</time>
      </trkpt>
      <trkpt lat="43.0061" lon="-0.17165">
        <ele>1143.1</ele>
        <time>2009-08-22T08:35:30Z</time>
      </trkpt>
      <trkpt lat="43.00607" lon="-0.17176">
        <ele>1146.3</ele>
        <time>2009-08-22T08:35:38Z</time>
      </trkpt>
      <trkpt lat="43.00607" lon="-0.17186">
        <ele>1148.2</ele>
        <time>2009-08-22T08:35:45Z</time>
      </trkpt>
      <trkpt lat="43.00608" lon="-0.17198">
        <ele>1149.8</ele>
        <time>2009-08-22T08:35:52Z</time>
      </trkpt>
      <trkpt lat="43.00608" lon="-0.172">
        <ele>1150.1</ele>
        <time>2009-08-22T08:35:53Z</time>
      </trkpt>
      <trkpt lat="43.00605" lon="-0.17206">
        <ele>1152.6</ele>
        <time>2009-08-22T08:35:57Z</time>
      </trkpt>
      <trkpt lat="43.00609" lon="-0.17215">
        <ele>1152.5</ele>
        <time>2009-08-22T08:36:04Z</time>
      </trkpt>
      <trkpt lat="43.00622" lon="-0.17224">
        <ele>1148.6</ele>
        <time>2009-08-22T08:36:09Z</time>
      </trkpt>
      <trkpt lat="43.0062" lon="-0.1723">
        <ele>1150.3</ele>
        <time>2009-08-22T08:36:16Z</time>
      </trkpt>
      <trkpt lat="43.0062" lon="-0.17235">
        <ele>1151.3</ele>
        <time>2009-08-22T08:36:23Z</time>
      </trkpt>
      <trkpt lat="43.00621" lon="-0.17243">
        <ele>1152.5</ele>
        <time>2009-08-22T08:36:30Z</time>
      </trkpt>
      <trkpt lat="43.00629" lon="-0.17253">
        <ele>1150.6</ele>
        <time>2009-08-22T08:36:37Z</time>
      </trkpt>
      <trkpt lat="43.00633" lon="-0.17262">
        <ele>1149.4</ele>
        <time>2009-08-22T08:36:44Z</time>
      </trkpt>
      <trkpt lat="43.00634" lon="-0.17263">
        <ele>1149.3</ele>
        <time>2009-08-22T08:36:45Z</time>
      </trkpt>
      <trkpt lat="43.00634" lon="-0.17272">
        <ele>1150.1</ele>
        <time>2009-08-22T08:36:54Z</time>
      </trkpt>
      <trkpt lat="43.00636" lon="-0.1727">
        <ele>1148.7</ele>
        <time>2009-08-22T08:36:57Z</time>
      </trkpt>
      <trkpt lat="43.00631" lon="-0.17277">
        <ele>1151.6</ele>
        <time>2009-08-22T08:37:05Z</time>
      </trkpt>
      <trkpt lat="43.0063" lon="-0.1728">
        <ele>1152.2</ele>
        <time>2009-08-22T08:37:07Z</time>
      </trkpt>
      <trkpt lat="43.00629" lon="-0.17284">
        <ele>1153.2</ele>
        <time>2009-08-22T08:37:10Z</time>
      </trkpt>
      <trkpt lat="43.00628" lon="-0.17299">
        <ele>1154.9</ele>
        <time>2009-08-22T08:37:18Z</time>
      </trkpt>
      <trkpt lat="43.00628" lon="-0.17311">
        <ele>1156.1</ele>
        <time>2009-08-22T08:37:24Z</time>
      </trkpt>
      <trkpt lat="43.00628" lon="-0.1732">
        <ele>1156.7</ele>
        <time>2009-08-22T08:37:28Z</time>
      </trkpt>
      <trkpt lat="43.00627" lon="-0.17334">
        <ele>1158.2</ele>
        <time>2009-08-22T08:37:35Z</time>
      </trkpt>
      <trkpt lat="43.00626" lon="-0.17347">
        <ele>1159.1</ele>
        <time>2009-08-22T08:37:42Z</time>
      </trkpt>
      <trkpt lat="43.00625" lon="-0.17359">
        <ele>1160</ele>
        <time>2009-08-22T08:37:49Z</time>
      </trkpt>
      <trkpt lat="43.00623" lon="-0.17364">
        <ele>1160.9</ele>
        <time>2009-08-22T08:37:52Z</time>
      </trkpt>
      <trkpt lat="43.00622" lon="-0.17369">
        <ele>1161.5</ele>
        <time>2009-08-22T08:37:55Z</time>
      </trkpt>
      <trkpt lat="43.00621" lon="-0.17383">
        <ele>1162.6</ele>
        <time>2009-08-22T08:38:03Z</time>
      </trkpt>
      <trkpt lat="43.00617" lon="-0.17395">
        <ele>1164.4</ele>
        <time>2009-08-22T08:38:10Z</time>
      </trkpt>
      <trkpt lat="43.00615" lon="-0.17405">
        <ele>1165.7</ele>
        <time>2009-08-22T08:38:15Z</time>
      </trkpt>
      <trkpt lat="43.00607" lon="-0.17417">
        <ele>1169.3</ele>
        <time>2009-08-22T08:38:23Z</time>
      </trkpt>
      <trkpt lat="43.00604" lon="-0.17427">
        <ele>1170.4</ele>
        <time>2009-08-22T08:38:30Z</time>
      </trkpt>
      <trkpt lat="43.00598" lon="-0.17439">
        <ele>1172.2</ele>
        <time>2009-08-22T08:38:37Z</time>
      </trkpt>
      <trkpt lat="43.00597" lon="-0.17441">
        <ele>1172.6</ele>
        <time>2009-08-22T08:38:38Z</time>
      </trkpt>
      <trkpt lat="43.00596" lon="-0.17444">
        <ele>1172.9</ele>
        <time>2009-08-22T08:38:40Z</time>
      </trkpt>
      <trkpt lat="43.00596" lon="-0.17458">
        <ele>1172.4</ele>
        <time>2009-08-22T08:38:48Z</time>
      </trkpt>
      <trkpt lat="43.00596" lon="-0.1746">
        <ele>1172.3</ele>
        <time>2009-08-22T08:38:49Z</time>
      </trkpt>
      <trkpt lat="43.00596" lon="-0.17464">
        <ele>1172.2</ele>
        <time>2009-08-22T08:38:51Z</time>
      </trkpt>
      <trkpt lat="43.00596" lon="-0.17473">
        <ele>1172.2</ele>
        <time>2009-08-22T08:38:55Z</time>
      </trkpt>
      <trkpt lat="43.00592" lon="-0.17489">
        <ele>1173</ele>
        <time>2009-08-22T08:39:03Z</time>
      </trkpt>
      <trkpt lat="43.00592" lon="-0.17493">
        <ele>1173.2</ele>
        <time>2009-08-22T08:39:05Z</time>
      </trkpt>
      <trkpt lat="43.00592" lon="-0.17498">
        <ele>1172.9</ele>
        <time>2009-08-22T08:39:08Z</time>
      </trkpt>
      <trkpt lat="43.0059" lon="-0.1751">
        <ele>1173.3</ele>
        <time>2009-08-22T08:39:16Z</time>
      </trkpt>
      <trkpt lat="43.00586" lon="-0.1752">
        <ele>1174.4</ele>
        <time>2009-08-22T08:39:23Z</time>
      </trkpt>
      <trkpt lat="43.00585" lon="-0.17523">
        <ele>1174.9</ele>
        <time>2009-08-22T08:39:25Z</time>
      </trkpt>
      <trkpt lat="43.00586" lon="-0.17539">
        <ele>1174.1</ele>
        <time>2009-08-22T08:39:34Z</time>
      </trkpt>
      <trkpt lat="43.00586" lon="-0.17541">
        <ele>1173.9</ele>
        <time>2009-08-22T08:39:35Z</time>
      </trkpt>
      <trkpt lat="43.0058" lon="-0.17555">
        <ele>1176.2</ele>
        <time>2009-08-22T08:39:45Z</time>
      </trkpt>
      <trkpt lat="43.00575" lon="-0.17561">
        <ele>1178</ele>
        <time>2009-08-22T08:39:50Z</time>
      </trkpt>
      <trkpt lat="43.00568" lon="-0.17572">
        <ele>1180.2</ele>
        <time>2009-08-22T08:39:58Z</time>
      </trkpt>
      <trkpt lat="43.0056" lon="-0.17585">
        <ele>1182.9</ele>
        <time>2009-08-22T08:40:07Z</time>
      </trkpt>
      <trkpt lat="43.00554" lon="-0.17596">
        <ele>1184</ele>
        <time>2009-08-22T08:40:15Z</time>
      </trkpt>
      <trkpt lat="43.00551" lon="-0.17608">
        <ele>1183.6</ele>
        <time>2009-08-22T08:40:22Z</time>
      </trkpt>
      <trkpt lat="43.00545" lon="-0.17618">
        <ele>1184.9</ele>
        <time>2009-08-22T08:40:29Z</time>
      </trkpt>
      <trkpt lat="43.00538" lon="-0.17627">
        <ele>1186.4</ele>
        <time>2009-08-22T08:40:37Z</time>
      </trkpt>
      <trkpt lat="43.00532" lon="-0.17636">
        <ele>1187.8</ele>
        <time>2009-08-22T08:40:44Z</time>
      </trkpt>
      <trkpt lat="43.00525" lon="-0.17644">
        <ele>1189.8</ele>
        <time>2009-08-22T08:40:52Z</time>
      </trkpt>
      <trkpt lat="43.0052" lon="-0.17648">
        <ele>1191.1</ele>
        <time>2009-08-22T08:40:56Z</time>
      </trkpt>
      <trkpt lat="43.00517" lon="-0.17653">
        <ele>1191.7</ele>
        <time>2009-08-22T08:41:00Z</time>
      </trkpt>
      <trkpt lat="43.00505" lon="-0.17659">
        <ele>1196</ele>
        <time>2009-08-22T08:41:08Z</time>
      </trkpt>
      <trkpt lat="43.00496" lon="-0.17663">
        <ele>1199.2</ele>
        <time>2009-08-22T08:41:15Z</time>
      </trkpt>
      <trkpt lat="43.00491" lon="-0.17667">
        <ele>1200.7</ele>
        <time>2009-08-22T08:41:19Z</time>
      </trkpt>
      <trkpt lat="43.00487" lon="-0.17677">
        <ele>1201</ele>
        <time>2009-08-22T08:41:28Z</time>
      </trkpt>
      <trkpt lat="43.00483" lon="-0.17685">
        <ele>1201.9</ele>
        <time>2009-08-22T08:41:34Z</time>
      </trkpt>
      <trkpt lat="43.00487" lon="-0.177">
        <ele>1198.7</ele>
        <time>2009-08-22T08:41:42Z</time>
      </trkpt>
      <trkpt lat="43.00494" lon="-0.17714">
        <ele>1193.5</ele>
        <time>2009-08-22T08:41:48Z</time>
      </trkpt>
      <trkpt lat="43.00506" lon="-0.17729">
        <ele>1186.4</ele>
        <time>2009-08-22T08:41:53Z</time>
      </trkpt>
      <trkpt lat="43.00506" lon="-0.17731">
        <ele>1186.1</ele>
        <time>2009-08-22T08:41:54Z</time>
      </trkpt>
      <trkpt lat="43.00498" lon="-0.17738">
        <ele>1188.7</ele>
        <time>2009-08-22T08:42:00Z</time>
      </trkpt>
      <trkpt lat="43.00496" lon="-0.17749">
        <ele>1188</ele>
        <time>2009-08-22T08:42:06Z</time>
      </trkpt>
      <trkpt lat="43.00503" lon="-0.17764">
        <ele>1185.5</ele>
        <time>2009-08-22T08:42:13Z</time>
      </trkpt>
      <trkpt lat="43.00507" lon="-0.17777">
        <ele>1184.3</ele>
        <time>2009-08-22T08:42:19Z</time>
      </trkpt>
      <trkpt lat="43.00507" lon="-0.17789">
        <ele>1184.6</ele>
        <time>2009-08-22T08:42:26Z</time>
      </trkpt>
      <trkpt lat="43.00511" lon="-0.178">
        <ele>1183.4</ele>
        <time>2009-08-22T08:42:31Z</time>
      </trkpt>
      <trkpt lat="43.0051" lon="-0.17802">
        <ele>1184.2</ele>
        <time>2009-08-22T08:42:33Z</time>
      </trkpt>
      <trkpt lat="43.00501" lon="-0.17808">
        <ele>1188.1</ele>
        <time>2009-08-22T08:42:39Z</time>
      </trkpt>
      <trkpt lat="43.00502" lon="-0.17816">
        <ele>1188.1</ele>
        <time>2009-08-22T08:42:44Z</time>
      </trkpt>
      <trkpt lat="43.00504" lon="-0.17826">
        <ele>1187.8</ele>
        <time>2009-08-22T08:42:51Z</time>
      </trkpt>
      <trkpt lat="43.00499" lon="-0.17831">
        <ele>1190.7</ele>
        <time>2009-08-22T08:42:56Z</time>
      </trkpt>
      <trkpt lat="43.00489" lon="-0.1784">
        <ele>1197.5</ele>
        <time>2009-08-22T08:43:04Z</time>
      </trkpt>
      <trkpt lat="43.00485" lon="-0.17846">
        <ele>1200.8</ele>
        <time>2009-08-22T08:43:09Z</time>
      </trkpt>
      <trkpt lat="43.00478" lon="-0.17857">
        <ele>1206.6</ele>
        <time>2009-08-22T08:43:16Z</time>
      </trkpt>
      <trkpt lat="43.00471" lon="-0.17865">
        <ele>1211.8</ele>
        <time>2009-08-22T08:43:23Z</time>
      </trkpt>
      <trkpt lat="43.00469" lon="-0.17866">
        <ele>1213.3</ele>
        <time>2009-08-22T08:43:24Z</time>
      </trkpt>
      <trkpt lat="43.00468" lon="-0.17869">
        <ele>1214</ele>
        <time>2009-08-22T08:43:26Z</time>
      </trkpt>
      <trkpt lat="43.00465" lon="-0.17871">
        <ele>1216.2</ele>
        <time>2009-08-22T08:43:28Z</time>
      </trkpt>
      <trkpt lat="43.00466" lon="-0.17884">
        <ele>1217.7</ele>
        <time>2009-08-22T08:43:36Z</time>
      </trkpt>
      <trkpt lat="43.00473" lon="-0.17895">
        <ele>1215.9</ele>
        <time>2009-08-22T08:43:42Z</time>
      </trkpt>
      <trkpt lat="43.00474" lon="-0.17904">
        <ele>1217.1</ele>
        <time>2009-08-22T08:43:49Z</time>
      </trkpt>
      <trkpt lat="43.00471" lon="-0.17915">
        <ele>1220.2</ele>
        <time>2009-08-22T08:43:57Z</time>
      </trkpt>
      <trkpt lat="43.00471" lon="-0.17923">
        <ele>1221.1</ele>
        <time>2009-08-22T08:44:04Z</time>
      </trkpt>
      <trkpt lat="43.00471" lon="-0.17937">
        <ele>1222.4</ele>
        <time>2009-08-22T08:44:12Z</time>
      </trkpt>
      <trkpt lat="43.00475" lon="-0.17953">
        <ele>1221.6</ele>
        <time>2009-08-22T08:44:19Z</time>
      </trkpt>
      <trkpt lat="43.00475" lon="-0.17969">
        <ele>1223.2</ele>
        <time>2009-08-22T08:44:26Z</time>
      </trkpt>
      <trkpt lat="43.0048" lon="-0.17984">
        <ele>1222</ele>
        <time>2009-08-22T08:44:33Z</time>
      </trkpt>
      <trkpt lat="43.00474" lon="-0.17997">
        <ele>1225.9</ele>
        <time>2009-08-22T08:44:41Z</time>
      </trkpt>
      <trkpt lat="43.00479" lon="-0.18014">
        <ele>1224.8</ele>
        <time>2009-08-22T08:44:48Z</time>
      </trkpt>
      <trkpt lat="43.00475" lon="-0.18029">
        <ele>1227.2</ele>
        <time>2009-08-22T08:44:56Z</time>
      </trkpt>
      <trkpt lat="43.00476" lon="-0.1804">
        <ele>1227.4</ele>
        <time>2009-08-22T08:45:02Z</time>
      </trkpt>
      <trkpt lat="43.00478" lon="-0.18053">
        <ele>1227</ele>
        <time>2009-08-22T08:45:09Z</time>
      </trkpt>
      <trkpt lat="43.00478" lon="-0.18066">
        <ele>1227.6</ele>
        <time>2009-08-22T08:45:16Z</time>
      </trkpt>
      <trkpt lat="43.00482" lon="-0.18078">
        <ele>1226.6</ele>
        <time>2009-08-22T08:45:22Z</time>
      </trkpt>
      <trkpt lat="43.00488" lon="-0.18092">
        <ele>1224.8</ele>
        <time>2009-08-22T08:45:28Z</time>
      </trkpt>
      <trkpt lat="43.00493" lon="-0.18105">
        <ele>1223.6</ele>
        <time>2009-08-22T08:45:34Z</time>
      </trkpt>
      <trkpt lat="43.00502" lon="-0.18118">
        <ele>1220.8</ele>
        <time>2009-08-22T08:45:39Z</time>
      </trkpt>
      <trkpt lat="43.005" lon="-0.18129">
        <ele>1222.7</ele>
        <time>2009-08-22T08:45:45Z</time>
      </trkpt>
      <trkpt lat="43.00495" lon="-0.18141">
        <ele>1225.6</ele>
        <time>2009-08-22T08:45:53Z</time>
      </trkpt>
      <trkpt lat="43.00493" lon="-0.18152">
        <ele>1227.2</ele>
        <time>2009-08-22T08:45:59Z</time>
      </trkpt>
      <trkpt lat="43.00489" lon="-0.18158">
        <ele>1228.9</ele>
        <time>2009-08-22T08:46:03Z</time>
      </trkpt>
      <trkpt lat="43.00481" lon="-0.18168">
        <ele>1232</ele>
        <time>2009-08-22T08:46:10Z</time>
      </trkpt>
      <trkpt lat="43.00478" lon="-0.18181">
        <ele>1231.8</ele>
        <time>2009-08-22T08:46:17Z</time>
      </trkpt>
      <trkpt lat="43.00471" lon="-0.1819">
        <ele>1233</ele>
        <time>2009-08-22T08:46:23Z</time>
      </trkpt>
      <trkpt lat="43.0047" lon="-0.18191">
        <ele>1233</ele>
        <time>2009-08-22T08:46:24Z</time>
      </trkpt>
      <trkpt lat="43.00465" lon="-0.18195">
        <ele>1234</ele>
        <time>2009-08-22T08:46:27Z</time>
      </trkpt>
      <trkpt lat="43.00461" lon="-0.18204">
        <ele>1234.4</ele>
        <time>2009-08-22T08:46:32Z</time>
      </trkpt>
      <trkpt lat="43.00455" lon="-0.18212">
        <ele>1234.8</ele>
        <time>2009-08-22T08:46:40Z</time>
      </trkpt>
      <trkpt lat="43.00454" lon="-0.18213">
        <ele>1235</ele>
        <time>2009-08-22T08:46:41Z</time>
      </trkpt>
      <trkpt lat="43.00458" lon="-0.18208">
        <ele>1234.5</ele>
        <time>2009-08-22T08:46:48Z</time>
      </trkpt>
      <trkpt lat="43.0046" lon="-0.18205">
        <ele>1234.6</ele>
        <time>2009-08-22T08:46:50Z</time>
      </trkpt>
      <trkpt lat="43.00463" lon="-0.18189">
        <ele>1235.4</ele>
        <time>2009-08-22T08:46:57Z</time>
      </trkpt>
      <trkpt lat="43.00464" lon="-0.18191">
        <ele>1234.8</ele>
        <time>2009-08-22T08:47:02Z</time>
      </trkpt>
      <trkpt lat="43.00457" lon="-0.18199">
        <ele>1235.8</ele>
        <time>2009-08-22T08:47:11Z</time>
      </trkpt>
      <trkpt lat="43.00451" lon="-0.18206">
        <ele>1236.6</ele>
        <time>2009-08-22T08:47:18Z</time>
      </trkpt>
      <trkpt lat="43.00453" lon="-0.18212">
        <ele>1235.5</ele>
        <time>2009-08-22T08:47:34Z</time>
      </trkpt>
      <trkpt lat="43.00445" lon="-0.18223">
        <ele>1235.9</ele>
        <time>2009-08-22T08:47:41Z</time>
      </trkpt>
      <trkpt lat="43.00441" lon="-0.1823">
        <ele>1236.1</ele>
        <time>2009-08-22T08:47:44Z</time>
      </trkpt>
      <trkpt lat="43.00438" lon="-0.18234">
        <ele>1236.1</ele>
        <time>2009-08-22T08:47:46Z</time>
      </trkpt>
      <trkpt lat="43.00436" lon="-0.18234">
        <ele>1236.6</ele>
        <time>2009-08-22T08:47:49Z</time>
      </trkpt>
      <trkpt lat="43.00433" lon="-0.18219">
        <ele>1239.4</ele>
        <time>2009-08-22T08:47:56Z</time>
      </trkpt>
      <trkpt lat="43.00439" lon="-0.18207">
        <ele>1239.6</ele>
        <time>2009-08-22T08:48:02Z</time>
      </trkpt>
      <trkpt lat="43.00444" lon="-0.18196">
        <ele>1239.7</ele>
        <time>2009-08-22T08:48:08Z</time>
      </trkpt>
      <trkpt lat="43.00447" lon="-0.18182">
        <ele>1240.8</ele>
        <time>2009-08-22T08:48:13Z</time>
      </trkpt>
      <trkpt lat="43.00447" lon="-0.18169">
        <ele>1242.3</ele>
        <time>2009-08-22T08:48:18Z</time>
      </trkpt>
      <trkpt lat="43.00446" lon="-0.18156">
        <ele>1242.7</ele>
        <time>2009-08-22T08:48:23Z</time>
      </trkpt>
      <trkpt lat="43.00445" lon="-0.18143">
        <ele>1243.1</ele>
        <time>2009-08-22T08:48:28Z</time>
      </trkpt>
      <trkpt lat="43.00443" lon="-0.18131">
        <ele>1243.6</ele>
        <time>2009-08-22T08:48:33Z</time>
      </trkpt>
      <trkpt lat="43.00443" lon="-0.18117">
        <ele>1243.8</ele>
        <time>2009-08-22T08:48:39Z</time>
      </trkpt>
      <trkpt lat="43.00442" lon="-0.18103">
        <ele>1244.1</ele>
        <time>2009-08-22T08:48:45Z</time>
      </trkpt>
      <trkpt lat="43.00441" lon="-0.18091">
        <ele>1244.3</ele>
        <time>2009-08-22T08:48:50Z</time>
      </trkpt>
      <trkpt lat="43.00437" lon="-0.18077">
        <ele>1246</ele>
        <time>2009-08-22T08:48:56Z</time>
      </trkpt>
      <trkpt lat="43.00435" lon="-0.18071">
        <ele>1246.8</ele>
        <time>2009-08-22T08:48:59Z</time>
      </trkpt>
      <trkpt lat="43.00431" lon="-0.18055">
        <ele>1248.1</ele>
        <time>2009-08-22T08:49:06Z</time>
      </trkpt>
      <trkpt lat="43.0043" lon="-0.18053">
        <ele>1248.4</ele>
        <time>2009-08-22T08:49:07Z</time>
      </trkpt>
      <trkpt lat="43.00423" lon="-0.18038">
        <ele>1251.1</ele>
        <time>2009-08-22T08:49:14Z</time>
      </trkpt>
      <trkpt lat="43.00418" lon="-0.18025">
        <ele>1252.9</ele>
        <time>2009-08-22T08:49:20Z</time>
      </trkpt>
      <trkpt lat="43.00413" lon="-0.18017">
        <ele>1255.4</ele>
        <time>2009-08-22T08:49:25Z</time>
      </trkpt>
      <trkpt lat="43.00402" lon="-0.18017">
        <ele>1261.8</ele>
        <time>2009-08-22T08:49:32Z</time>
      </trkpt>
      <trkpt lat="43.00403" lon="-0.1803">
        <ele>1261.7</ele>
        <time>2009-08-22T08:49:38Z</time>
      </trkpt>
      <trkpt lat="43.00405" lon="-0.18032">
        <ele>1260.8</ele>
        <time>2009-08-22T08:49:39Z</time>
      </trkpt>
      <trkpt lat="43.00414" lon="-0.18044">
        <ele>1255.8</ele>
        <time>2009-08-22T08:49:45Z</time>
      </trkpt>
      <trkpt lat="43.00419" lon="-0.18056">
        <ele>1253.3</ele>
        <time>2009-08-22T08:49:50Z</time>
      </trkpt>
      <trkpt lat="43.00418" lon="-0.18067">
        <ele>1253.9</ele>
        <time>2009-08-22T08:49:55Z</time>
      </trkpt>
      <trkpt lat="43.00413" lon="-0.18082">
        <ele>1257</ele>
        <time>2009-08-22T08:50:01Z</time>
      </trkpt>
      <trkpt lat="43.00411" lon="-0.18096">
        <ele>1257.9</ele>
        <time>2009-08-22T08:50:06Z</time>
      </trkpt>
      <trkpt lat="43.00408" lon="-0.18103">
        <ele>1259</ele>
        <time>2009-08-22T08:50:09Z</time>
      </trkpt>
      <trkpt lat="43.00402" lon="-0.1812">
        <ele>1260.8</ele>
        <time>2009-08-22T08:50:16Z</time>
      </trkpt>
      <trkpt lat="43.004" lon="-0.18135">
        <ele>1260.7</ele>
        <time>2009-08-22T08:50:22Z</time>
      </trkpt>
      <trkpt lat="43.00396" lon="-0.18146">
        <ele>1261.8</ele>
        <time>2009-08-22T08:50:27Z</time>
      </trkpt>
      <trkpt lat="43.0039" lon="-0.18158">
        <ele>1263.4</ele>
        <time>2009-08-22T08:50:33Z</time>
      </trkpt>
      <trkpt lat="43.00383" lon="-0.18169">
        <ele>1264.8</ele>
        <time>2009-08-22T08:50:39Z</time>
      </trkpt>
      <trkpt lat="43.00378" lon="-0.18183">
        <ele>1263.9</ele>
        <time>2009-08-22T08:50:45Z</time>
      </trkpt>
      <trkpt lat="43.00372" lon="-0.18192">
        <ele>1263.8</ele>
        <time>2009-08-22T08:50:50Z</time>
      </trkpt>
      <trkpt lat="43.00365" lon="-0.18201">
        <ele>1264.7</ele>
        <time>2009-08-22T08:50:56Z</time>
      </trkpt>
      <trkpt lat="43.00357" lon="-0.1821">
        <ele>1265.2</ele>
        <time>2009-08-22T08:51:02Z</time>
      </trkpt>
      <trkpt lat="43.00348" lon="-0.18215">
        <ele>1266.8</ele>
        <time>2009-08-22T08:51:08Z</time>
      </trkpt>
      <trkpt lat="43.00337" lon="-0.18215">
        <ele>1270.6</ele>
        <time>2009-08-22T08:51:14Z</time>
      </trkpt>
      <trkpt lat="43.00328" lon="-0.18215">
        <ele>1273.3</ele>
        <time>2009-08-22T08:51:20Z</time>
      </trkpt>
      <trkpt lat="43.00319" lon="-0.18217">
        <ele>1276.1</ele>
        <time>2009-08-22T08:51:26Z</time>
      </trkpt>
      <trkpt lat="43.0031" lon="-0.18219">
        <ele>1278.5</ele>
        <time>2009-08-22T08:51:32Z</time>
      </trkpt>
      <trkpt lat="43.00308" lon="-0.1822">
        <ele>1278.9</ele>
        <time>2009-08-22T08:51:33Z</time>
      </trkpt>
      <trkpt lat="43.00307" lon="-0.18223">
        <ele>1278.4</ele>
        <time>2009-08-22T08:51:35Z</time>
      </trkpt>
      <trkpt lat="43.00297" lon="-0.18224">
        <ele>1281.9</ele>
        <time>2009-08-22T08:51:42Z</time>
      </trkpt>
      <trkpt lat="43.00287" lon="-0.18227">
        <ele>1284.2</ele>
        <time>2009-08-22T08:51:48Z</time>
      </trkpt>
      <trkpt lat="43.00276" lon="-0.18232">
        <ele>1286.8</ele>
        <time>2009-08-22T08:51:54Z</time>
      </trkpt>
      <trkpt lat="43.00268" lon="-0.18241">
        <ele>1287.7</ele>
        <time>2009-08-22T08:52:01Z</time>
      </trkpt>
      <trkpt lat="43.00261" lon="-0.18248">
        <ele>1288.6</ele>
        <time>2009-08-22T08:52:07Z</time>
      </trkpt>
      <trkpt lat="43.00255" lon="-0.18259">
        <ele>1289.1</ele>
        <time>2009-08-22T08:52:13Z</time>
      </trkpt>
      <trkpt lat="43.0025" lon="-0.1827">
        <ele>1290</ele>
        <time>2009-08-22T08:52:19Z</time>
      </trkpt>
      <trkpt lat="43.00245" lon="-0.18284">
        <ele>1290.9</ele>
        <time>2009-08-22T08:52:25Z</time>
      </trkpt>
      <trkpt lat="43.00245" lon="-0.18286">
        <ele>1291</ele>
        <time>2009-08-22T08:52:26Z</time>
      </trkpt>
      <trkpt lat="43.00237" lon="-0.18299">
        <ele>1293.9</ele>
        <time>2009-08-22T08:52:33Z</time>
      </trkpt>
      <trkpt lat="43.00233" lon="-0.18313">
        <ele>1294.7</ele>
        <time>2009-08-22T08:52:39Z</time>
      </trkpt>
      <trkpt lat="43.00227" lon="-0.18327">
        <ele>1296.4</ele>
        <time>2009-08-22T08:52:46Z</time>
      </trkpt>
      <trkpt lat="43.00222" lon="-0.1834">
        <ele>1299</ele>
        <time>2009-08-22T08:52:52Z</time>
      </trkpt>
      <trkpt lat="43.00219" lon="-0.18355">
        <ele>1300.8</ele>
        <time>2009-08-22T08:52:58Z</time>
      </trkpt>
      <trkpt lat="43.00217" lon="-0.18368">
        <ele>1301.9</ele>
        <time>2009-08-22T08:53:03Z</time>
      </trkpt>
      <trkpt lat="43.00216" lon="-0.18381">
        <ele>1302.2</ele>
        <time>2009-08-22T08:53:08Z</time>
      </trkpt>
      <trkpt lat="43.00222" lon="-0.18396">
        <ele>1298.7</ele>
        <time>2009-08-22T08:53:14Z</time>
      </trkpt>
      <trkpt lat="43.00224" lon="-0.18402">
        <ele>1297.6</ele>
        <time>2009-08-22T08:53:17Z</time>
      </trkpt>
      <trkpt lat="43.00232" lon="-0.18414">
        <ele>1292.7</ele>
        <time>2009-08-22T08:53:22Z</time>
      </trkpt>
      <trkpt lat="43.00234" lon="-0.1843">
        <ele>1291.5</ele>
        <time>2009-08-22T08:53:28Z</time>
      </trkpt>
      <trkpt lat="43.00231" lon="-0.18441">
        <ele>1294.1</ele>
        <time>2009-08-22T08:53:32Z</time>
      </trkpt>
      <trkpt lat="43.00229" lon="-0.18455">
        <ele>1295.9</ele>
        <time>2009-08-22T08:53:37Z</time>
      </trkpt>
      <trkpt lat="43.00224" lon="-0.18472">
        <ele>1299.6</ele>
        <time>2009-08-22T08:53:43Z</time>
      </trkpt>
      <trkpt lat="43.00223" lon="-0.18486">
        <ele>1300.9</ele>
        <time>2009-08-22T08:53:48Z</time>
      </trkpt>
      <trkpt lat="43.00222" lon="-0.185">
        <ele>1302</ele>
        <time>2009-08-22T08:53:54Z</time>
      </trkpt>
      <trkpt lat="43.00222" lon="-0.18516">
        <ele>1301.5</ele>
        <time>2009-08-22T08:54:01Z</time>
      </trkpt>
      <trkpt lat="43.00222" lon="-0.18534">
        <ele>1300.8</ele>
        <time>2009-08-22T08:54:08Z</time>
      </trkpt>
      <trkpt lat="43.0022" lon="-0.1855">
        <ele>1301.5</ele>
        <time>2009-08-22T08:54:14Z</time>
      </trkpt>
      <trkpt lat="43.00215" lon="-0.18562">
        <ele>1304.7</ele>
        <time>2009-08-22T08:54:20Z</time>
      </trkpt>
      <trkpt lat="43.0021" lon="-0.18566">
        <ele>1307.5</ele>
        <time>2009-08-22T08:54:22Z</time>
      </trkpt>
      <trkpt lat="43.00206" lon="-0.18583">
        <ele>1309.7</ele>
        <time>2009-08-22T08:54:28Z</time>
      </trkpt>
      <trkpt lat="43.00204" lon="-0.18599">
        <ele>1308.8</ele>
        <time>2009-08-22T08:54:35Z</time>
      </trkpt>
      <trkpt lat="43.00204" lon="-0.18613">
        <ele>1307.6</ele>
        <time>2009-08-22T08:54:41Z</time>
      </trkpt>
      <trkpt lat="43.002" lon="-0.18625">
        <ele>1309</ele>
        <time>2009-08-22T08:54:47Z</time>
      </trkpt>
      <trkpt lat="43.00197" lon="-0.18638">
        <ele>1309.1</ele>
        <time>2009-08-22T08:54:52Z</time>
      </trkpt>
      <trkpt lat="43.00197" lon="-0.1864">
        <ele>1308.8</ele>
        <time>2009-08-22T08:54:53Z</time>
      </trkpt>
      <trkpt lat="43.00192" lon="-0.18657">
        <ele>1310.1</ele>
        <time>2009-08-22T08:55:00Z</time>
      </trkpt>
      <trkpt lat="43.00186" lon="-0.18671">
        <ele>1312.5</ele>
        <time>2009-08-22T08:55:05Z</time>
      </trkpt>
      <trkpt lat="43.0018" lon="-0.18684">
        <ele>1315.2</ele>
        <time>2009-08-22T08:55:10Z</time>
      </trkpt>
      <trkpt lat="43.00173" lon="-0.18696">
        <ele>1318.5</ele>
        <time>2009-08-22T08:55:15Z</time>
      </trkpt>
      <trkpt lat="43.00169" lon="-0.18716">
        <ele>1319.8</ele>
        <time>2009-08-22T08:55:22Z</time>
      </trkpt>
      <trkpt lat="43.00168" lon="-0.18732">
        <ele>1319.6</ele>
        <time>2009-08-22T08:55:27Z</time>
      </trkpt>
      <trkpt lat="43.00168" lon="-0.18749">
        <ele>1318.3</ele>
        <time>2009-08-22T08:55:32Z</time>
      </trkpt>
      <trkpt lat="43.00168" lon="-0.18762">
        <ele>1319.9</ele>
        <time>2009-08-22T08:55:37Z</time>
      </trkpt>
      <trkpt lat="43.0017" lon="-0.18779">
        <ele>1321.3</ele>
        <time>2009-08-22T08:55:42Z</time>
      </trkpt>
      <trkpt lat="43.00168" lon="-0.18793">
        <ele>1324</ele>
        <time>2009-08-22T08:55:47Z</time>
      </trkpt>
      <trkpt lat="43.00171" lon="-0.18808">
        <ele>1324.7</ele>
        <time>2009-08-22T08:55:52Z</time>
      </trkpt>
      <trkpt lat="43.00174" lon="-0.18821">
        <ele>1324.5</ele>
        <time>2009-08-22T08:55:57Z</time>
      </trkpt>
      <trkpt lat="43.00173" lon="-0.18823">
        <ele>1325.3</ele>
        <time>2009-08-22T08:55:58Z</time>
      </trkpt>
      <trkpt lat="43.00186" lon="-0.18842">
        <ele>1322.1</ele>
        <time>2009-08-22T08:56:05Z</time>
      </trkpt>
      <trkpt lat="43.00199" lon="-0.18855">
        <ele>1318.6</ele>
        <time>2009-08-22T08:56:10Z</time>
      </trkpt>
      <trkpt lat="43.00204" lon="-0.18866">
        <ele>1318.2</ele>
        <time>2009-08-22T08:56:15Z</time>
      </trkpt>
      <trkpt lat="43.00211" lon="-0.18879">
        <ele>1317.5</ele>
        <time>2009-08-22T08:56:21Z</time>
      </trkpt>
      <trkpt lat="43.00216" lon="-0.18891">
        <ele>1317.6</ele>
        <time>2009-08-22T08:56:27Z</time>
      </trkpt>
      <trkpt lat="43.00224" lon="-0.18905">
        <ele>1316.1</ele>
        <time>2009-08-22T08:56:33Z</time>
      </trkpt>
      <trkpt lat="43.00233" lon="-0.18917">
        <ele>1313.7</ele>
        <time>2009-08-22T08:56:38Z</time>
      </trkpt>
      <trkpt lat="43.00243" lon="-0.18927">
        <ele>1310</ele>
        <time>2009-08-22T08:56:43Z</time>
      </trkpt>
      <trkpt lat="43.00255" lon="-0.18938">
        <ele>1305.4</ele>
        <time>2009-08-22T08:56:48Z</time>
      </trkpt>
      <trkpt lat="43.00261" lon="-0.18948">
        <ele>1304.4</ele>
        <time>2009-08-22T08:56:53Z</time>
      </trkpt>
      <trkpt lat="43.00255" lon="-0.18968">
        <ele>1310.2</ele>
        <time>2009-08-22T08:56:59Z</time>
      </trkpt>
      <trkpt lat="43.00249" lon="-0.18983">
        <ele>1315.9</ele>
        <time>2009-08-22T08:57:04Z</time>
      </trkpt>
      <trkpt lat="43.00246" lon="-0.19">
        <ele>1320</ele>
        <time>2009-08-22T08:57:09Z</time>
      </trkpt>
      <trkpt lat="43.00244" lon="-0.19018">
        <ele>1320.7</ele>
        <time>2009-08-22T08:57:14Z</time>
      </trkpt>
      <trkpt lat="43.00243" lon="-0.19036">
        <ele>1321.1</ele>
        <time>2009-08-22T08:57:19Z</time>
      </trkpt>
      <trkpt lat="43.00239" lon="-0.1905">
        <ele>1322.7</ele>
        <time>2009-08-22T08:57:25Z</time>
      </trkpt>
      <trkpt lat="43.00236" lon="-0.19064">
        <ele>1323.6</ele>
        <time>2009-08-22T08:57:31Z</time>
      </trkpt>
      <trkpt lat="43.0023" lon="-0.19075">
        <ele>1326.2</ele>
        <time>2009-08-22T08:57:36Z</time>
      </trkpt>
      <trkpt lat="43.00225" lon="-0.19087">
        <ele>1327.1</ele>
        <time>2009-08-22T08:57:41Z</time>
      </trkpt>
      <trkpt lat="43.00223" lon="-0.19095">
        <ele>1326.2</ele>
        <time>2009-08-22T08:57:44Z</time>
      </trkpt>
      <trkpt lat="43.00217" lon="-0.19103">
        <ele>1326.5</ele>
        <time>2009-08-22T08:57:48Z</time>
      </trkpt>
      <trkpt lat="43.00207" lon="-0.19117">
        <ele>1326.5</ele>
        <time>2009-08-22T08:57:54Z</time>
      </trkpt>
      <trkpt lat="43.00199" lon="-0.19128">
        <ele>1325.9</ele>
        <time>2009-08-22T08:57:59Z</time>
      </trkpt>
      <trkpt lat="43.00194" lon="-0.19139">
        <ele>1324.4</ele>
        <time>2009-08-22T08:58:04Z</time>
      </trkpt>
      <trkpt lat="43.00187" lon="-0.19149">
        <ele>1323.2</ele>
        <time>2009-08-22T08:58:09Z</time>
      </trkpt>
      <trkpt lat="43.00177" lon="-0.19156">
        <ele>1323.7</ele>
        <time>2009-08-22T08:58:14Z</time>
      </trkpt>
      <trkpt lat="43.0017" lon="-0.19162">
        <ele>1323.8</ele>
        <time>2009-08-22T08:58:17Z</time>
      </trkpt>
      <trkpt lat="43.00152" lon="-0.19166">
        <ele>1326</ele>
        <time>2009-08-22T08:58:23Z</time>
      </trkpt>
      <trkpt lat="43.00138" lon="-0.19168">
        <ele>1327.6</ele>
        <time>2009-08-22T08:58:28Z</time>
      </trkpt>
      <trkpt lat="43.00126" lon="-0.19167">
        <ele>1330.1</ele>
        <time>2009-08-22T08:58:33Z</time>
      </trkpt>
      <trkpt lat="43.00114" lon="-0.19167">
        <ele>1332.3</ele>
        <time>2009-08-22T08:58:38Z</time>
      </trkpt>
      <trkpt lat="43.00102" lon="-0.19168">
        <ele>1334.1</ele>
        <time>2009-08-22T08:58:43Z</time>
      </trkpt>
      <trkpt lat="43.00092" lon="-0.19166">
        <ele>1336.8</ele>
        <time>2009-08-22T08:58:48Z</time>
      </trkpt>
      <trkpt lat="43.00082" lon="-0.19163">
        <ele>1339.7</ele>
        <time>2009-08-22T08:58:53Z</time>
      </trkpt>
      <trkpt lat="43.00071" lon="-0.19164">
        <ele>1340.7</ele>
        <time>2009-08-22T08:58:58Z</time>
      </trkpt>
      <trkpt lat="43.0006" lon="-0.19162">
        <ele>1342.4</ele>
        <time>2009-08-22T08:59:03Z</time>
      </trkpt>
      <trkpt lat="43.00049" lon="-0.19162">
        <ele>1343.8</ele>
        <time>2009-08-22T08:59:08Z</time>
      </trkpt>
      <trkpt lat="43.0004" lon="-0.19164">
        <ele>1344.1</ele>
        <time>2009-08-22T08:59:13Z</time>
      </trkpt>
      <trkpt lat="43.00032" lon="-0.19166">
        <ele>1344.5</ele>
        <time>2009-08-22T08:59:18Z</time>
      </trkpt>
      <trkpt lat="43.00023" lon="-0.19169">
        <ele>1344.2</ele>
        <time>2009-08-22T08:59:23Z</time>
      </trkpt>
      <trkpt lat="43.00014" lon="-0.19172">
        <ele>1344</ele>
        <time>2009-08-22T08:59:28Z</time>
      </trkpt>
      <trkpt lat="43.00003" lon="-0.19175">
        <ele>1344.3</ele>
        <time>2009-08-22T08:59:34Z</time>
      </trkpt>
      <trkpt lat="42.99993" lon="-0.19182">
        <ele>1344.1</ele>
        <time>2009-08-22T08:59:40Z</time>
      </trkpt>
      <trkpt lat="42.99982" lon="-0.19189">
        <ele>1344.7</ele>
        <time>2009-08-22T08:59:46Z</time>
      </trkpt>
      <trkpt lat="42.99973" lon="-0.19198">
        <ele>1344.1</ele>
        <time>2009-08-22T08:59:52Z</time>
      </trkpt>
      <trkpt lat="42.99962" lon="-0.19205">
        <ele>1344.2</ele>
        <time>2009-08-22T08:59:57Z</time>
      </trkpt>
      <trkpt lat="42.9995" lon="-0.19213">
        <ele>1344.7</ele>
        <time>2009-08-22T09:00:03Z</time>
      </trkpt>
      <trkpt lat="42.99939" lon="-0.19221">
        <ele>1345</ele>
        <time>2009-08-22T09:00:09Z</time>
      </trkpt>
      <trkpt lat="42.99927" lon="-0.19225">
        <ele>1346.6</ele>
        <time>2009-08-22T09:00:14Z</time>
      </trkpt>
      <trkpt lat="42.99917" lon="-0.1923">
        <ele>1347.7</ele>
        <time>2009-08-22T09:00:19Z</time>
      </trkpt>
      <trkpt lat="42.99905" lon="-0.19233">
        <ele>1348.8</ele>
        <time>2009-08-22T09:00:25Z</time>
      </trkpt>
      <trkpt lat="42.99892" lon="-0.19236">
        <ele>1350.1</ele>
        <time>2009-08-22T09:00:30Z</time>
      </trkpt>
      <trkpt lat="42.99882" lon="-0.19245">
        <ele>1348.8</ele>
        <time>2009-08-22T09:00:35Z</time>
      </trkpt>
      <trkpt lat="42.99873" lon="-0.19256">
        <ele>1346.2</ele>
        <time>2009-08-22T09:00:40Z</time>
      </trkpt>
      <trkpt lat="42.99862" lon="-0.1927">
        <ele>1343.5</ele>
        <time>2009-08-22T09:00:45Z</time>
      </trkpt>
      <trkpt lat="42.99852" lon="-0.19282">
        <ele>1341</ele>
        <time>2009-08-22T09:00:50Z</time>
      </trkpt>
      <trkpt lat="42.99842" lon="-0.19294">
        <ele>1339.1</ele>
        <time>2009-08-22T09:00:55Z</time>
      </trkpt>
      <trkpt lat="42.99829" lon="-0.19303">
        <ele>1338.2</ele>
        <time>2009-08-22T09:01:00Z</time>
      </trkpt>
      <trkpt lat="42.99823" lon="-0.19307">
        <ele>1336.9</ele>
        <time>2009-08-22T09:01:03Z</time>
      </trkpt>
      <trkpt lat="42.99817" lon="-0.19301">
        <ele>1339.1</ele>
        <time>2009-08-22T09:01:07Z</time>
      </trkpt>
      <trkpt lat="42.99812" lon="-0.19285">
        <ele>1344.9</ele>
        <time>2009-08-22T09:01:13Z</time>
      </trkpt>
      <trkpt lat="42.99809" lon="-0.19277">
        <ele>1347.6</ele>
        <time>2009-08-22T09:01:16Z</time>
      </trkpt>
      <trkpt lat="42.99797" lon="-0.19262">
        <ele>1352.5</ele>
        <time>2009-08-22T09:01:21Z</time>
      </trkpt>
      <trkpt lat="42.99794" lon="-0.1926">
        <ele>1353.3</ele>
        <time>2009-08-22T09:01:22Z</time>
      </trkpt>
      <trkpt lat="42.99773" lon="-0.19257">
        <ele>1354.1</ele>
        <time>2009-08-22T09:01:27Z</time>
      </trkpt>
      <trkpt lat="42.99757" lon="-0.19259">
        <ele>1353.3</ele>
        <time>2009-08-22T09:01:32Z</time>
      </trkpt>
      <trkpt lat="42.99744" lon="-0.19262">
        <ele>1353.5</ele>
        <time>2009-08-22T09:01:36Z</time>
      </trkpt>
      <trkpt lat="42.99731" lon="-0.1927">
        <ele>1353.6</ele>
        <time>2009-08-22T09:01:40Z</time>
      </trkpt>
      <trkpt lat="42.99719" lon="-0.19279">
        <ele>1353.1</ele>
        <time>2009-08-22T09:01:44Z</time>
      </trkpt>
      <trkpt lat="42.99709" lon="-0.19287">
        <ele>1352.8</ele>
        <time>2009-08-22T09:01:50Z</time>
      </trkpt>
      <trkpt lat="42.99702" lon="-0.19293">
        <ele>1352.3</ele>
        <time>2009-08-22T09:01:56Z</time>
      </trkpt>
      <trkpt lat="42.99703" lon="-0.19291">
        <ele>1352.7</ele>
        <time>2009-08-22T09:03:06Z</time>
      </trkpt>
      <trkpt lat="42.99695" lon="-0.19295">
        <ele>1353.2</ele>
        <time>2009-08-22T09:03:12Z</time>
      </trkpt>
      <trkpt lat="42.99683" lon="-0.19303">
        <ele>1353.3</ele>
        <time>2009-08-22T09:03:18Z</time>
      </trkpt>
      <trkpt lat="42.99671" lon="-0.1931">
        <ele>1353.6</ele>
        <time>2009-08-22T09:03:22Z</time>
      </trkpt>
      <trkpt lat="42.99658" lon="-0.19318">
        <ele>1354.4</ele>
        <time>2009-08-22T09:03:26Z</time>
      </trkpt>
      <trkpt lat="42.99644" lon="-0.19327">
        <ele>1355.8</ele>
        <time>2009-08-22T09:03:30Z</time>
      </trkpt>
      <trkpt lat="42.9963" lon="-0.19336">
        <ele>1357</ele>
        <time>2009-08-22T09:03:34Z</time>
      </trkpt>
      <trkpt lat="42.99617" lon="-0.19344">
        <ele>1358.1</ele>
        <time>2009-08-22T09:03:38Z</time>
      </trkpt>
      <trkpt lat="42.99603" lon="-0.19353">
        <ele>1359</ele>
        <time>2009-08-22T09:03:42Z</time>
      </trkpt>
      <trkpt lat="42.99591" lon="-0.19365">
        <ele>1358.8</ele>
        <time>2009-08-22T09:03:46Z</time>
      </trkpt>
      <trkpt lat="42.9958" lon="-0.19376">
        <ele>1357.5</ele>
        <time>2009-08-22T09:03:50Z</time>
      </trkpt>
      <trkpt lat="42.99567" lon="-0.19384">
        <ele>1356.1</ele>
        <time>2009-08-22T09:03:54Z</time>
      </trkpt>
      <trkpt lat="42.99553" lon="-0.19392">
        <ele>1355</ele>
        <time>2009-08-22T09:03:58Z</time>
      </trkpt>
      <trkpt lat="42.99538" lon="-0.19397">
        <ele>1354.8</ele>
        <time>2009-08-22T09:04:02Z</time>
      </trkpt>
      <trkpt lat="42.99524" lon="-0.19402">
        <ele>1354.6</ele>
        <time>2009-08-22T09:04:06Z</time>
      </trkpt>
      <trkpt lat="42.99509" lon="-0.19407">
        <ele>1354.2</ele>
        <time>2009-08-22T09:04:10Z</time>
      </trkpt>
      <trkpt lat="42.99493" lon="-0.1941">
        <ele>1353.4</ele>
        <time>2009-08-22T09:04:14Z</time>
      </trkpt>
      <trkpt lat="42.99489" lon="-0.19411">
        <ele>1352.8</ele>
        <time>2009-08-22T09:04:15Z</time>
      </trkpt>
      <trkpt lat="42.99481" lon="-0.19411">
        <ele>1352.1</ele>
        <time>2009-08-22T09:04:17Z</time>
      </trkpt>
      <trkpt lat="42.99468" lon="-0.19409">
        <ele>1351.7</ele>
        <time>2009-08-22T09:04:20Z</time>
      </trkpt>
      <trkpt lat="42.99448" lon="-0.19401">
        <ele>1352.5</ele>
        <time>2009-08-22T09:04:25Z</time>
      </trkpt>
      <trkpt lat="42.99435" lon="-0.19394">
        <ele>1353.8</ele>
        <time>2009-08-22T09:04:29Z</time>
      </trkpt>
      <trkpt lat="42.99425" lon="-0.19387">
        <ele>1355.3</ele>
        <time>2009-08-22T09:04:34Z</time>
      </trkpt>
      <trkpt lat="42.99414" lon="-0.19379">
        <ele>1357</ele>
        <time>2009-08-22T09:05:32Z</time>
      </trkpt>
      <trkpt lat="42.99402" lon="-0.19373">
        <ele>1358.1</ele>
        <time>2009-08-22T09:05:37Z</time>
      </trkpt>
      <trkpt lat="42.99389" lon="-0.19365">
        <ele>1359.4</ele>
        <time>2009-08-22T09:05:41Z</time>
      </trkpt>
      <trkpt lat="42.99369" lon="-0.19357">
        <ele>1360</ele>
        <time>2009-08-22T09:05:46Z</time>
      </trkpt>
      <trkpt lat="42.99352" lon="-0.19349">
        <ele>1360.4</ele>
        <time>2009-08-22T09:05:50Z</time>
      </trkpt>
      <trkpt lat="42.99337" lon="-0.1934">
        <ele>1360.9</ele>
        <time>2009-08-22T09:05:54Z</time>
      </trkpt>
      <trkpt lat="42.99321" lon="-0.19323">
        <ele>1361.7</ele>
        <time>2009-08-22T09:05:59Z</time>
      </trkpt>
      <trkpt lat="42.99315" lon="-0.19308">
        <ele>1361.7</ele>
        <time>2009-08-22T09:06:03Z</time>
      </trkpt>
      <trkpt lat="42.9931" lon="-0.19296">
        <ele>1361.3</ele>
        <time>2009-08-22T09:06:08Z</time>
      </trkpt>
      <trkpt lat="42.99306" lon="-0.19295">
        <ele>1360.7</ele>
        <time>2009-08-22T09:06:17Z</time>
      </trkpt>
      <trkpt lat="42.99306" lon="-0.19296">
        <ele>1360.8</ele>
        <time>2009-08-22T09:06:32Z</time>
      </trkpt>
      <trkpt lat="42.99311" lon="-0.19294">
        <ele>1361.4</ele>
        <time>2009-08-22T09:06:48Z</time>
      </trkpt>
      <trkpt lat="42.99311" lon="-0.1929">
        <ele>1361.5</ele>
        <time>2009-08-22T09:07:02Z</time>
      </trkpt>
      <trkpt lat="42.99311" lon="-0.19292">
        <ele>1361.5</ele>
        <time>2009-08-22T09:11:54Z</time>
      </trkpt>
      <trkpt lat="42.99309" lon="-0.19292">
        <ele>1361.2</ele>
        <time>2009-08-22T09:11:57Z</time>
      </trkpt>
      <trkpt lat="42.99303" lon="-0.19282">
        <ele>1360.2</ele>
        <time>2009-08-22T09:12:06Z</time>
      </trkpt>
      <trkpt lat="42.99298" lon="-0.19268">
        <ele>1359.2</ele>
        <time>2009-08-22T09:12:12Z</time>
      </trkpt>
      <trkpt lat="42.99298" lon="-0.19256">
        <ele>1359.1</ele>
        <time>2009-08-22T09:12:17Z</time>
      </trkpt>
      <trkpt lat="42.99295" lon="-0.19253">
        <ele>1358.4</ele>
        <time>2009-08-22T09:17:51Z</time>
      </trkpt>
      <trkpt lat="42.99297" lon="-0.19253">
        <ele>1358.8</ele>
        <time>2009-08-22T09:20:43Z</time>
      </trkpt>
      <trkpt lat="42.993" lon="-0.1924">
        <ele>1357.9</ele>
        <time>2009-08-22T09:20:59Z</time>
      </trkpt>
      <trkpt lat="42.99304" lon="-0.19224">
        <ele>1356.7</ele>
        <time>2009-08-22T09:21:04Z</time>
      </trkpt>
      <trkpt lat="42.9931" lon="-0.19208">
        <ele>1356.4</ele>
        <time>2009-08-22T09:21:08Z</time>
      </trkpt>
      <trkpt lat="42.99313" lon="-0.19204">
        <ele>1356.5</ele>
        <time>2009-08-22T09:21:09Z</time>
      </trkpt>
      <trkpt lat="42.99324" lon="-0.19181">
        <ele>1357.8</ele>
        <time>2009-08-22T09:21:14Z</time>
      </trkpt>
      <trkpt lat="42.99326" lon="-0.19163">
        <ele>1356.2</ele>
        <time>2009-08-22T09:21:18Z</time>
      </trkpt>
      <trkpt lat="42.99327" lon="-0.19157">
        <ele>1355.6</ele>
        <time>2009-08-22T09:21:19Z</time>
      </trkpt>
      <trkpt lat="42.99326" lon="-0.19125">
        <ele>1349.8</ele>
        <time>2009-08-22T09:21:24Z</time>
      </trkpt>
      <trkpt lat="42.99329" lon="-0.19096">
        <ele>1346.4</ele>
        <time>2009-08-22T09:21:28Z</time>
      </trkpt>
      <trkpt lat="42.99332" lon="-0.19089">
        <ele>1346.1</ele>
        <time>2009-08-22T09:21:29Z</time>
      </trkpt>
      <trkpt lat="42.99336" lon="-0.19076">
        <ele>1346.2</ele>
        <time>2009-08-22T09:21:31Z</time>
      </trkpt>
      <trkpt lat="42.9934" lon="-0.19044">
        <ele>1343.7</ele>
        <time>2009-08-22T09:21:36Z</time>
      </trkpt>
      <trkpt lat="42.99342" lon="-0.19023">
        <ele>1341.5</ele>
        <time>2009-08-22T09:21:40Z</time>
      </trkpt>
      <trkpt lat="42.99346" lon="-0.19004">
        <ele>1340.7</ele>
        <time>2009-08-22T09:21:44Z</time>
      </trkpt>
      <trkpt lat="42.9935" lon="-0.18989">
        <ele>1342.2</ele>
        <time>2009-08-22T09:21:48Z</time>
      </trkpt>
      <trkpt lat="42.99354" lon="-0.18972">
        <ele>1343.7</ele>
        <time>2009-08-22T09:21:52Z</time>
      </trkpt>
      <trkpt lat="42.99351" lon="-0.18957">
        <ele>1342.4</ele>
        <time>2009-08-22T09:21:55Z</time>
      </trkpt>
      <trkpt lat="42.99345" lon="-0.1893">
        <ele>1339.3</ele>
        <time>2009-08-22T09:21:59Z</time>
      </trkpt>
      <trkpt lat="42.9934" lon="-0.18907">
        <ele>1336.5</ele>
        <time>2009-08-22T09:22:02Z</time>
      </trkpt>
      <trkpt lat="42.99339" lon="-0.18901">
        <ele>1335.6</ele>
        <time>2009-08-22T09:22:03Z</time>
      </trkpt>
      <trkpt lat="42.99337" lon="-0.18873">
        <ele>1333.2</ele>
        <time>2009-08-22T09:22:07Z</time>
      </trkpt>
      <trkpt lat="42.99337" lon="-0.18865">
        <ele>1332.6</ele>
        <time>2009-08-22T09:22:08Z</time>
      </trkpt>
      <trkpt lat="42.99336" lon="-0.18835">
        <ele>1330.6</ele>
        <time>2009-08-22T09:22:12Z</time>
      </trkpt>
      <trkpt lat="42.99329" lon="-0.18803">
        <ele>1326.8</ele>
        <time>2009-08-22T09:22:17Z</time>
      </trkpt>
      <trkpt lat="42.99322" lon="-0.18782">
        <ele>1323.8</ele>
        <time>2009-08-22T09:22:20Z</time>
      </trkpt>
      <trkpt lat="42.99314" lon="-0.18759">
        <ele>1320.7</ele>
        <time>2009-08-22T09:22:24Z</time>
      </trkpt>
      <trkpt lat="42.99306" lon="-0.18736">
        <ele>1317.8</ele>
        <time>2009-08-22T09:22:28Z</time>
      </trkpt>
      <trkpt lat="42.99299" lon="-0.18718">
        <ele>1315.7</ele>
        <time>2009-08-22T09:22:31Z</time>
      </trkpt>
      <trkpt lat="42.99298" lon="-0.18713">
        <ele>1315.1</ele>
        <time>2009-08-22T09:22:32Z</time>
      </trkpt>
      <trkpt lat="42.99295" lon="-0.18682">
        <ele>1313.9</ele>
        <time>2009-08-22T09:22:37Z</time>
      </trkpt>
      <trkpt lat="42.99294" lon="-0.18678">
        <ele>1313.6</ele>
        <time>2009-08-22T09:22:38Z</time>
      </trkpt>
      <trkpt lat="42.99288" lon="-0.18664">
        <ele>1311.8</ele>
        <time>2009-08-22T09:22:44Z</time>
      </trkpt>
      <trkpt lat="42.99281" lon="-0.1865">
        <ele>1309.2</ele>
        <time>2009-08-22T09:22:49Z</time>
      </trkpt>
      <trkpt lat="42.99276" lon="-0.18635">
        <ele>1306.9</ele>
        <time>2009-08-22T09:22:54Z</time>
      </trkpt>
      <trkpt lat="42.99272" lon="-0.18619">
        <ele>1305.1</ele>
        <time>2009-08-22T09:22:58Z</time>
      </trkpt>
      <trkpt lat="42.99272" lon="-0.18601">
        <ele>1304.3</ele>
        <time>2009-08-22T09:23:02Z</time>
      </trkpt>
      <trkpt lat="42.99272" lon="-0.18595">
        <ele>1304.1</ele>
        <time>2009-08-22T09:23:03Z</time>
      </trkpt>
      <trkpt lat="42.99268" lon="-0.18572">
        <ele>1301.9</ele>
        <time>2009-08-22T09:23:08Z</time>
      </trkpt>
      <trkpt lat="42.99264" lon="-0.18567">
        <ele>1300.6</ele>
        <time>2009-08-22T09:23:15Z</time>
      </trkpt>
      <trkpt lat="42.99263" lon="-0.18568">
        <ele>1300.5</ele>
        <time>2009-08-22T09:23:49Z</time>
      </trkpt>
      <trkpt lat="42.99259" lon="-0.18559">
        <ele>1299.1</ele>
        <time>2009-08-22T09:24:08Z</time>
      </trkpt>
      <trkpt lat="42.99251" lon="-0.1855">
        <ele>1296.7</ele>
        <time>2009-08-22T09:24:14Z</time>
      </trkpt>
      <trkpt lat="42.99245" lon="-0.18543">
        <ele>1294.6</ele>
        <time>2009-08-22T09:24:20Z</time>
      </trkpt>
      <trkpt lat="42.99237" lon="-0.18538">
        <ele>1292.3</ele>
        <time>2009-08-22T09:24:26Z</time>
      </trkpt>
      <trkpt lat="42.99228" lon="-0.18529">
        <ele>1289.5</ele>
        <time>2009-08-22T09:24:32Z</time>
      </trkpt>
      <trkpt lat="42.99222" lon="-0.18522">
        <ele>1287.9</ele>
        <time>2009-08-22T09:24:36Z</time>
      </trkpt>
      <trkpt lat="42.9922" lon="-0.18519">
        <ele>1287.3</ele>
        <time>2009-08-22T09:24:38Z</time>
      </trkpt>
      <trkpt lat="42.99213" lon="-0.1851">
        <ele>1285.2</ele>
        <time>2009-08-22T09:24:45Z</time>
      </trkpt>
      <trkpt lat="42.9921" lon="-0.18507">
        <ele>1284.6</ele>
        <time>2009-08-22T09:24:57Z</time>
      </trkpt>
      <trkpt lat="42.99204" lon="-0.18498">
        <ele>1282.6</ele>
        <time>2009-08-22T09:25:08Z</time>
      </trkpt>
      <trkpt lat="42.99197" lon="-0.1849">
        <ele>1280.3</ele>
        <time>2009-08-22T09:25:13Z</time>
      </trkpt>
      <trkpt lat="42.99191" lon="-0.18479">
        <ele>1277.9</ele>
        <time>2009-08-22T09:25:19Z</time>
      </trkpt>
      <trkpt lat="42.99188" lon="-0.18467">
        <ele>1276.1</ele>
        <time>2009-08-22T09:25:24Z</time>
      </trkpt>
      <trkpt lat="42.99184" lon="-0.18457">
        <ele>1274.5</ele>
        <time>2009-08-22T09:25:30Z</time>
      </trkpt>
      <trkpt lat="42.99182" lon="-0.1845">
        <ele>1273.6</ele>
        <time>2009-08-22T09:25:37Z</time>
      </trkpt>
      <trkpt lat="42.9918" lon="-0.18445">
        <ele>1272.9</ele>
        <time>2009-08-22T09:25:52Z</time>
      </trkpt>
      <trkpt lat="42.9918" lon="-0.18443">
        <ele>1272.7</ele>
        <time>2009-08-22T09:25:55Z</time>
      </trkpt>
      <trkpt lat="42.99181" lon="-0.18427">
        <ele>1271.5</ele>
        <time>2009-08-22T09:26:02Z</time>
      </trkpt>
      <trkpt lat="42.99182" lon="-0.1841">
        <ele>1269.8</ele>
        <time>2009-08-22T09:26:07Z</time>
      </trkpt>
      <trkpt lat="42.99185" lon="-0.18395">
        <ele>1267.8</ele>
        <time>2009-08-22T09:26:12Z</time>
      </trkpt>
      <trkpt lat="42.9919" lon="-0.18383">
        <ele>1266.4</ele>
        <time>2009-08-22T09:26:17Z</time>
      </trkpt>
      <trkpt lat="42.99196" lon="-0.18372">
        <ele>1265.2</ele>
        <time>2009-08-22T09:26:22Z</time>
      </trkpt>
      <trkpt lat="42.99205" lon="-0.18361">
        <ele>1264</ele>
        <time>2009-08-22T09:26:27Z</time>
      </trkpt>
      <trkpt lat="42.99213" lon="-0.18353">
        <ele>1263.2</ele>
        <time>2009-08-22T09:26:33Z</time>
      </trkpt>
      <trkpt lat="42.9922" lon="-0.18346">
        <ele>1262.4</ele>
        <time>2009-08-22T09:26:38Z</time>
      </trkpt>
      <trkpt lat="42.99228" lon="-0.18336">
        <ele>1261.2</ele>
        <time>2009-08-22T09:26:43Z</time>
      </trkpt>
      <trkpt lat="42.99237" lon="-0.18326">
        <ele>1259.5</ele>
        <time>2009-08-22T09:26:47Z</time>
      </trkpt>
      <trkpt lat="42.99245" lon="-0.18314">
        <ele>1257.5</ele>
        <time>2009-08-22T09:26:51Z</time>
      </trkpt>
      <trkpt lat="42.99254" lon="-0.18303">
        <ele>1256.1</ele>
        <time>2009-08-22T09:26:56Z</time>
      </trkpt>
      <trkpt lat="42.99263" lon="-0.18294">
        <ele>1255.8</ele>
        <time>2009-08-22T09:27:01Z</time>
      </trkpt>
      <trkpt lat="42.99272" lon="-0.18287">
        <ele>1255.5</ele>
        <time>2009-08-22T09:27:06Z</time>
      </trkpt>
      <trkpt lat="42.99281" lon="-0.18279">
        <ele>1255.3</ele>
        <time>2009-08-22T09:27:10Z</time>
      </trkpt>
      <trkpt lat="42.99294" lon="-0.18271">
        <ele>1255.4</ele>
        <time>2009-08-22T09:27:14Z</time>
      </trkpt>
      <trkpt lat="42.99297" lon="-0.18268">
        <ele>1255.2</ele>
        <time>2009-08-22T09:27:16Z</time>
      </trkpt>
      <trkpt lat="42.99296" lon="-0.18251">
        <ele>1251</ele>
        <time>2009-08-22T09:27:23Z</time>
      </trkpt>
      <trkpt lat="42.99296" lon="-0.18241">
        <ele>1248.5</ele>
        <time>2009-08-22T09:27:26Z</time>
      </trkpt>
      <trkpt lat="42.99293" lon="-0.18219">
        <ele>1243.3</ele>
        <time>2009-08-22T09:27:32Z</time>
      </trkpt>
      <trkpt lat="42.99288" lon="-0.18204">
        <ele>1239.8</ele>
        <time>2009-08-22T09:27:36Z</time>
      </trkpt>
      <trkpt lat="42.99285" lon="-0.18188">
        <ele>1236.1</ele>
        <time>2009-08-22T09:27:40Z</time>
      </trkpt>
      <trkpt lat="42.99284" lon="-0.18172">
        <ele>1232.8</ele>
        <time>2009-08-22T09:27:44Z</time>
      </trkpt>
      <trkpt lat="42.99284" lon="-0.18156">
        <ele>1229.7</ele>
        <time>2009-08-22T09:27:48Z</time>
      </trkpt>
      <trkpt lat="42.99284" lon="-0.18154">
        <ele>1229.3</ele>
        <time>2009-08-22T09:27:49Z</time>
      </trkpt>
      <trkpt lat="42.9929" lon="-0.18144">
        <ele>1227.7</ele>
        <time>2009-08-22T09:27:56Z</time>
      </trkpt>
      <trkpt lat="42.99287" lon="-0.18137">
        <ele>1226.4</ele>
        <time>2009-08-22T09:28:03Z</time>
      </trkpt>
      <trkpt lat="42.99285" lon="-0.18137">
        <ele>1226.3</ele>
        <time>2009-08-22T09:28:44Z</time>
      </trkpt>
      <trkpt lat="42.99281" lon="-0.18137">
        <ele>1226.4</ele>
        <time>2009-08-22T09:28:48Z</time>
      </trkpt>
      <trkpt lat="42.99278" lon="-0.18143">
        <ele>1227.3</ele>
        <time>2009-08-22T09:28:53Z</time>
      </trkpt>
      <trkpt lat="42.99276" lon="-0.18146">
        <ele>1227.8</ele>
        <time>2009-08-22T09:28:56Z</time>
      </trkpt>
      <trkpt lat="42.99266" lon="-0.18148">
        <ele>1228</ele>
        <time>2009-08-22T09:29:04Z</time>
      </trkpt>
      <trkpt lat="42.99257" lon="-0.18149">
        <ele>1227.9</ele>
        <time>2009-08-22T09:29:10Z</time>
      </trkpt>
      <trkpt lat="42.99249" lon="-0.18146">
        <ele>1227.4</ele>
        <time>2009-08-22T09:29:16Z</time>
      </trkpt>
      <trkpt lat="42.99242" lon="-0.18138">
        <ele>1225.2</ele>
        <time>2009-08-22T09:29:22Z</time>
      </trkpt>
      <trkpt lat="42.99239" lon="-0.18133">
        <ele>1224</ele>
        <time>2009-08-22T09:29:25Z</time>
      </trkpt>
      <trkpt lat="42.99228" lon="-0.18131">
        <ele>1221.8</ele>
        <time>2009-08-22T09:29:32Z</time>
      </trkpt>
      <trkpt lat="42.99226" lon="-0.18134">
        <ele>1221.7</ele>
        <time>2009-08-22T09:29:35Z</time>
      </trkpt>
      <trkpt lat="42.99223" lon="-0.18142">
        <ele>1222.2</ele>
        <time>2009-08-22T09:29:39Z</time>
      </trkpt>
      <trkpt lat="42.99216" lon="-0.18147">
        <ele>1221.7</ele>
        <time>2009-08-22T09:29:47Z</time>
      </trkpt>
      <trkpt lat="42.99208" lon="-0.18148">
        <ele>1220.4</ele>
        <time>2009-08-22T09:29:58Z</time>
      </trkpt>
      <trkpt lat="42.99199" lon="-0.18144">
        <ele>1218.3</ele>
        <time>2009-08-22T09:30:04Z</time>
      </trkpt>
      <trkpt lat="42.99188" lon="-0.1814">
        <ele>1216</ele>
        <time>2009-08-22T09:30:10Z</time>
      </trkpt>
      <trkpt lat="42.99178" lon="-0.18137">
        <ele>1213.6</ele>
        <time>2009-08-22T09:30:15Z</time>
      </trkpt>
      <trkpt lat="42.99168" lon="-0.18135">
        <ele>1211.7</ele>
        <time>2009-08-22T09:30:20Z</time>
      </trkpt>
      <trkpt lat="42.99156" lon="-0.18133">
        <ele>1208.9</ele>
        <time>2009-08-22T09:30:26Z</time>
      </trkpt>
      <trkpt lat="42.99146" lon="-0.18132">
        <ele>1206.2</ele>
        <time>2009-08-22T09:30:31Z</time>
      </trkpt>
      <trkpt lat="42.99136" lon="-0.1813">
        <ele>1203.6</ele>
        <time>2009-08-22T09:30:36Z</time>
      </trkpt>
      <trkpt lat="42.99126" lon="-0.18128">
        <ele>1201.1</ele>
        <time>2009-08-22T09:30:41Z</time>
      </trkpt>
      <trkpt lat="42.99113" lon="-0.1813">
        <ele>1198.3</ele>
        <time>2009-08-22T09:30:46Z</time>
      </trkpt>
      <trkpt lat="42.99101" lon="-0.18135">
        <ele>1196.6</ele>
        <time>2009-08-22T09:30:51Z</time>
      </trkpt>
      <trkpt lat="42.9909" lon="-0.18141">
        <ele>1195.5</ele>
        <time>2009-08-22T09:30:56Z</time>
      </trkpt>
      <trkpt lat="42.99085" lon="-0.18136">
        <ele>1193.2</ele>
        <time>2009-08-22T09:31:04Z</time>
      </trkpt>
      <trkpt lat="42.99086" lon="-0.18134">
        <ele>1193.2</ele>
        <time>2009-08-22T09:32:32Z</time>
      </trkpt>
      <trkpt lat="42.99086" lon="-0.18134">
        <ele>1193.1</ele>
        <time>2009-08-22T09:33:40Z</time>
      </trkpt>
      <trkpt lat="42.99092" lon="-0.18125">
        <ele>1192.6</ele>
        <time>2009-08-22T09:33:47Z</time>
      </trkpt>
      <trkpt lat="42.99098" lon="-0.18112">
        <ele>1191</ele>
        <time>2009-08-22T09:33:54Z</time>
      </trkpt>
      <trkpt lat="42.99101" lon="-0.18099">
        <ele>1189.2</ele>
        <time>2009-08-22T09:34:00Z</time>
      </trkpt>
      <trkpt lat="42.99103" lon="-0.18083">
        <ele>1186.4</ele>
        <time>2009-08-22T09:34:04Z</time>
      </trkpt>
      <trkpt lat="42.99103" lon="-0.18067">
        <ele>1185.4</ele>
        <time>2009-08-22T09:34:08Z</time>
      </trkpt>
      <trkpt lat="42.99098" lon="-0.18052">
        <ele>1183.3</ele>
        <time>2009-08-22T09:34:13Z</time>
      </trkpt>
      <trkpt lat="42.99096" lon="-0.18038">
        <ele>1181.9</ele>
        <time>2009-08-22T09:34:18Z</time>
      </trkpt>
      <trkpt lat="42.9909" lon="-0.18029">
        <ele>1179.7</ele>
        <time>2009-08-22T09:34:24Z</time>
      </trkpt>
      <trkpt lat="42.99085" lon="-0.18027">
        <ele>1178.1</ele>
        <time>2009-08-22T09:34:34Z</time>
      </trkpt>
      <trkpt lat="42.99072" lon="-0.18031">
        <ele>1173.8</ele>
        <time>2009-08-22T09:34:41Z</time>
      </trkpt>
      <trkpt lat="42.99063" lon="-0.18033">
        <ele>1170.8</ele>
        <time>2009-08-22T09:34:46Z</time>
      </trkpt>
      <trkpt lat="42.99055" lon="-0.18034">
        <ele>1167.8</ele>
        <time>2009-08-22T09:34:52Z</time>
      </trkpt>
      <trkpt lat="42.99049" lon="-0.18035">
        <ele>1165.6</ele>
        <time>2009-08-22T09:34:59Z</time>
      </trkpt>
      <trkpt lat="42.99046" lon="-0.18035">
        <ele>1164.6</ele>
        <time>2009-08-22T09:35:13Z</time>
      </trkpt>
      <trkpt lat="42.99039" lon="-0.18026">
        <ele>1161.1</ele>
        <time>2009-08-22T09:35:20Z</time>
      </trkpt>
      <trkpt lat="42.9903" lon="-0.18019">
        <ele>1157.2</ele>
        <time>2009-08-22T09:35:26Z</time>
      </trkpt>
      <trkpt lat="42.99022" lon="-0.1801">
        <ele>1153</ele>
        <time>2009-08-22T09:35:32Z</time>
      </trkpt>
      <trkpt lat="42.99016" lon="-0.17999">
        <ele>1149.1</ele>
        <time>2009-08-22T09:35:37Z</time>
      </trkpt>
      <trkpt lat="42.99007" lon="-0.1799">
        <ele>1145</ele>
        <time>2009-08-22T09:35:43Z</time>
      </trkpt>
      <trkpt lat="42.99002" lon="-0.17979">
        <ele>1142.6</ele>
        <time>2009-08-22T09:35:49Z</time>
      </trkpt>
      <trkpt lat="42.99001" lon="-0.17971">
        <ele>1141.5</ele>
        <time>2009-08-22T09:35:53Z</time>
      </trkpt>
      <trkpt lat="42.98998" lon="-0.17959">
        <ele>1139.9</ele>
        <time>2009-08-22T09:36:00Z</time>
      </trkpt>
      <trkpt lat="42.98997" lon="-0.17959">
        <ele>1139.5</ele>
        <time>2009-08-22T09:36:18Z</time>
      </trkpt>
      <trkpt lat="42.98997" lon="-0.17957">
        <ele>1139.5</ele>
        <time>2009-08-22T09:36:57Z</time>
      </trkpt>
      <trkpt lat="42.98996" lon="-0.17952">
        <ele>1138.7</ele>
        <time>2009-08-22T09:37:15Z</time>
      </trkpt>
      <trkpt lat="42.98992" lon="-0.17954">
        <ele>1137.7</ele>
        <time>2009-08-22T09:37:39Z</time>
      </trkpt>
      <trkpt lat="42.98987" lon="-0.17955">
        <ele>1136.3</ele>
        <time>2009-08-22T09:37:52Z</time>
      </trkpt>
      <trkpt lat="42.98986" lon="-0.17953">
        <ele>1136</ele>
        <time>2009-08-22T09:38:31Z</time>
      </trkpt>
      <trkpt lat="42.98982" lon="-0.17948">
        <ele>1134.4</ele>
        <time>2009-08-22T09:41:40Z</time>
      </trkpt>
      <trkpt lat="42.98976" lon="-0.17952">
        <ele>1132.7</ele>
        <time>2009-08-22T09:41:46Z</time>
      </trkpt>
      <trkpt lat="42.98968" lon="-0.17956">
        <ele>1130.4</ele>
        <time>2009-08-22T09:41:53Z</time>
      </trkpt>
      <trkpt lat="42.98962" lon="-0.1796">
        <ele>1129.1</ele>
        <time>2009-08-22T09:42:06Z</time>
      </trkpt>
      <trkpt lat="42.98959" lon="-0.17963">
        <ele>1128.4</ele>
        <time>2009-08-22T09:42:11Z</time>
      </trkpt>
      <trkpt lat="42.98955" lon="-0.17975">
        <ele>1128.1</ele>
        <time>2009-08-22T09:42:17Z</time>
      </trkpt>
      <trkpt lat="42.98949" lon="-0.17986">
        <ele>1127.1</ele>
        <time>2009-08-22T09:42:22Z</time>
      </trkpt>
      <trkpt lat="42.98941" lon="-0.17991">
        <ele>1125.2</ele>
        <time>2009-08-22T09:42:28Z</time>
      </trkpt>
      <trkpt lat="42.98932" lon="-0.17991">
        <ele>1122.8</ele>
        <time>2009-08-22T09:42:34Z</time>
      </trkpt>
      <trkpt lat="42.98927" lon="-0.17992">
        <ele>1121.3</ele>
        <time>2009-08-22T09:42:43Z</time>
      </trkpt>
      <trkpt lat="42.98924" lon="-0.17991">
        <ele>1120.4</ele>
        <time>2009-08-22T09:43:00Z</time>
      </trkpt>
      <trkpt lat="42.98917" lon="-0.17991">
        <ele>1118.2</ele>
        <time>2009-08-22T09:43:27Z</time>
      </trkpt>
      <trkpt lat="42.98906" lon="-0.17991">
        <ele>1116</ele>
        <time>2009-08-22T09:43:33Z</time>
      </trkpt>
      <trkpt lat="42.98902" lon="-0.17994">
        <ele>1115.3</ele>
        <time>2009-08-22T09:43:35Z</time>
      </trkpt>
      <trkpt lat="42.98886" lon="-0.17995">
        <ele>1112.2</ele>
        <time>2009-08-22T09:43:41Z</time>
      </trkpt>
      <trkpt lat="42.98874" lon="-0.17991">
        <ele>1109.3</ele>
        <time>2009-08-22T09:43:46Z</time>
      </trkpt>
      <trkpt lat="42.98861" lon="-0.17989">
        <ele>1106.3</ele>
        <time>2009-08-22T09:43:51Z</time>
      </trkpt>
      <trkpt lat="42.98848" lon="-0.17989">
        <ele>1103.8</ele>
        <time>2009-08-22T09:43:55Z</time>
      </trkpt>
      <trkpt lat="42.98837" lon="-0.17986">
        <ele>1101.1</ele>
        <time>2009-08-22T09:44:00Z</time>
      </trkpt>
      <trkpt lat="42.98825" lon="-0.17987">
        <ele>1099.2</ele>
        <time>2009-08-22T09:44:05Z</time>
      </trkpt>
      <trkpt lat="42.98813" lon="-0.17988">
        <ele>1097.3</ele>
        <time>2009-08-22T09:44:09Z</time>
      </trkpt>
      <trkpt lat="42.98802" lon="-0.17985">
        <ele>1095.3</ele>
        <time>2009-08-22T09:44:14Z</time>
      </trkpt>
      <trkpt lat="42.98793" lon="-0.17983">
        <ele>1093.7</ele>
        <time>2009-08-22T09:44:19Z</time>
      </trkpt>
      <trkpt lat="42.98779" lon="-0.1798">
        <ele>1091.2</ele>
        <time>2009-08-22T09:44:24Z</time>
      </trkpt>
      <trkpt lat="42.98767" lon="-0.17982">
        <ele>1089.5</ele>
        <time>2009-08-22T09:44:28Z</time>
      </trkpt>
      <trkpt lat="42.98757" lon="-0.17986">
        <ele>1088.2</ele>
        <time>2009-08-22T09:44:33Z</time>
      </trkpt>
      <trkpt lat="42.98744" lon="-0.17983">
        <ele>1086.1</ele>
        <time>2009-08-22T09:44:39Z</time>
      </trkpt>
      <trkpt lat="42.9873" lon="-0.17986">
        <ele>1084.2</ele>
        <time>2009-08-22T09:44:43Z</time>
      </trkpt>
      <trkpt lat="42.98718" lon="-0.17988">
        <ele>1082.5</ele>
        <time>2009-08-22T09:44:48Z</time>
      </trkpt>
      <trkpt lat="42.98708" lon="-0.1799">
        <ele>1081.1</ele>
        <time>2009-08-22T09:44:53Z</time>
      </trkpt>
      <trkpt lat="42.98702" lon="-0.17998">
        <ele>1080.5</ele>
        <time>2009-08-22T09:44:58Z</time>
      </trkpt>
      <trkpt lat="42.98696" lon="-0.18009">
        <ele>1080.1</ele>
        <time>2009-08-22T09:45:03Z</time>
      </trkpt>
      <trkpt lat="42.98694" lon="-0.18014">
        <ele>1080</ele>
        <time>2009-08-22T09:45:06Z</time>
      </trkpt>
      <trkpt lat="42.98691" lon="-0.18021">
        <ele>1079.9</ele>
        <time>2009-08-22T09:45:10Z</time>
      </trkpt>
      <trkpt lat="42.98683" lon="-0.18033">
        <ele>1079.4</ele>
        <time>2009-08-22T09:45:16Z</time>
      </trkpt>
      <trkpt lat="42.98678" lon="-0.18046">
        <ele>1079.1</ele>
        <time>2009-08-22T09:45:21Z</time>
      </trkpt>
      <trkpt lat="42.9867" lon="-0.18061">
        <ele>1078.5</ele>
        <time>2009-08-22T09:45:26Z</time>
      </trkpt>
      <trkpt lat="42.98665" lon="-0.18073">
        <ele>1078</ele>
        <time>2009-08-22T09:45:31Z</time>
      </trkpt>
      <trkpt lat="42.98663" lon="-0.1808">
        <ele>1077.9</ele>
        <time>2009-08-22T09:45:38Z</time>
      </trkpt>
      <trkpt lat="42.98662" lon="-0.1808">
        <ele>1077.6</ele>
        <time>2009-08-22T09:45:54Z</time>
      </trkpt>
      <trkpt lat="42.98662" lon="-0.1808">
        <ele>1077.6</ele>
        <time>2009-08-22T09:46:28Z</time>
      </trkpt>
      <trkpt lat="42.98657" lon="-0.1808">
        <ele>1076.1</ele>
        <time>2009-08-22T09:46:38Z</time>
      </trkpt>
      <trkpt lat="42.98657" lon="-0.18083">
        <ele>1076.3</ele>
        <time>2009-08-22T09:47:20Z</time>
      </trkpt>
      <trkpt lat="42.98653" lon="-0.1809">
        <ele>1075.6</ele>
        <time>2009-08-22T09:47:24Z</time>
      </trkpt>
      <trkpt lat="42.98647" lon="-0.18107">
        <ele>1074.6</ele>
        <time>2009-08-22T09:47:30Z</time>
      </trkpt>
      <trkpt lat="42.98641" lon="-0.18123">
        <ele>1073.4</ele>
        <time>2009-08-22T09:47:34Z</time>
      </trkpt>
      <trkpt lat="42.98633" lon="-0.18138">
        <ele>1071.9</ele>
        <time>2009-08-22T09:47:38Z</time>
      </trkpt>
      <trkpt lat="42.98625" lon="-0.18153">
        <ele>1069.9</ele>
        <time>2009-08-22T09:47:42Z</time>
      </trkpt>
      <trkpt lat="42.98618" lon="-0.18167">
        <ele>1068.3</ele>
        <time>2009-08-22T09:47:46Z</time>
      </trkpt>
      <trkpt lat="42.98611" lon="-0.18181">
        <ele>1066.6</ele>
        <time>2009-08-22T09:47:51Z</time>
      </trkpt>
      <trkpt lat="42.98602" lon="-0.18199">
        <ele>1064.5</ele>
        <time>2009-08-22T09:47:56Z</time>
      </trkpt>
      <trkpt lat="42.98596" lon="-0.18214">
        <ele>1063.2</ele>
        <time>2009-08-22T09:47:59Z</time>
      </trkpt>
      <trkpt lat="42.98594" lon="-0.18241">
        <ele>1063.5</ele>
        <time>2009-08-22T09:48:04Z</time>
      </trkpt>
      <trkpt lat="42.98593" lon="-0.18257">
        <ele>1063.6</ele>
        <time>2009-08-22T09:48:08Z</time>
      </trkpt>
      <trkpt lat="42.98593" lon="-0.1827">
        <ele>1063.8</ele>
        <time>2009-08-22T09:48:13Z</time>
      </trkpt>
      <trkpt lat="42.98593" lon="-0.18285">
        <ele>1064.3</ele>
        <time>2009-08-22T09:48:25Z</time>
      </trkpt>
      <trkpt lat="42.98593" lon="-0.18307">
        <ele>1064.5</ele>
        <time>2009-08-22T09:48:29Z</time>
      </trkpt>
      <trkpt lat="42.98591" lon="-0.18334">
        <ele>1064.5</ele>
        <time>2009-08-22T09:48:33Z</time>
      </trkpt>
      <trkpt lat="42.98588" lon="-0.18355">
        <ele>1064.5</ele>
        <time>2009-08-22T09:48:37Z</time>
      </trkpt>
      <trkpt lat="42.98587" lon="-0.18374">
        <ele>1065.1</ele>
        <time>2009-08-22T09:48:41Z</time>
      </trkpt>
      <trkpt lat="42.98586" lon="-0.18393">
        <ele>1065.8</ele>
        <time>2009-08-22T09:48:45Z</time>
      </trkpt>
      <trkpt lat="42.98586" lon="-0.18403">
        <ele>1066.3</ele>
        <time>2009-08-22T09:48:47Z</time>
      </trkpt>
      <trkpt lat="42.98583" lon="-0.18414">
        <ele>1065.8</ele>
        <time>2009-08-22T09:48:49Z</time>
      </trkpt>
      <trkpt lat="42.98568" lon="-0.18428">
        <ele>1064.6</ele>
        <time>2009-08-22T09:48:54Z</time>
      </trkpt>
      <trkpt lat="42.9856" lon="-0.18417">
        <ele>1062.4</ele>
        <time>2009-08-22T09:48:59Z</time>
      </trkpt>
      <trkpt lat="42.98558" lon="-0.1841">
        <ele>1061.8</ele>
        <time>2009-08-22T09:49:06Z</time>
      </trkpt>
      <trkpt lat="42.98556" lon="-0.18406">
        <ele>1061.2</ele>
        <time>2009-08-22T09:49:20Z</time>
      </trkpt>
      <trkpt lat="42.98553" lon="-0.18393">
        <ele>1060.2</ele>
        <time>2009-08-22T09:49:38Z</time>
      </trkpt>
      <trkpt lat="42.98548" lon="-0.18384">
        <ele>1059.1</ele>
        <time>2009-08-22T09:49:40Z</time>
      </trkpt>
      <trkpt lat="42.98535" lon="-0.1836">
        <ele>1056.1</ele>
        <time>2009-08-22T09:49:45Z</time>
      </trkpt>
      <trkpt lat="42.98524" lon="-0.18342">
        <ele>1053.8</ele>
        <time>2009-08-22T09:49:48Z</time>
      </trkpt>
      <trkpt lat="42.98514" lon="-0.18329">
        <ele>1051.8</ele>
        <time>2009-08-22T09:49:52Z</time>
      </trkpt>
      <trkpt lat="42.98506" lon="-0.18315">
        <ele>1049.7</ele>
        <time>2009-08-22T09:49:56Z</time>
      </trkpt>
      <trkpt lat="42.98491" lon="-0.18296">
        <ele>1046</ele>
        <time>2009-08-22T09:50:00Z</time>
      </trkpt>
      <trkpt lat="42.98482" lon="-0.18285">
        <ele>1043.8</ele>
        <time>2009-08-22T09:50:04Z</time>
      </trkpt>
      <trkpt lat="42.98474" lon="-0.18273">
        <ele>1041.9</ele>
        <time>2009-08-22T09:50:07Z</time>
      </trkpt>
      <trkpt lat="42.98461" lon="-0.18247">
        <ele>1038.6</ele>
        <time>2009-08-22T09:50:12Z</time>
      </trkpt>
      <trkpt lat="42.98455" lon="-0.1823">
        <ele>1035.9</ele>
        <time>2009-08-22T09:50:15Z</time>
      </trkpt>
      <trkpt lat="42.98441" lon="-0.18212">
        <ele>1031.6</ele>
        <time>2009-08-22T09:50:19Z</time>
      </trkpt>
      <trkpt lat="42.98424" lon="-0.18201">
        <ele>1027.8</ele>
        <time>2009-08-22T09:50:24Z</time>
      </trkpt>
      <trkpt lat="42.98416" lon="-0.18197">
        <ele>1025.9</ele>
        <time>2009-08-22T09:50:26Z</time>
      </trkpt>
      <trkpt lat="42.98398" lon="-0.18177">
        <ele>1020.9</ele>
        <time>2009-08-22T09:50:30Z</time>
      </trkpt>
      <trkpt lat="42.98383" lon="-0.18162">
        <ele>1017.6</ele>
        <time>2009-08-22T09:50:33Z</time>
      </trkpt>
      <trkpt lat="42.98378" lon="-0.18157">
        <ele>1016.4</ele>
        <time>2009-08-22T09:50:34Z</time>
      </trkpt>
      <trkpt lat="42.98364" lon="-0.18147">
        <ele>1013.9</ele>
        <time>2009-08-22T09:50:36Z</time>
      </trkpt>
      <trkpt lat="42.98344" lon="-0.18118">
        <ele>1008.6</ele>
        <time>2009-08-22T09:50:40Z</time>
      </trkpt>
      <trkpt lat="42.98339" lon="-0.18107">
        <ele>1007</ele>
        <time>2009-08-22T09:50:41Z</time>
      </trkpt>
      <trkpt lat="42.98322" lon="-0.18051">
        <ele>999.6</ele>
        <time>2009-08-22T09:50:45Z</time>
      </trkpt>
      <trkpt lat="42.98312" lon="-0.1802">
        <ele>996</ele>
        <time>2009-08-22T09:50:47Z</time>
      </trkpt>
      <trkpt lat="42.983" lon="-0.17982">
        <ele>991.8</ele>
        <time>2009-08-22T09:50:50Z</time>
      </trkpt>
      <trkpt lat="42.98286" lon="-0.17949">
        <ele>987.4</ele>
        <time>2009-08-22T09:50:53Z</time>
      </trkpt>
      <trkpt lat="42.98273" lon="-0.17924">
        <ele>983.7</ele>
        <time>2009-08-22T09:50:56Z</time>
      </trkpt>
      <trkpt lat="42.9826" lon="-0.17903">
        <ele>980.8</ele>
        <time>2009-08-22T09:50:59Z</time>
      </trkpt>
      <trkpt lat="42.98251" lon="-0.17865">
        <ele>976.8</ele>
        <time>2009-08-22T09:51:03Z</time>
      </trkpt>
      <trkpt lat="42.98252" lon="-0.17852">
        <ele>975.7</ele>
        <time>2009-08-22T09:51:05Z</time>
      </trkpt>
      <trkpt lat="42.98253" lon="-0.17824">
        <ele>973.4</ele>
        <time>2009-08-22T09:51:09Z</time>
      </trkpt>
      <trkpt lat="42.98255" lon="-0.17812">
        <ele>972.2</ele>
        <time>2009-08-22T09:51:11Z</time>
      </trkpt>
      <trkpt lat="42.98255" lon="-0.17782">
        <ele>969.2</ele>
        <time>2009-08-22T09:51:16Z</time>
      </trkpt>
      <trkpt lat="42.98258" lon="-0.17766">
        <ele>967.8</ele>
        <time>2009-08-22T09:51:19Z</time>
      </trkpt>
      <trkpt lat="42.98274" lon="-0.1775">
        <ele>968.5</ele>
        <time>2009-08-22T09:51:24Z</time>
      </trkpt>
      <trkpt lat="42.9828" lon="-0.17728">
        <ele>965.8</ele>
        <time>2009-08-22T09:51:28Z</time>
      </trkpt>
      <trkpt lat="42.98285" lon="-0.17708">
        <ele>963.4</ele>
        <time>2009-08-22T09:51:33Z</time>
      </trkpt>
      <trkpt lat="42.9829" lon="-0.17695">
        <ele>962.2</ele>
        <time>2009-08-22T09:51:38Z</time>
      </trkpt>
      <trkpt lat="42.98294" lon="-0.17684">
        <ele>960.9</ele>
        <time>2009-08-22T09:51:45Z</time>
      </trkpt>
      <trkpt lat="42.98299" lon="-0.17673">
        <ele>960.2</ele>
        <time>2009-08-22T09:51:54Z</time>
      </trkpt>
      <trkpt lat="42.98301" lon="-0.17669">
        <ele>959.7</ele>
        <time>2009-08-22T09:51:59Z</time>
      </trkpt>
      <trkpt lat="42.98304" lon="-0.17667">
        <ele>959.7</ele>
        <time>2009-08-22T09:52:07Z</time>
      </trkpt>
      <trkpt lat="42.98303" lon="-0.17668">
        <ele>959.9</ele>
        <time>2009-08-22T09:52:09Z</time>
      </trkpt>
      <trkpt lat="42.983" lon="-0.17669">
        <ele>959.6</ele>
        <time>2009-08-22T09:52:12Z</time>
      </trkpt>
      <trkpt lat="42.98292" lon="-0.17663">
        <ele>957.7</ele>
        <time>2009-08-22T09:52:19Z</time>
      </trkpt>
      <trkpt lat="42.98289" lon="-0.1766">
        <ele>957</ele>
        <time>2009-08-22T09:52:22Z</time>
      </trkpt>
      <trkpt lat="42.98285" lon="-0.17656">
        <ele>956.1</ele>
        <time>2009-08-22T09:52:26Z</time>
      </trkpt>
      <trkpt lat="42.98279" lon="-0.17648">
        <ele>954.7</ele>
        <time>2009-08-22T09:52:35Z</time>
      </trkpt>
      <trkpt lat="42.98282" lon="-0.17646">
        <ele>954.8</ele>
        <time>2009-08-22T09:53:04Z</time>
      </trkpt>
      <trkpt lat="42.98272" lon="-0.17639">
        <ele>952.9</ele>
        <time>2009-08-22T09:53:39Z</time>
      </trkpt>
      <trkpt lat="42.98261" lon="-0.1763">
        <ele>950.8</ele>
        <time>2009-08-22T09:53:43Z</time>
      </trkpt>
      <trkpt lat="42.98252" lon="-0.17623">
        <ele>949.1</ele>
        <time>2009-08-22T09:53:49Z</time>
      </trkpt>
      <trkpt lat="42.98249" lon="-0.17621">
        <ele>948.5</ele>
        <time>2009-08-22T09:53:52Z</time>
      </trkpt>
      <trkpt lat="42.98245" lon="-0.17612">
        <ele>947.1</ele>
        <time>2009-08-22T09:54:01Z</time>
      </trkpt>
      <trkpt lat="42.98243" lon="-0.176">
        <ele>945.9</ele>
        <time>2009-08-22T09:54:06Z</time>
      </trkpt>
      <trkpt lat="42.9824" lon="-0.17587">
        <ele>944.5</ele>
        <time>2009-08-22T09:54:12Z</time>
      </trkpt>
      <trkpt lat="42.9824" lon="-0.17585">
        <ele>944.4</ele>
        <time>2009-08-22T09:54:13Z</time>
      </trkpt>
      <trkpt lat="42.98239" lon="-0.1758">
        <ele>943.9</ele>
        <time>2009-08-22T09:54:26Z</time>
      </trkpt>
      <trkpt lat="42.9824" lon="-0.17576">
        <ele>943.8</ele>
        <time>2009-08-22T09:54:29Z</time>
      </trkpt>
      <trkpt lat="42.98229" lon="-0.17561">
        <ele>941.1</ele>
        <time>2009-08-22T09:54:35Z</time>
      </trkpt>
      <trkpt lat="42.98226" lon="-0.17559">
        <ele>940.4</ele>
        <time>2009-08-22T09:54:36Z</time>
      </trkpt>
      <trkpt lat="42.98213" lon="-0.17547">
        <ele>937.4</ele>
        <time>2009-08-22T09:54:42Z</time>
      </trkpt>
      <trkpt lat="42.98206" lon="-0.17538">
        <ele>935.6</ele>
        <time>2009-08-22T09:54:48Z</time>
      </trkpt>
      <trkpt lat="42.982" lon="-0.17533">
        <ele>934.2</ele>
        <time>2009-08-22T09:54:54Z</time>
      </trkpt>
      <trkpt lat="42.98201" lon="-0.17527">
        <ele>934</ele>
        <time>2009-08-22T09:54:59Z</time>
      </trkpt>
      <trkpt lat="42.982" lon="-0.17512">
        <ele>933</ele>
        <time>2009-08-22T09:55:06Z</time>
      </trkpt>
      <trkpt lat="42.982" lon="-0.17509">
        <ele>932.9</ele>
        <time>2009-08-22T09:55:07Z</time>
      </trkpt>
      <trkpt lat="42.98204" lon="-0.1749">
        <ele>932.7</ele>
        <time>2009-08-22T09:55:12Z</time>
      </trkpt>
      <trkpt lat="42.98208" lon="-0.17476">
        <ele>932.8</ele>
        <time>2009-08-22T09:55:16Z</time>
      </trkpt>
      <trkpt lat="42.98211" lon="-0.17463">
        <ele>932.6</ele>
        <time>2009-08-22T09:55:21Z</time>
      </trkpt>
      <trkpt lat="42.98215" lon="-0.17459">
        <ele>933.3</ele>
        <time>2009-08-22T09:55:28Z</time>
      </trkpt>
      <trkpt lat="42.98215" lon="-0.1746">
        <ele>933.4</ele>
        <time>2009-08-22T09:55:29Z</time>
      </trkpt>
      <trkpt lat="42.98214" lon="-0.17473">
        <ele>933.7</ele>
        <time>2009-08-22T09:55:37Z</time>
      </trkpt>
      <trkpt lat="42.98212" lon="-0.17474">
        <ele>933.4</ele>
        <time>2009-08-22T09:55:39Z</time>
      </trkpt>
      <trkpt lat="42.98209" lon="-0.1749">
        <ele>933.5</ele>
        <time>2009-08-22T09:55:46Z</time>
      </trkpt>
      <trkpt lat="42.98204" lon="-0.17489">
        <ele>932.7</ele>
        <time>2009-08-22T09:55:51Z</time>
      </trkpt>
      <trkpt lat="42.98207" lon="-0.17483">
        <ele>933</ele>
        <time>2009-08-22T09:55:55Z</time>
      </trkpt>
      <trkpt lat="42.98209" lon="-0.17472">
        <ele>932.8</ele>
        <time>2009-08-22T09:56:00Z</time>
      </trkpt>
      <trkpt lat="42.98216" lon="-0.17456">
        <ele>933.1</ele>
        <time>2009-08-22T09:56:06Z</time>
      </trkpt>
      <trkpt lat="42.98219" lon="-0.17441">
        <ele>933</ele>
        <time>2009-08-22T09:56:10Z</time>
      </trkpt>
      <trkpt lat="42.98224" lon="-0.17424">
        <ele>932.9</ele>
        <time>2009-08-22T09:56:15Z</time>
      </trkpt>
      <trkpt lat="42.98229" lon="-0.17409">
        <ele>932.8</ele>
        <time>2009-08-22T09:56:20Z</time>
      </trkpt>
      <trkpt lat="42.98232" lon="-0.17393">
        <ele>932.2</ele>
        <time>2009-08-22T09:56:24Z</time>
      </trkpt>
      <trkpt lat="42.98236" lon="-0.17373">
        <ele>931.3</ele>
        <time>2009-08-22T09:56:28Z</time>
      </trkpt>
      <trkpt lat="42.98239" lon="-0.17362">
        <ele>930.8</ele>
        <time>2009-08-22T09:56:30Z</time>
      </trkpt>
      <trkpt lat="42.98246" lon="-0.17334">
        <ele>929.5</ele>
        <time>2009-08-22T09:56:35Z</time>
      </trkpt>
      <trkpt lat="42.98253" lon="-0.17309">
        <ele>927.6</ele>
        <time>2009-08-22T09:56:39Z</time>
      </trkpt>
      <trkpt lat="42.98258" lon="-0.17293">
        <ele>926.5</ele>
        <time>2009-08-22T09:56:43Z</time>
      </trkpt>
      <trkpt lat="42.9826" lon="-0.1729">
        <ele>926.4</ele>
        <time>2009-08-22T09:56:54Z</time>
      </trkpt>
      <trkpt lat="42.98268" lon="-0.17272">
        <ele>925.4</ele>
        <time>2009-08-22T09:57:00Z</time>
      </trkpt>
      <trkpt lat="42.98281" lon="-0.17246">
        <ele>924.4</ele>
        <time>2009-08-22T09:57:05Z</time>
      </trkpt>
      <trkpt lat="42.98291" lon="-0.17227">
        <ele>924.6</ele>
        <time>2009-08-22T09:57:08Z</time>
      </trkpt>
      <trkpt lat="42.98302" lon="-0.17206">
        <ele>924.4</ele>
        <time>2009-08-22T09:57:11Z</time>
      </trkpt>
      <trkpt lat="42.98315" lon="-0.17184">
        <ele>923.9</ele>
        <time>2009-08-22T09:57:14Z</time>
      </trkpt>
      <trkpt lat="42.98327" lon="-0.17161">
        <ele>923.3</ele>
        <time>2009-08-22T09:57:17Z</time>
      </trkpt>
      <trkpt lat="42.98339" lon="-0.17136">
        <ele>923.1</ele>
        <time>2009-08-22T09:57:20Z</time>
      </trkpt>
      <trkpt lat="42.9835" lon="-0.17111">
        <ele>923.1</ele>
        <time>2009-08-22T09:57:23Z</time>
      </trkpt>
      <trkpt lat="42.98358" lon="-0.17085">
        <ele>922.7</ele>
        <time>2009-08-22T09:57:26Z</time>
      </trkpt>
      <trkpt lat="42.98363" lon="-0.17058">
        <ele>922.5</ele>
        <time>2009-08-22T09:57:29Z</time>
      </trkpt>
      <trkpt lat="42.98367" lon="-0.17032">
        <ele>922.1</ele>
        <time>2009-08-22T09:57:32Z</time>
      </trkpt>
      <trkpt lat="42.98371" lon="-0.17006">
        <ele>921.7</ele>
        <time>2009-08-22T09:57:35Z</time>
      </trkpt>
      <trkpt lat="42.98375" lon="-0.1698">
        <ele>921.8</ele>
        <time>2009-08-22T09:57:38Z</time>
      </trkpt>
      <trkpt lat="42.98376" lon="-0.16972">
        <ele>922</ele>
        <time>2009-08-22T09:57:39Z</time>
      </trkpt>
      <trkpt lat="42.9838" lon="-0.16943">
        <ele>922.2</ele>
        <time>2009-08-22T09:57:43Z</time>
      </trkpt>
      <trkpt lat="42.98384" lon="-0.16919">
        <ele>922.6</ele>
        <time>2009-08-22T09:57:47Z</time>
      </trkpt>
      <trkpt lat="42.98386" lon="-0.16899">
        <ele>922.9</ele>
        <time>2009-08-22T09:57:51Z</time>
      </trkpt>
      <trkpt lat="42.98386" lon="-0.16881">
        <ele>922.9</ele>
        <time>2009-08-22T09:57:55Z</time>
      </trkpt>
      <trkpt lat="42.9838" lon="-0.16864">
        <ele>922.1</ele>
        <time>2009-08-22T09:57:59Z</time>
      </trkpt>
      <trkpt lat="42.98371" lon="-0.16835">
        <ele>921</ele>
        <time>2009-08-22T09:58:04Z</time>
      </trkpt>
      <trkpt lat="42.98368" lon="-0.16804">
        <ele>919.8</ele>
        <time>2009-08-22T09:58:08Z</time>
      </trkpt>
      <trkpt lat="42.98372" lon="-0.16771">
        <ele>919.8</ele>
        <time>2009-08-22T09:58:12Z</time>
      </trkpt>
      <trkpt lat="42.98378" lon="-0.16748">
        <ele>920.7</ele>
        <time>2009-08-22T09:58:15Z</time>
      </trkpt>
      <trkpt lat="42.98383" lon="-0.16725">
        <ele>922</ele>
        <time>2009-08-22T09:58:18Z</time>
      </trkpt>
      <trkpt lat="42.98387" lon="-0.16702">
        <ele>923.1</ele>
        <time>2009-08-22T09:58:21Z</time>
      </trkpt>
      <trkpt lat="42.9839" lon="-0.1668">
        <ele>924</ele>
        <time>2009-08-22T09:58:24Z</time>
      </trkpt>
      <trkpt lat="42.98393" lon="-0.16654">
        <ele>924.5</ele>
        <time>2009-08-22T09:58:28Z</time>
      </trkpt>
      <trkpt lat="42.98393" lon="-0.1663">
        <ele>924</ele>
        <time>2009-08-22T09:58:32Z</time>
      </trkpt>
      <trkpt lat="42.98393" lon="-0.16618">
        <ele>923.7</ele>
        <time>2009-08-22T09:58:34Z</time>
      </trkpt>
      <trkpt lat="42.98394" lon="-0.16599">
        <ele>923.5</ele>
        <time>2009-08-22T09:58:37Z</time>
      </trkpt>
      <trkpt lat="42.98399" lon="-0.16568">
        <ele>923.5</ele>
        <time>2009-08-22T09:58:42Z</time>
      </trkpt>
      <trkpt lat="42.98396" lon="-0.16535">
        <ele>921</ele>
        <time>2009-08-22T09:58:46Z</time>
      </trkpt>
      <trkpt lat="42.98385" lon="-0.1652">
        <ele>917.6</ele>
        <time>2009-08-22T09:58:48Z</time>
      </trkpt>
      <trkpt lat="42.98372" lon="-0.16505">
        <ele>913.6</ele>
        <time>2009-08-22T09:58:50Z</time>
      </trkpt>
      <trkpt lat="42.98356" lon="-0.16478">
        <ele>909.1</ele>
        <time>2009-08-22T09:58:53Z</time>
      </trkpt>
      <trkpt lat="42.9835" lon="-0.16427">
        <ele>907</ele>
        <time>2009-08-22T09:58:57Z</time>
      </trkpt>
      <trkpt lat="42.98354" lon="-0.16373">
        <ele>904.3</ele>
        <time>2009-08-22T09:59:01Z</time>
      </trkpt>
      <trkpt lat="42.9836" lon="-0.16333">
        <ele>902.4</ele>
        <time>2009-08-22T09:59:04Z</time>
      </trkpt>
      <trkpt lat="42.98364" lon="-0.16293">
        <ele>899.9</ele>
        <time>2009-08-22T09:59:07Z</time>
      </trkpt>
      <trkpt lat="42.9837" lon="-0.16261">
        <ele>898.1</ele>
        <time>2009-08-22T09:59:10Z</time>
      </trkpt>
      <trkpt lat="42.98371" lon="-0.16252">
        <ele>897.6</ele>
        <time>2009-08-22T09:59:11Z</time>
      </trkpt>
      <trkpt lat="42.98374" lon="-0.16225">
        <ele>895.8</ele>
        <time>2009-08-22T09:59:17Z</time>
      </trkpt>
      <trkpt lat="42.98372" lon="-0.16209">
        <ele>894.1</ele>
        <time>2009-08-22T09:59:20Z</time>
      </trkpt>
      <trkpt lat="42.98378" lon="-0.16192">
        <ele>893.5</ele>
        <time>2009-08-22T09:59:25Z</time>
      </trkpt>
      <trkpt lat="42.98381" lon="-0.1619">
        <ele>893.8</ele>
        <time>2009-08-22T09:59:27Z</time>
      </trkpt>
      <trkpt lat="42.98387" lon="-0.16189">
        <ele>894.5</ele>
        <time>2009-08-22T09:59:31Z</time>
      </trkpt>
      <trkpt lat="42.98393" lon="-0.16181">
        <ele>894.7</ele>
        <time>2009-08-22T09:59:38Z</time>
      </trkpt>
      <trkpt lat="42.98396" lon="-0.16167">
        <ele>894</ele>
        <time>2009-08-22T09:59:43Z</time>
      </trkpt>
      <trkpt lat="42.98401" lon="-0.1615">
        <ele>893.8</ele>
        <time>2009-08-22T09:59:48Z</time>
      </trkpt>
      <trkpt lat="42.98405" lon="-0.16133">
        <ele>893.5</ele>
        <time>2009-08-22T09:59:53Z</time>
      </trkpt>
      <trkpt lat="42.98409" lon="-0.16119">
        <ele>893.4</ele>
        <time>2009-08-22T09:59:58Z</time>
      </trkpt>
      <trkpt lat="42.98411" lon="-0.16111">
        <ele>893.3</ele>
        <time>2009-08-22T10:00:05Z</time>
      </trkpt>
      <trkpt lat="42.98409" lon="-0.16108">
        <ele>892.9</ele>
        <time>2009-08-22T10:00:09Z</time>
      </trkpt>
      <trkpt lat="42.98408" lon="-0.16107">
        <ele>892.6</ele>
        <time>2009-08-22T10:00:11Z</time>
      </trkpt>
      <trkpt lat="42.98411" lon="-0.16108">
        <ele>893.3</ele>
        <time>2009-08-22T10:00:19Z</time>
      </trkpt>
      <trkpt lat="42.98412" lon="-0.16115">
        <ele>893.7</ele>
        <time>2009-08-22T10:00:28Z</time>
      </trkpt>
      <trkpt lat="42.98411" lon="-0.16113">
        <ele>893.4</ele>
        <time>2009-08-22T10:00:34Z</time>
      </trkpt>
      <trkpt lat="42.98406" lon="-0.16101">
        <ele>892</ele>
        <time>2009-08-22T10:00:41Z</time>
      </trkpt>
      <trkpt lat="42.98406" lon="-0.16089">
        <ele>891.3</ele>
        <time>2009-08-22T10:00:48Z</time>
      </trkpt>
      <trkpt lat="42.98402" lon="-0.16079">
        <ele>890</ele>
        <time>2009-08-22T10:00:54Z</time>
      </trkpt>
      <trkpt lat="42.98401" lon="-0.16063">
        <ele>888.4</ele>
        <time>2009-08-22T10:01:00Z</time>
      </trkpt>
      <trkpt lat="42.98403" lon="-0.16057">
        <ele>888</ele>
        <time>2009-08-22T10:01:08Z</time>
      </trkpt>
      <trkpt lat="42.98403" lon="-0.16058">
        <ele>888.1</ele>
        <time>2009-08-22T10:01:21Z</time>
      </trkpt>
      <trkpt lat="42.98399" lon="-0.16067">
        <ele>888.3</ele>
        <time>2009-08-22T10:01:28Z</time>
      </trkpt>
      <trkpt lat="42.98399" lon="-0.16065">
        <ele>888</ele>
        <time>2009-08-22T10:01:45Z</time>
      </trkpt>
      <trkpt lat="42.98406" lon="-0.16058">
        <ele>888.6</ele>
        <time>2009-08-22T10:01:51Z</time>
      </trkpt>
      <trkpt lat="42.98416" lon="-0.1605">
        <ele>889.6</ele>
        <time>2009-08-22T10:01:58Z</time>
      </trkpt>
      <trkpt lat="42.98424" lon="-0.16044">
        <ele>891.2</ele>
        <time>2009-08-22T10:02:03Z</time>
      </trkpt>
      <trkpt lat="42.98432" lon="-0.16036">
        <ele>892.7</ele>
        <time>2009-08-22T10:02:08Z</time>
      </trkpt>
      <trkpt lat="42.98437" lon="-0.16025">
        <ele>893</ele>
        <time>2009-08-22T10:02:13Z</time>
      </trkpt>
      <trkpt lat="42.9844" lon="-0.16011">
        <ele>892.8</ele>
        <time>2009-08-22T10:02:19Z</time>
      </trkpt>
      <trkpt lat="42.98443" lon="-0.15997">
        <ele>892.3</ele>
        <time>2009-08-22T10:02:24Z</time>
      </trkpt>
      <trkpt lat="42.98446" lon="-0.15984">
        <ele>891.5</ele>
        <time>2009-08-22T10:02:27Z</time>
      </trkpt>
      <trkpt lat="42.98455" lon="-0.15966">
        <ele>892.1</ele>
        <time>2009-08-22T10:02:33Z</time>
      </trkpt>
      <trkpt lat="42.98459" lon="-0.15963">
        <ele>892.6</ele>
        <time>2009-08-22T10:02:35Z</time>
      </trkpt>
      <trkpt lat="42.98466" lon="-0.1595">
        <ele>893.2</ele>
        <time>2009-08-22T10:02:41Z</time>
      </trkpt>
      <trkpt lat="42.98469" lon="-0.15943">
        <ele>893</ele>
        <time>2009-08-22T10:02:44Z</time>
      </trkpt>
      <trkpt lat="42.98472" lon="-0.15928">
        <ele>891.9</ele>
        <time>2009-08-22T10:02:50Z</time>
      </trkpt>
      <trkpt lat="42.98474" lon="-0.15929">
        <ele>892.5</ele>
        <time>2009-08-22T10:02:55Z</time>
      </trkpt>
      <trkpt lat="42.9847" lon="-0.15942">
        <ele>893.1</ele>
        <time>2009-08-22T10:03:02Z</time>
      </trkpt>
      <trkpt lat="42.98469" lon="-0.15945">
        <ele>893.2</ele>
        <time>2009-08-22T10:03:04Z</time>
      </trkpt>
      <trkpt lat="42.98466" lon="-0.15951">
        <ele>893.1</ele>
        <time>2009-08-22T10:03:08Z</time>
      </trkpt>
      <trkpt lat="42.98459" lon="-0.15962">
        <ele>892.6</ele>
        <time>2009-08-22T10:03:15Z</time>
      </trkpt>
      <trkpt lat="42.98451" lon="-0.15971">
        <ele>891.6</ele>
        <time>2009-08-22T10:03:21Z</time>
      </trkpt>
      <trkpt lat="42.98449" lon="-0.15977">
        <ele>891.6</ele>
        <time>2009-08-22T10:03:29Z</time>
      </trkpt>
      <trkpt lat="42.98445" lon="-0.15986">
        <ele>891.6</ele>
        <time>2009-08-22T10:04:17Z</time>
      </trkpt>
      <trkpt lat="42.9845" lon="-0.15972">
        <ele>891.4</ele>
        <time>2009-08-22T10:04:23Z</time>
      </trkpt>
      <trkpt lat="42.98453" lon="-0.15969">
        <ele>891.7</ele>
        <time>2009-08-22T10:04:24Z</time>
      </trkpt>
      <trkpt lat="42.98463" lon="-0.15955">
        <ele>892.8</ele>
        <time>2009-08-22T10:04:30Z</time>
      </trkpt>
      <trkpt lat="42.98469" lon="-0.15941">
        <ele>892.8</ele>
        <time>2009-08-22T10:04:35Z</time>
      </trkpt>
      <trkpt lat="42.98476" lon="-0.15923">
        <ele>892.5</ele>
        <time>2009-08-22T10:04:40Z</time>
      </trkpt>
      <trkpt lat="42.98484" lon="-0.1591">
        <ele>893</ele>
        <time>2009-08-22T10:04:45Z</time>
      </trkpt>
      <trkpt lat="42.98492" lon="-0.15899">
        <ele>894.1</ele>
        <time>2009-08-22T10:04:50Z</time>
      </trkpt>
      <trkpt lat="42.985" lon="-0.15884">
        <ele>894.8</ele>
        <time>2009-08-22T10:04:55Z</time>
      </trkpt>
      <trkpt lat="42.98507" lon="-0.15868">
        <ele>895.2</ele>
        <time>2009-08-22T10:05:00Z</time>
      </trkpt>
      <trkpt lat="42.98513" lon="-0.15854">
        <ele>895.5</ele>
        <time>2009-08-22T10:05:05Z</time>
      </trkpt>
      <trkpt lat="42.98518" lon="-0.1584">
        <ele>895.6</ele>
        <time>2009-08-22T10:05:10Z</time>
      </trkpt>
      <trkpt lat="42.98524" lon="-0.15828">
        <ele>896</ele>
        <time>2009-08-22T10:05:15Z</time>
      </trkpt>
      <trkpt lat="42.9853" lon="-0.15819">
        <ele>896.7</ele>
        <time>2009-08-22T10:05:20Z</time>
      </trkpt>
      <trkpt lat="42.98536" lon="-0.15809">
        <ele>897.5</ele>
        <time>2009-08-22T10:05:26Z</time>
      </trkpt>
      <trkpt lat="42.98542" lon="-0.15801">
        <ele>898.5</ele>
        <time>2009-08-22T10:05:32Z</time>
      </trkpt>
      <trkpt lat="42.98549" lon="-0.15791">
        <ele>899.5</ele>
        <time>2009-08-22T10:05:38Z</time>
      </trkpt>
      <trkpt lat="42.98555" lon="-0.1578">
        <ele>900.3</ele>
        <time>2009-08-22T10:05:44Z</time>
      </trkpt>
      <trkpt lat="42.98562" lon="-0.15768">
        <ele>901.2</ele>
        <time>2009-08-22T10:05:50Z</time>
      </trkpt>
      <trkpt lat="42.98567" lon="-0.15756">
        <ele>901.5</ele>
        <time>2009-08-22T10:05:55Z</time>
      </trkpt>
      <trkpt lat="42.98573" lon="-0.15744">
        <ele>901.8</ele>
        <time>2009-08-22T10:06:01Z</time>
      </trkpt>
      <trkpt lat="42.98579" lon="-0.15734">
        <ele>901.9</ele>
        <time>2009-08-22T10:06:07Z</time>
      </trkpt>
      <trkpt lat="42.98586" lon="-0.15723">
        <ele>902.4</ele>
        <time>2009-08-22T10:06:12Z</time>
      </trkpt>
      <trkpt lat="42.98593" lon="-0.15713">
        <ele>903.2</ele>
        <time>2009-08-22T10:06:17Z</time>
      </trkpt>
      <trkpt lat="42.98603" lon="-0.15698">
        <ele>904.3</ele>
        <time>2009-08-22T10:06:22Z</time>
      </trkpt>
      <trkpt lat="42.98612" lon="-0.15684">
        <ele>905.2</ele>
        <time>2009-08-22T10:06:26Z</time>
      </trkpt>
      <trkpt lat="42.98623" lon="-0.1567">
        <ele>906.8</ele>
        <time>2009-08-22T10:06:30Z</time>
      </trkpt>
      <trkpt lat="42.98626" lon="-0.15667">
        <ele>907.6</ele>
        <time>2009-08-22T10:06:31Z</time>
      </trkpt>
      <trkpt lat="42.98646" lon="-0.15654">
        <ele>912.4</ele>
        <time>2009-08-22T10:06:36Z</time>
      </trkpt>
      <trkpt lat="42.98656" lon="-0.15639">
        <ele>913.4</ele>
        <time>2009-08-22T10:06:40Z</time>
      </trkpt>
      <trkpt lat="42.98662" lon="-0.15622">
        <ele>911.9</ele>
        <time>2009-08-22T10:06:44Z</time>
      </trkpt>
      <trkpt lat="42.98667" lon="-0.15603">
        <ele>910.3</ele>
        <time>2009-08-22T10:06:48Z</time>
      </trkpt>
      <trkpt lat="42.98673" lon="-0.15576">
        <ele>909.2</ele>
        <time>2009-08-22T10:06:52Z</time>
      </trkpt>
      <trkpt lat="42.98679" lon="-0.15553">
        <ele>909.3</ele>
        <time>2009-08-22T10:06:55Z</time>
      </trkpt>
      <trkpt lat="42.98683" lon="-0.15533">
        <ele>908.9</ele>
        <time>2009-08-22T10:06:58Z</time>
      </trkpt>
      <trkpt lat="42.98689" lon="-0.15512">
        <ele>908.9</ele>
        <time>2009-08-22T10:07:02Z</time>
      </trkpt>
      <trkpt lat="42.98694" lon="-0.15496">
        <ele>908.9</ele>
        <time>2009-08-22T10:07:06Z</time>
      </trkpt>
      <trkpt lat="42.98698" lon="-0.15485">
        <ele>908.7</ele>
        <time>2009-08-22T10:07:11Z</time>
      </trkpt>
      <trkpt lat="42.98703" lon="-0.15472">
        <ele>908.4</ele>
        <time>2009-08-22T10:07:16Z</time>
      </trkpt>
      <trkpt lat="42.98708" lon="-0.15461">
        <ele>908</ele>
        <time>2009-08-22T10:07:21Z</time>
      </trkpt>
      <trkpt lat="42.98713" lon="-0.15449">
        <ele>907.7</ele>
        <time>2009-08-22T10:07:26Z</time>
      </trkpt>
      <trkpt lat="42.98721" lon="-0.15434">
        <ele>907.5</ele>
        <time>2009-08-22T10:07:32Z</time>
      </trkpt>
      <trkpt lat="42.98726" lon="-0.15421">
        <ele>906.8</ele>
        <time>2009-08-22T10:07:37Z</time>
      </trkpt>
      <trkpt lat="42.98734" lon="-0.15408">
        <ele>907.7</ele>
        <time>2009-08-22T10:07:43Z</time>
      </trkpt>
      <trkpt lat="42.98742" lon="-0.15399">
        <ele>908.9</ele>
        <time>2009-08-22T10:07:48Z</time>
      </trkpt>
      <trkpt lat="42.98749" lon="-0.15388">
        <ele>909.7</ele>
        <time>2009-08-22T10:07:54Z</time>
      </trkpt>
      <trkpt lat="42.98756" lon="-0.15377">
        <ele>910.3</ele>
        <time>2009-08-22T10:08:00Z</time>
      </trkpt>
      <trkpt lat="42.98763" lon="-0.15367">
        <ele>910.5</ele>
        <time>2009-08-22T10:08:06Z</time>
      </trkpt>
      <trkpt lat="42.98772" lon="-0.15355">
        <ele>911.3</ele>
        <time>2009-08-22T10:08:12Z</time>
      </trkpt>
      <trkpt lat="42.98781" lon="-0.15346">
        <ele>911.7</ele>
        <time>2009-08-22T10:08:18Z</time>
      </trkpt>
      <trkpt lat="42.98789" lon="-0.15335">
        <ele>911.7</ele>
        <time>2009-08-22T10:08:25Z</time>
      </trkpt>
      <trkpt lat="42.98797" lon="-0.15326">
        <ele>912.1</ele>
        <time>2009-08-22T10:08:31Z</time>
      </trkpt>
      <trkpt lat="42.98805" lon="-0.15316">
        <ele>912.5</ele>
        <time>2009-08-22T10:08:37Z</time>
      </trkpt>
      <trkpt lat="42.98813" lon="-0.15303">
        <ele>912.1</ele>
        <time>2009-08-22T10:08:43Z</time>
      </trkpt>
      <trkpt lat="42.98817" lon="-0.15292">
        <ele>911.1</ele>
        <time>2009-08-22T10:08:49Z</time>
      </trkpt>
      <trkpt lat="42.98821" lon="-0.15282">
        <ele>910.3</ele>
        <time>2009-08-22T10:08:56Z</time>
      </trkpt>
      <trkpt lat="42.98826" lon="-0.15272">
        <ele>909.5</ele>
        <time>2009-08-22T10:09:02Z</time>
      </trkpt>
      <trkpt lat="42.98832" lon="-0.15261">
        <ele>909.1</ele>
        <time>2009-08-22T10:09:08Z</time>
      </trkpt>
      <trkpt lat="42.98835" lon="-0.15259">
        <ele>909.3</ele>
        <time>2009-08-22T10:09:10Z</time>
      </trkpt>
      <trkpt lat="42.98847" lon="-0.15254">
        <ele>911.3</ele>
        <time>2009-08-22T10:09:17Z</time>
      </trkpt>
      <trkpt lat="42.98856" lon="-0.15247">
        <ele>912.4</ele>
        <time>2009-08-22T10:09:22Z</time>
      </trkpt>
      <trkpt lat="42.98864" lon="-0.15241">
        <ele>913.6</ele>
        <time>2009-08-22T10:09:28Z</time>
      </trkpt>
      <trkpt lat="42.98874" lon="-0.15238">
        <ele>915.6</ele>
        <time>2009-08-22T10:09:34Z</time>
      </trkpt>
      <trkpt lat="42.98884" lon="-0.15235">
        <ele>917.8</ele>
        <time>2009-08-22T10:09:40Z</time>
      </trkpt>
      <trkpt lat="42.98894" lon="-0.15231">
        <ele>919.6</ele>
        <time>2009-08-22T10:09:46Z</time>
      </trkpt>
      <trkpt lat="42.98902" lon="-0.15226">
        <ele>921.3</ele>
        <time>2009-08-22T10:09:52Z</time>
      </trkpt>
      <trkpt lat="42.98912" lon="-0.15223">
        <ele>923.2</ele>
        <time>2009-08-22T10:09:58Z</time>
      </trkpt>
      <trkpt lat="42.9892" lon="-0.1522">
        <ele>924.9</ele>
        <time>2009-08-22T10:10:04Z</time>
      </trkpt>
      <trkpt lat="42.98928" lon="-0.15215">
        <ele>926.2</ele>
        <time>2009-08-22T10:10:10Z</time>
      </trkpt>
      <trkpt lat="42.98936" lon="-0.15206">
        <ele>927.2</ele>
        <time>2009-08-22T10:10:16Z</time>
      </trkpt>
      <trkpt lat="42.98941" lon="-0.15197">
        <ele>927.4</ele>
        <time>2009-08-22T10:10:22Z</time>
      </trkpt>
      <trkpt lat="42.98947" lon="-0.15185">
        <ele>927.3</ele>
        <time>2009-08-22T10:10:28Z</time>
      </trkpt>
      <trkpt lat="42.98952" lon="-0.15173">
        <ele>927.1</ele>
        <time>2009-08-22T10:10:34Z</time>
      </trkpt>
      <trkpt lat="42.98957" lon="-0.1516">
        <ele>926.6</ele>
        <time>2009-08-22T10:10:40Z</time>
      </trkpt>
      <trkpt lat="42.98961" lon="-0.15146">
        <ele>925.4</ele>
        <time>2009-08-22T10:10:46Z</time>
      </trkpt>
      <trkpt lat="42.98964" lon="-0.15133">
        <ele>923.9</ele>
        <time>2009-08-22T10:10:52Z</time>
      </trkpt>
      <trkpt lat="42.98968" lon="-0.15118">
        <ele>922.6</ele>
        <time>2009-08-22T10:10:58Z</time>
      </trkpt>
      <trkpt lat="42.98975" lon="-0.15106">
        <ele>922.5</ele>
        <time>2009-08-22T10:11:03Z</time>
      </trkpt>
      <trkpt lat="42.98985" lon="-0.15095">
        <ele>923.1</ele>
        <time>2009-08-22T10:11:08Z</time>
      </trkpt>
      <trkpt lat="42.98988" lon="-0.1509">
        <ele>923</ele>
        <time>2009-08-22T10:11:10Z</time>
      </trkpt>
      <trkpt lat="42.98993" lon="-0.15089">
        <ele>924.1</ele>
        <time>2009-08-22T10:11:15Z</time>
      </trkpt>
      <trkpt lat="42.98991" lon="-0.15091">
        <ele>924.1</ele>
        <time>2009-08-22T10:11:17Z</time>
      </trkpt>
      <trkpt lat="42.98983" lon="-0.15094">
        <ele>922.6</ele>
        <time>2009-08-22T10:11:25Z</time>
      </trkpt>
      <trkpt lat="42.98976" lon="-0.15103">
        <ele>922.2</ele>
        <time>2009-08-22T10:11:33Z</time>
      </trkpt>
      <trkpt lat="42.9897" lon="-0.15112">
        <ele>922.1</ele>
        <time>2009-08-22T10:11:40Z</time>
      </trkpt>
      <trkpt lat="42.98966" lon="-0.15121">
        <ele>922.5</ele>
        <time>2009-08-22T10:11:47Z</time>
      </trkpt>
      <trkpt lat="42.98963" lon="-0.15132">
        <ele>923.5</ele>
        <time>2009-08-22T10:11:55Z</time>
      </trkpt>
      <trkpt lat="42.98962" lon="-0.15128">
        <ele>922.6</ele>
        <time>2009-08-22T10:12:04Z</time>
      </trkpt>
      <trkpt lat="42.98966" lon="-0.15116">
        <ele>921.9</ele>
        <time>2009-08-22T10:12:11Z</time>
      </trkpt>
      <trkpt lat="42.98973" lon="-0.15105">
        <ele>921.6</ele>
        <time>2009-08-22T10:12:17Z</time>
      </trkpt>
      <trkpt lat="42.9898" lon="-0.15096">
        <ele>922.1</ele>
        <time>2009-08-22T10:12:22Z</time>
      </trkpt>
      <trkpt lat="42.9899" lon="-0.15088">
        <ele>923.3</ele>
        <time>2009-08-22T10:12:27Z</time>
      </trkpt>
      <trkpt lat="42.99005" lon="-0.15084">
        <ele>925.6</ele>
        <time>2009-08-22T10:12:32Z</time>
      </trkpt>
      <trkpt lat="42.99017" lon="-0.1508">
        <ele>925.8</ele>
        <time>2009-08-22T10:12:36Z</time>
      </trkpt>
      <trkpt lat="42.9903" lon="-0.15071">
        <ele>925.1</ele>
        <time>2009-08-22T10:12:40Z</time>
      </trkpt>
      <trkpt lat="42.99043" lon="-0.1506">
        <ele>924.2</ele>
        <time>2009-08-22T10:12:44Z</time>
      </trkpt>
      <trkpt lat="42.99055" lon="-0.1505">
        <ele>923.4</ele>
        <time>2009-08-22T10:12:48Z</time>
      </trkpt>
      <trkpt lat="42.99066" lon="-0.15041">
        <ele>922.8</ele>
        <time>2009-08-22T10:12:52Z</time>
      </trkpt>
      <trkpt lat="42.99077" lon="-0.15033">
        <ele>922.4</ele>
        <time>2009-08-22T10:12:56Z</time>
      </trkpt>
      <trkpt lat="42.99091" lon="-0.15023">
        <ele>922.5</ele>
        <time>2009-08-22T10:13:00Z</time>
      </trkpt>
      <trkpt lat="42.99109" lon="-0.15011">
        <ele>924.1</ele>
        <time>2009-08-22T10:13:04Z</time>
      </trkpt>
      <trkpt lat="42.99123" lon="-0.14988">
        <ele>925.1</ele>
        <time>2009-08-22T10:13:08Z</time>
      </trkpt>
      <trkpt lat="42.99125" lon="-0.1498">
        <ele>925.3</ele>
        <time>2009-08-22T10:13:09Z</time>
      </trkpt>
      <trkpt lat="42.99129" lon="-0.14951">
        <ele>926</ele>
        <time>2009-08-22T10:13:14Z</time>
      </trkpt>
      <trkpt lat="42.99132" lon="-0.14934">
        <ele>926.4</ele>
        <time>2009-08-22T10:13:19Z</time>
      </trkpt>
      <trkpt lat="42.99135" lon="-0.14921">
        <ele>926.8</ele>
        <time>2009-08-22T10:13:24Z</time>
      </trkpt>
      <trkpt lat="42.99139" lon="-0.14909">
        <ele>927</ele>
        <time>2009-08-22T10:13:29Z</time>
      </trkpt>
      <trkpt lat="42.99143" lon="-0.14898">
        <ele>927.2</ele>
        <time>2009-08-22T10:13:34Z</time>
      </trkpt>
      <trkpt lat="42.99148" lon="-0.14886">
        <ele>927.4</ele>
        <time>2009-08-22T10:13:39Z</time>
      </trkpt>
      <trkpt lat="42.99155" lon="-0.14874">
        <ele>927.5</ele>
        <time>2009-08-22T10:13:44Z</time>
      </trkpt>
      <trkpt lat="42.99163" lon="-0.14865">
        <ele>927.9</ele>
        <time>2009-08-22T10:13:49Z</time>
      </trkpt>
      <trkpt lat="42.99175" lon="-0.14864">
        <ele>929</ele>
        <time>2009-08-22T10:13:54Z</time>
      </trkpt>
      <trkpt lat="42.99191" lon="-0.14867">
        <ele>930.6</ele>
        <time>2009-08-22T10:14:00Z</time>
      </trkpt>
      <trkpt lat="42.99204" lon="-0.14864">
        <ele>931.5</ele>
        <time>2009-08-22T10:14:04Z</time>
      </trkpt>
      <trkpt lat="42.99211" lon="-0.14858">
        <ele>931.6</ele>
        <time>2009-08-22T10:14:10Z</time>
      </trkpt>
      <trkpt lat="42.99215" lon="-0.14854">
        <ele>931.4</ele>
        <time>2009-08-22T10:14:22Z</time>
      </trkpt>
      <trkpt lat="42.99216" lon="-0.14854">
        <ele>931.4</ele>
        <time>2009-08-22T10:14:23Z</time>
      </trkpt>
      <trkpt lat="42.99215" lon="-0.14858">
        <ele>931.8</ele>
        <time>2009-08-22T10:14:47Z</time>
      </trkpt>
      <trkpt lat="42.99217" lon="-0.14856">
        <ele>931.9</ele>
        <time>2009-08-22T10:15:04Z</time>
      </trkpt>
      <trkpt lat="42.99229" lon="-0.14849">
        <ele>931.9</ele>
        <time>2009-08-22T10:15:10Z</time>
      </trkpt>
      <trkpt lat="42.9924" lon="-0.14841">
        <ele>931.5</ele>
        <time>2009-08-22T10:15:14Z</time>
      </trkpt>
      <trkpt lat="42.99252" lon="-0.14832">
        <ele>931.8</ele>
        <time>2009-08-22T10:15:18Z</time>
      </trkpt>
      <trkpt lat="42.99263" lon="-0.14823">
        <ele>935.3</ele>
        <time>2009-08-22T10:15:23Z</time>
      </trkpt>
      <trkpt lat="42.99272" lon="-0.14814">
        <ele>938.1</ele>
        <time>2009-08-22T10:15:28Z</time>
      </trkpt>
      <trkpt lat="42.99277" lon="-0.14809">
        <ele>939.5</ele>
        <time>2009-08-22T10:15:31Z</time>
      </trkpt>
      <trkpt lat="42.9928" lon="-0.14802">
        <ele>939.9</ele>
        <time>2009-08-22T10:15:35Z</time>
      </trkpt>
      <trkpt lat="42.99281" lon="-0.14789">
        <ele>939.2</ele>
        <time>2009-08-22T10:15:40Z</time>
      </trkpt>
      <trkpt lat="42.99282" lon="-0.14772">
        <ele>937.5</ele>
        <time>2009-08-22T10:15:43Z</time>
      </trkpt>
      <trkpt lat="42.99273" lon="-0.14742">
        <ele>931.3</ele>
        <time>2009-08-22T10:15:48Z</time>
      </trkpt>
      <trkpt lat="42.99263" lon="-0.14726">
        <ele>926.7</ele>
        <time>2009-08-22T10:15:51Z</time>
      </trkpt>
      <trkpt lat="42.99257" lon="-0.147">
        <ele>924.3</ele>
        <time>2009-08-22T10:15:56Z</time>
      </trkpt>
      <trkpt lat="42.99259" lon="-0.1469">
        <ele>925.1</ele>
        <time>2009-08-22T10:15:58Z</time>
      </trkpt>
      <trkpt lat="42.99267" lon="-0.14676">
        <ele>928.6</ele>
        <time>2009-08-22T10:16:01Z</time>
      </trkpt>
      <trkpt lat="42.99272" lon="-0.14653">
        <ele>930.8</ele>
        <time>2009-08-22T10:16:06Z</time>
      </trkpt>
      <trkpt lat="42.99274" lon="-0.14637">
        <ele>931.8</ele>
        <time>2009-08-22T10:16:10Z</time>
      </trkpt>
      <trkpt lat="42.99274" lon="-0.14634">
        <ele>932</ele>
        <time>2009-08-22T10:16:11Z</time>
      </trkpt>
      <trkpt lat="42.9928" lon="-0.14617">
        <ele>934.5</ele>
        <time>2009-08-22T10:16:18Z</time>
      </trkpt>
      <trkpt lat="42.99276" lon="-0.14601">
        <ele>932.8</ele>
        <time>2009-08-22T10:16:24Z</time>
      </trkpt>
      <trkpt lat="42.99275" lon="-0.14587">
        <ele>932.2</ele>
        <time>2009-08-22T10:16:29Z</time>
      </trkpt>
      <trkpt lat="42.99272" lon="-0.14573">
        <ele>930.2</ele>
        <time>2009-08-22T10:16:34Z</time>
      </trkpt>
      <trkpt lat="42.99268" lon="-0.14567">
        <ele>927.8</ele>
        <time>2009-08-22T10:16:37Z</time>
      </trkpt>
      <trkpt lat="42.99266" lon="-0.14554">
        <ele>925.8</ele>
        <time>2009-08-22T10:16:44Z</time>
      </trkpt>
      <trkpt lat="42.99263" lon="-0.14544">
        <ele>923.6</ele>
        <time>2009-08-22T10:16:52Z</time>
      </trkpt>
      <trkpt lat="42.9926" lon="-0.14533">
        <ele>921.6</ele>
        <time>2009-08-22T10:16:59Z</time>
      </trkpt>
      <trkpt lat="42.99255" lon="-0.14525">
        <ele>918.6</ele>
        <time>2009-08-22T10:17:07Z</time>
      </trkpt>
      <trkpt lat="42.99255" lon="-0.14508">
        <ele>917.2</ele>
        <time>2009-08-22T10:17:11Z</time>
      </trkpt>
      <trkpt lat="42.99258" lon="-0.14482">
        <ele>914.1</ele>
        <time>2009-08-22T10:17:15Z</time>
      </trkpt>
      <trkpt lat="42.99263" lon="-0.1445">
        <ele>910.2</ele>
        <time>2009-08-22T10:17:20Z</time>
      </trkpt>
      <trkpt lat="42.99264" lon="-0.14444">
        <ele>909.3</ele>
        <time>2009-08-22T10:17:21Z</time>
      </trkpt>
      <trkpt lat="42.99269" lon="-0.14408">
        <ele>904.7</ele>
        <time>2009-08-22T10:17:25Z</time>
      </trkpt>
      <trkpt lat="42.99271" lon="-0.14392">
        <ele>903.7</ele>
        <time>2009-08-22T10:17:27Z</time>
      </trkpt>
      <trkpt lat="42.99273" lon="-0.14368">
        <ele>901.2</ele>
        <time>2009-08-22T10:17:32Z</time>
      </trkpt>
      <trkpt lat="42.99273" lon="-0.14351">
        <ele>898.4</ele>
        <time>2009-08-22T10:17:36Z</time>
      </trkpt>
      <trkpt lat="42.9927" lon="-0.14338">
        <ele>894.9</ele>
        <time>2009-08-22T10:17:41Z</time>
      </trkpt>
      <trkpt lat="42.99265" lon="-0.14326">
        <ele>890.2</ele>
        <time>2009-08-22T10:17:47Z</time>
      </trkpt>
      <trkpt lat="42.99263" lon="-0.14321">
        <ele>888.6</ele>
        <time>2009-08-22T10:17:49Z</time>
      </trkpt>
      <trkpt lat="42.99263" lon="-0.14299">
        <ele>884.9</ele>
        <time>2009-08-22T10:17:55Z</time>
      </trkpt>
      <trkpt lat="42.99263" lon="-0.14288">
        <ele>883</ele>
        <time>2009-08-22T10:17:57Z</time>
      </trkpt>
      <trkpt lat="42.99263" lon="-0.14272">
        <ele>880.3</ele>
        <time>2009-08-22T10:18:00Z</time>
      </trkpt>
      <trkpt lat="42.9927" lon="-0.14242">
        <ele>878.2</ele>
        <time>2009-08-22T10:18:04Z</time>
      </trkpt>
      <trkpt lat="42.99285" lon="-0.14209">
        <ele>877.9</ele>
        <time>2009-08-22T10:18:10Z</time>
      </trkpt>
      <trkpt lat="42.99291" lon="-0.14194">
        <ele>876.9</ele>
        <time>2009-08-22T10:18:15Z</time>
      </trkpt>
      <trkpt lat="42.99299" lon="-0.14183">
        <ele>877.7</ele>
        <time>2009-08-22T10:18:20Z</time>
      </trkpt>
      <trkpt lat="42.99307" lon="-0.1417">
        <ele>877.7</ele>
        <time>2009-08-22T10:18:25Z</time>
      </trkpt>
      <trkpt lat="42.99313" lon="-0.14155">
        <ele>875.8</ele>
        <time>2009-08-22T10:18:29Z</time>
      </trkpt>
      <trkpt lat="42.99314" lon="-0.14138">
        <ele>872.1</ele>
        <time>2009-08-22T10:18:34Z</time>
      </trkpt>
      <trkpt lat="42.99317" lon="-0.14131">
        <ele>871</ele>
        <time>2009-08-22T10:18:36Z</time>
      </trkpt>
      <trkpt lat="42.99329" lon="-0.14111">
        <ele>869</ele>
        <time>2009-08-22T10:18:40Z</time>
      </trkpt>
      <trkpt lat="42.99337" lon="-0.14082">
        <ele>863.8</ele>
        <time>2009-08-22T10:18:45Z</time>
      </trkpt>
      <trkpt lat="42.9934" lon="-0.14062">
        <ele>862.2</ele>
        <time>2009-08-22T10:18:49Z</time>
      </trkpt>
      <trkpt lat="42.99341" lon="-0.14058">
        <ele>862.3</ele>
        <time>2009-08-22T10:18:50Z</time>
      </trkpt>
      <trkpt lat="42.99346" lon="-0.14036">
        <ele>860.8</ele>
        <time>2009-08-22T10:18:55Z</time>
      </trkpt>
      <trkpt lat="42.99351" lon="-0.14021">
        <ele>861.1</ele>
        <time>2009-08-22T10:18:59Z</time>
      </trkpt>
      <trkpt lat="42.99353" lon="-0.14002">
        <ele>857.8</ele>
        <time>2009-08-22T10:19:03Z</time>
      </trkpt>
      <trkpt lat="42.9936" lon="-0.13985">
        <ele>859.7</ele>
        <time>2009-08-22T10:19:07Z</time>
      </trkpt>
      <trkpt lat="42.99366" lon="-0.13975">
        <ele>861.2</ele>
        <time>2009-08-22T10:19:10Z</time>
      </trkpt>
      <trkpt lat="42.99359" lon="-0.1397">
        <ele>857.4</ele>
        <time>2009-08-22T10:19:14Z</time>
      </trkpt>
      <trkpt lat="42.99342" lon="-0.13977">
        <ele>850.1</ele>
        <time>2009-08-22T10:19:19Z</time>
      </trkpt>
      <trkpt lat="42.99331" lon="-0.13982">
        <ele>845.5</ele>
        <time>2009-08-22T10:19:26Z</time>
      </trkpt>
      <trkpt lat="42.99326" lon="-0.13983">
        <ele>844.6</ele>
        <time>2009-08-22T10:19:31Z</time>
      </trkpt>
      <trkpt lat="42.99324" lon="-0.13981">
        <ele>844.2</ele>
        <time>2009-08-22T10:19:33Z</time>
      </trkpt>
      <trkpt lat="42.99325" lon="-0.13971">
        <ele>843.7</ele>
        <time>2009-08-22T10:19:40Z</time>
      </trkpt>
      <trkpt lat="42.99326" lon="-0.13972">
        <ele>844</ele>
        <time>2009-08-22T10:19:56Z</time>
      </trkpt>
      <trkpt lat="42.99333" lon="-0.13973">
        <ele>845.3</ele>
        <time>2009-08-22T10:20:02Z</time>
      </trkpt>
      <trkpt lat="42.99337" lon="-0.13969">
        <ele>846.9</ele>
        <time>2009-08-22T10:20:06Z</time>
      </trkpt>
      <trkpt lat="42.99345" lon="-0.13965">
        <ele>850.5</ele>
        <time>2009-08-22T10:20:12Z</time>
      </trkpt>
      <trkpt lat="42.99356" lon="-0.13955">
        <ele>854.3</ele>
        <time>2009-08-22T10:20:19Z</time>
      </trkpt>
      <trkpt lat="42.99364" lon="-0.13943">
        <ele>856.5</ele>
        <time>2009-08-22T10:20:25Z</time>
      </trkpt>
      <trkpt lat="42.99367" lon="-0.13929">
        <ele>856</ele>
        <time>2009-08-22T10:20:30Z</time>
      </trkpt>
      <trkpt lat="42.99368" lon="-0.13915">
        <ele>854.8</ele>
        <time>2009-08-22T10:20:35Z</time>
      </trkpt>
      <trkpt lat="42.99369" lon="-0.13899">
        <ele>854.8</ele>
        <time>2009-08-22T10:20:41Z</time>
      </trkpt>
      <trkpt lat="42.99372" lon="-0.13885">
        <ele>855.1</ele>
        <time>2009-08-22T10:20:47Z</time>
      </trkpt>
      <trkpt lat="42.99375" lon="-0.13871">
        <ele>855.6</ele>
        <time>2009-08-22T10:20:53Z</time>
      </trkpt>
      <trkpt lat="42.99377" lon="-0.13864">
        <ele>855.9</ele>
        <time>2009-08-22T10:21:01Z</time>
      </trkpt>
      <trkpt lat="42.99377" lon="-0.13862">
        <ele>855.7</ele>
        <time>2009-08-22T10:21:07Z</time>
      </trkpt>
      <trkpt lat="42.99382" lon="-0.1385">
        <ele>856.8</ele>
        <time>2009-08-22T10:21:14Z</time>
      </trkpt>
      <trkpt lat="42.99383" lon="-0.13847">
        <ele>857</ele>
        <time>2009-08-22T10:21:16Z</time>
      </trkpt>
      <trkpt lat="42.99392" lon="-0.13838">
        <ele>859.1</ele>
        <time>2009-08-22T10:21:23Z</time>
      </trkpt>
      <trkpt lat="42.99403" lon="-0.13829">
        <ele>862.3</ele>
        <time>2009-08-22T10:21:29Z</time>
      </trkpt>
      <trkpt lat="42.99413" lon="-0.13823">
        <ele>865.4</ele>
        <time>2009-08-22T10:21:34Z</time>
      </trkpt>
      <trkpt lat="42.9942" lon="-0.13817">
        <ele>868.1</ele>
        <time>2009-08-22T10:21:38Z</time>
      </trkpt>
      <trkpt lat="42.99422" lon="-0.13803">
        <ele>869.8</ele>
        <time>2009-08-22T10:21:44Z</time>
      </trkpt>
      <trkpt lat="42.99418" lon="-0.13791">
        <ele>868.7</ele>
        <time>2009-08-22T10:21:49Z</time>
      </trkpt>
      <trkpt lat="42.99414" lon="-0.13776">
        <ele>868</ele>
        <time>2009-08-22T10:21:55Z</time>
      </trkpt>
      <trkpt lat="42.99412" lon="-0.13761">
        <ele>868</ele>
        <time>2009-08-22T10:22:01Z</time>
      </trkpt>
      <trkpt lat="42.99411" lon="-0.13747">
        <ele>868</ele>
        <time>2009-08-22T10:22:07Z</time>
      </trkpt>
      <trkpt lat="42.9941" lon="-0.13732">
        <ele>867.7</ele>
        <time>2009-08-22T10:22:13Z</time>
      </trkpt>
      <trkpt lat="42.99408" lon="-0.13719">
        <ele>867.3</ele>
        <time>2009-08-22T10:22:19Z</time>
      </trkpt>
      <trkpt lat="42.99406" lon="-0.13705">
        <ele>866.6</ele>
        <time>2009-08-22T10:22:25Z</time>
      </trkpt>
      <trkpt lat="42.99406" lon="-0.13691">
        <ele>866.5</ele>
        <time>2009-08-22T10:22:31Z</time>
      </trkpt>
      <trkpt lat="42.99406" lon="-0.13677">
        <ele>866.7</ele>
        <time>2009-08-22T10:22:37Z</time>
      </trkpt>
      <trkpt lat="42.99407" lon="-0.13662">
        <ele>867</ele>
        <time>2009-08-22T10:22:43Z</time>
      </trkpt>
      <trkpt lat="42.99407" lon="-0.13648">
        <ele>867</ele>
        <time>2009-08-22T10:22:49Z</time>
      </trkpt>
      <trkpt lat="42.99409" lon="-0.13635">
        <ele>867.6</ele>
        <time>2009-08-22T10:22:55Z</time>
      </trkpt>
      <trkpt lat="42.99412" lon="-0.13622">
        <ele>868.6</ele>
        <time>2009-08-22T10:23:01Z</time>
      </trkpt>
      <trkpt lat="42.99416" lon="-0.13609">
        <ele>870</ele>
        <time>2009-08-22T10:23:07Z</time>
      </trkpt>
      <trkpt lat="42.9942" lon="-0.13596">
        <ele>871.3</ele>
        <time>2009-08-22T10:23:13Z</time>
      </trkpt>
      <trkpt lat="42.99424" lon="-0.13584">
        <ele>872.7</ele>
        <time>2009-08-22T10:23:19Z</time>
      </trkpt>
      <trkpt lat="42.99429" lon="-0.13573">
        <ele>872.8</ele>
        <time>2009-08-22T10:23:25Z</time>
      </trkpt>
      <trkpt lat="42.99435" lon="-0.13563">
        <ele>873.4</ele>
        <time>2009-08-22T10:23:31Z</time>
      </trkpt>
      <trkpt lat="42.99443" lon="-0.13554">
        <ele>874.9</ele>
        <time>2009-08-22T10:23:37Z</time>
      </trkpt>
      <trkpt lat="42.99452" lon="-0.13547">
        <ele>877.1</ele>
        <time>2009-08-22T10:23:43Z</time>
      </trkpt>
      <trkpt lat="42.99462" lon="-0.13541">
        <ele>879.6</ele>
        <time>2009-08-22T10:23:49Z</time>
      </trkpt>
      <trkpt lat="42.9947" lon="-0.13534">
        <ele>881.9</ele>
        <time>2009-08-22T10:23:54Z</time>
      </trkpt>
      <trkpt lat="42.99478" lon="-0.13527">
        <ele>883.6</ele>
        <time>2009-08-22T10:23:59Z</time>
      </trkpt>
      <trkpt lat="42.99484" lon="-0.13516">
        <ele>884.4</ele>
        <time>2009-08-22T10:24:05Z</time>
      </trkpt>
      <trkpt lat="42.99492" lon="-0.13507">
        <ele>885.7</ele>
        <time>2009-08-22T10:24:11Z</time>
      </trkpt>
      <trkpt lat="42.99499" lon="-0.13496">
        <ele>886.4</ele>
        <time>2009-08-22T10:24:17Z</time>
      </trkpt>
      <trkpt lat="42.99506" lon="-0.13484">
        <ele>886.2</ele>
        <time>2009-08-22T10:24:23Z</time>
      </trkpt>
      <trkpt lat="42.99513" lon="-0.13474">
        <ele>886.6</ele>
        <time>2009-08-22T10:24:29Z</time>
      </trkpt>
      <trkpt lat="42.99521" lon="-0.13464">
        <ele>887.3</ele>
        <time>2009-08-22T10:24:35Z</time>
      </trkpt>
      <trkpt lat="42.99528" lon="-0.13453">
        <ele>888</ele>
        <time>2009-08-22T10:24:41Z</time>
      </trkpt>
      <trkpt lat="42.99536" lon="-0.13443">
        <ele>889</ele>
        <time>2009-08-22T10:24:47Z</time>
      </trkpt>
      <trkpt lat="42.99542" lon="-0.13431">
        <ele>888.9</ele>
        <time>2009-08-22T10:24:53Z</time>
      </trkpt>
      <trkpt lat="42.99545" lon="-0.13417">
        <ele>887.3</ele>
        <time>2009-08-22T10:24:59Z</time>
      </trkpt>
      <trkpt lat="42.99548" lon="-0.13405">
        <ele>884.8</ele>
        <time>2009-08-22T10:25:04Z</time>
      </trkpt>
      <trkpt lat="42.99551" lon="-0.13391">
        <ele>882.2</ele>
        <time>2009-08-22T10:25:10Z</time>
      </trkpt>
      <trkpt lat="42.99555" lon="-0.13378">
        <ele>880.2</ele>
        <time>2009-08-22T10:25:15Z</time>
      </trkpt>
      <trkpt lat="42.9956" lon="-0.13368">
        <ele>879.3</ele>
        <time>2009-08-22T10:25:20Z</time>
      </trkpt>
      <trkpt lat="42.99568" lon="-0.13359">
        <ele>880.9</ele>
        <time>2009-08-22T10:25:26Z</time>
      </trkpt>
      <trkpt lat="42.99579" lon="-0.1336">
        <ele>886.2</ele>
        <time>2009-08-22T10:25:32Z</time>
      </trkpt>
      <trkpt lat="42.99589" lon="-0.13364">
        <ele>890.8</ele>
        <time>2009-08-22T10:25:38Z</time>
      </trkpt>
      <trkpt lat="42.996" lon="-0.13369">
        <ele>894.1</ele>
        <time>2009-08-22T10:25:44Z</time>
      </trkpt>
      <trkpt lat="42.99611" lon="-0.13372">
        <ele>897.1</ele>
        <time>2009-08-22T10:25:50Z</time>
      </trkpt>
      <trkpt lat="42.99622" lon="-0.13376">
        <ele>900.1</ele>
        <time>2009-08-22T10:25:55Z</time>
      </trkpt>
      <trkpt lat="42.99632" lon="-0.13378">
        <ele>902.5</ele>
        <time>2009-08-22T10:26:00Z</time>
      </trkpt>
      <trkpt lat="42.99642" lon="-0.13378">
        <ele>904.4</ele>
        <time>2009-08-22T10:26:05Z</time>
      </trkpt>
      <trkpt lat="42.99652" lon="-0.13379">
        <ele>906.7</ele>
        <time>2009-08-22T10:26:10Z</time>
      </trkpt>
      <trkpt lat="42.99663" lon="-0.1338">
        <ele>908.9</ele>
        <time>2009-08-22T10:26:15Z</time>
      </trkpt>
      <trkpt lat="42.99674" lon="-0.13382">
        <ele>910.3</ele>
        <time>2009-08-22T10:26:20Z</time>
      </trkpt>
      <trkpt lat="42.99684" lon="-0.13385">
        <ele>911.5</ele>
        <time>2009-08-22T10:26:25Z</time>
      </trkpt>
      <trkpt lat="42.99694" lon="-0.13388">
        <ele>912.7</ele>
        <time>2009-08-22T10:26:30Z</time>
      </trkpt>
      <trkpt lat="42.99704" lon="-0.1339">
        <ele>913.6</ele>
        <time>2009-08-22T10:26:35Z</time>
      </trkpt>
      <trkpt lat="42.99716" lon="-0.13393">
        <ele>914.6</ele>
        <time>2009-08-22T10:26:40Z</time>
      </trkpt>
      <trkpt lat="42.99727" lon="-0.13394">
        <ele>915.2</ele>
        <time>2009-08-22T10:26:45Z</time>
      </trkpt>
      <trkpt lat="42.99738" lon="-0.13395">
        <ele>915.8</ele>
        <time>2009-08-22T10:26:50Z</time>
      </trkpt>
      <trkpt lat="42.9975" lon="-0.13396">
        <ele>916.4</ele>
        <time>2009-08-22T10:26:55Z</time>
      </trkpt>
      <trkpt lat="42.99763" lon="-0.13396">
        <ele>917.8</ele>
        <time>2009-08-22T10:27:00Z</time>
      </trkpt>
      <trkpt lat="42.99775" lon="-0.13395">
        <ele>919</ele>
        <time>2009-08-22T10:27:05Z</time>
      </trkpt>
      <trkpt lat="42.99786" lon="-0.13396">
        <ele>920.3</ele>
        <time>2009-08-22T10:27:10Z</time>
      </trkpt>
      <trkpt lat="42.99799" lon="-0.13394">
        <ele>921.4</ele>
        <time>2009-08-22T10:27:16Z</time>
      </trkpt>
      <trkpt lat="42.9981" lon="-0.13392">
        <ele>922.3</ele>
        <time>2009-08-22T10:27:21Z</time>
      </trkpt>
      <trkpt lat="42.99822" lon="-0.13391">
        <ele>923.4</ele>
        <time>2009-08-22T10:27:26Z</time>
      </trkpt>
      <trkpt lat="42.99834" lon="-0.13384">
        <ele>923.5</ele>
        <time>2009-08-22T10:27:31Z</time>
      </trkpt>
      <trkpt lat="42.99846" lon="-0.13376">
        <ele>925.1</ele>
        <time>2009-08-22T10:27:36Z</time>
      </trkpt>
      <trkpt lat="42.99855" lon="-0.13365">
        <ele>925.6</ele>
        <time>2009-08-22T10:27:41Z</time>
      </trkpt>
      <trkpt lat="42.99865" lon="-0.13353">
        <ele>926.3</ele>
        <time>2009-08-22T10:27:46Z</time>
      </trkpt>
      <trkpt lat="42.99875" lon="-0.13344">
        <ele>927.6</ele>
        <time>2009-08-22T10:27:51Z</time>
      </trkpt>
      <trkpt lat="42.99885" lon="-0.13335">
        <ele>929.3</ele>
        <time>2009-08-22T10:27:56Z</time>
      </trkpt>
      <trkpt lat="42.99895" lon="-0.13327">
        <ele>930.7</ele>
        <time>2009-08-22T10:28:01Z</time>
      </trkpt>
      <trkpt lat="42.99904" lon="-0.13318">
        <ele>931.9</ele>
        <time>2009-08-22T10:28:06Z</time>
      </trkpt>
      <trkpt lat="42.99915" lon="-0.13308">
        <ele>933</ele>
        <time>2009-08-22T10:28:11Z</time>
      </trkpt>
      <trkpt lat="42.99926" lon="-0.13301">
        <ele>933.9</ele>
        <time>2009-08-22T10:28:16Z</time>
      </trkpt>
      <trkpt lat="42.99938" lon="-0.13294">
        <ele>934.5</ele>
        <time>2009-08-22T10:28:21Z</time>
      </trkpt>
      <trkpt lat="42.9995" lon="-0.13289">
        <ele>935.4</ele>
        <time>2009-08-22T10:28:26Z</time>
      </trkpt>
      <trkpt lat="42.9996" lon="-0.1328">
        <ele>935.2</ele>
        <time>2009-08-22T10:28:31Z</time>
      </trkpt>
      <trkpt lat="42.99967" lon="-0.13268">
        <ele>933.5</ele>
        <time>2009-08-22T10:28:36Z</time>
      </trkpt>
      <trkpt lat="42.99973" lon="-0.13253">
        <ele>931.2</ele>
        <time>2009-08-22T10:28:41Z</time>
      </trkpt>
      <trkpt lat="42.99977" lon="-0.13238">
        <ele>929.7</ele>
        <time>2009-08-22T10:28:46Z</time>
      </trkpt>
      <trkpt lat="42.99985" lon="-0.13224">
        <ele>929.2</ele>
        <time>2009-08-22T10:28:51Z</time>
      </trkpt>
      <trkpt lat="42.99998" lon="-0.1322">
        <ele>930.8</ele>
        <time>2009-08-22T10:28:55Z</time>
      </trkpt>
      <trkpt lat="43.0001" lon="-0.13223">
        <ele>931.8</ele>
        <time>2009-08-22T10:28:59Z</time>
      </trkpt>
      <trkpt lat="43.00024" lon="-0.13224">
        <ele>932.5</ele>
        <time>2009-08-22T10:29:03Z</time>
      </trkpt>
      <trkpt lat="43.00038" lon="-0.13226">
        <ele>933.4</ele>
        <time>2009-08-22T10:29:07Z</time>
      </trkpt>
      <trkpt lat="43.00053" lon="-0.13228">
        <ele>934.2</ele>
        <time>2009-08-22T10:29:11Z</time>
      </trkpt>
      <trkpt lat="43.00068" lon="-0.13228">
        <ele>935</ele>
        <time>2009-08-22T10:29:15Z</time>
      </trkpt>
      <trkpt lat="43.00083" lon="-0.13228">
        <ele>935.6</ele>
        <time>2009-08-22T10:29:19Z</time>
      </trkpt>
      <trkpt lat="43.00097" lon="-0.13229">
        <ele>936.2</ele>
        <time>2009-08-22T10:29:23Z</time>
      </trkpt>
      <trkpt lat="43.00112" lon="-0.13228">
        <ele>936.6</ele>
        <time>2009-08-22T10:29:27Z</time>
      </trkpt>
      <trkpt lat="43.00127" lon="-0.13228">
        <ele>937.3</ele>
        <time>2009-08-22T10:29:31Z</time>
      </trkpt>
      <trkpt lat="43.00142" lon="-0.13227">
        <ele>937.7</ele>
        <time>2009-08-22T10:29:35Z</time>
      </trkpt>
      <trkpt lat="43.00157" lon="-0.13227">
        <ele>938.3</ele>
        <time>2009-08-22T10:29:39Z</time>
      </trkpt>
      <trkpt lat="43.00172" lon="-0.13225">
        <ele>938.7</ele>
        <time>2009-08-22T10:29:43Z</time>
      </trkpt>
      <trkpt lat="43.00185" lon="-0.13224">
        <ele>939.3</ele>
        <time>2009-08-22T10:29:47Z</time>
      </trkpt>
      <trkpt lat="43.00199" lon="-0.13223">
        <ele>940</ele>
        <time>2009-08-22T10:29:51Z</time>
      </trkpt>
      <trkpt lat="43.00213" lon="-0.13223">
        <ele>940.9</ele>
        <time>2009-08-22T10:29:55Z</time>
      </trkpt>
      <trkpt lat="43.00229" lon="-0.13223">
        <ele>941.8</ele>
        <time>2009-08-22T10:29:59Z</time>
      </trkpt>
      <trkpt lat="43.00244" lon="-0.13221">
        <ele>942.6</ele>
        <time>2009-08-22T10:30:03Z</time>
      </trkpt>
      <trkpt lat="43.0026" lon="-0.13222">
        <ele>943.6</ele>
        <time>2009-08-22T10:30:07Z</time>
      </trkpt>
      <trkpt lat="43.00263" lon="-0.13223">
        <ele>943.9</ele>
        <time>2009-08-22T10:30:08Z</time>
      </trkpt>
      <trkpt lat="43.0027" lon="-0.13244">
        <ele>945</ele>
        <time>2009-08-22T10:30:13Z</time>
      </trkpt>
      <trkpt lat="43.00272" lon="-0.1326">
        <ele>945.5</ele>
        <time>2009-08-22T10:30:16Z</time>
      </trkpt>
      <trkpt lat="43.00276" lon="-0.13279">
        <ele>945.8</ele>
        <time>2009-08-22T10:30:19Z</time>
      </trkpt>
      <trkpt lat="43.00286" lon="-0.13302">
        <ele>946</ele>
        <time>2009-08-22T10:30:23Z</time>
      </trkpt>
      <trkpt lat="43.00301" lon="-0.13325">
        <ele>945.6</ele>
        <time>2009-08-22T10:30:27Z</time>
      </trkpt>
      <trkpt lat="43.0031" lon="-0.13345">
        <ele>945.5</ele>
        <time>2009-08-22T10:30:30Z</time>
      </trkpt>
      <trkpt lat="43.00313" lon="-0.13352">
        <ele>945.6</ele>
        <time>2009-08-22T10:30:31Z</time>
      </trkpt>
      <trkpt lat="43.00326" lon="-0.13378">
        <ele>945.3</ele>
        <time>2009-08-22T10:30:35Z</time>
      </trkpt>
      <trkpt lat="43.00337" lon="-0.13392">
        <ele>944.6</ele>
        <time>2009-08-22T10:30:38Z</time>
      </trkpt>
      <trkpt lat="43.00355" lon="-0.13408">
        <ele>944.4</ele>
        <time>2009-08-22T10:30:43Z</time>
      </trkpt>
      <trkpt lat="43.00366" lon="-0.13421">
        <ele>945.1</ele>
        <time>2009-08-22T10:30:47Z</time>
      </trkpt>
      <trkpt lat="43.00377" lon="-0.13428">
        <ele>946.8</ele>
        <time>2009-08-22T10:30:51Z</time>
      </trkpt>
      <trkpt lat="43.00382" lon="-0.13429">
        <ele>946.9</ele>
        <time>2009-08-22T10:30:58Z</time>
      </trkpt>
      <trkpt lat="43.00381" lon="-0.13428">
        <ele>946.7</ele>
        <time>2009-08-22T10:31:06Z</time>
      </trkpt>
      <trkpt lat="43.00378" lon="-0.13428">
        <ele>946.6</ele>
        <time>2009-08-22T10:31:14Z</time>
      </trkpt>
    </trkseg>
  </trk>
</gpx>